Provisional Data: Hammer Creek near Route 322


Please select a monitoring station.
Please select start date.
Please select start date.

Toggle Unit: C/F Toggle Unit: C/F
Sample Time Temperature (C) Temperature (F) Specific Conductivity (mS/cm) pH   Turbidity (NTU+) DO (mg/L)
6/22/2021 12:00:00 AM 20.9 69.62 0.515 8.08 7.75 6.95
6/22/2021 12:15:00 AM 20.79 69.422 0.513 8.08 9.43 7.06
6/22/2021 12:30:00 AM 20.67 69.206 0.512 8.08 8.66 7.12
6/22/2021 12:45:00 AM 20.54 68.972 0.511 8.09 8.45 7.2
6/22/2021 1:00:00 AM 20.41 68.738 0.51 8.08 8.26 7.28
6/22/2021 1:15:00 AM 20.28 68.504 0.51 8.08 7.22 7.34
6/22/2021 1:30:00 AM 20.14 68.252 0.51 8.08 7.69 7.39
6/22/2021 1:45:00 AM 20 68 0.509 8.07 8 7.44
6/22/2021 2:00:00 AM 19.85 67.73 0.509 8.07 8.39 7.5
6/22/2021 2:15:00 AM 19.71 67.478 0.51 8.07 7.82 7.55
6/22/2021 2:30:00 AM 19.56 67.208 0.51 8.07 8.17 7.6
6/22/2021 2:45:00 AM 19.42 66.956 0.51 8.07 8.88 7.64
6/22/2021 3:00:00 AM 19.27 66.686 0.51 8.06 8.29 7.68
6/22/2021 3:15:00 AM 19.13 66.434 0.511 8.06 8.98 7.73
6/22/2021 3:30:00 AM 19 66.2 0.511 8.06 8.84 7.78
6/22/2021 3:45:00 AM 18.86 65.948 0.511 8.06 10.29 7.81
6/22/2021 4:00:00 AM 18.74 65.732 0.511 8.05 8.11 7.83
6/22/2021 4:15:00 AM 18.61 65.498 0.512 8.06 10.05 7.87
6/22/2021 4:30:00 AM 18.49 65.282 0.513 8.05 7.63 7.9
6/22/2021 4:45:00 AM 18.36 65.048 0.513 8.05 11.18 7.94
6/22/2021 5:00:00 AM 18.25 64.85 0.514 8.05 10 7.97
6/22/2021 5:15:00 AM 18.13 64.634 0.514 8.06 7.51 8
6/22/2021 5:30:00 AM 18.02 64.436 0.514 8.06 9.81 8.04
6/22/2021 5:45:00 AM 17.93 64.274 0.513 8.06 9.15 8.07
6/22/2021 6:00:00 AM 17.84 64.112 0.513 8.06 8.83 8.1
6/22/2021 6:15:00 AM 17.75 63.95 0.512 8.05 5.89 8.16
6/22/2021 6:30:00 AM 17.67 63.806 0.513 8.06 5.38 8.23
6/22/2021 6:45:00 AM 17.59 63.662 0.512 8.06 8.76 8.26
6/22/2021 7:00:00 AM 17.52 63.536 0.512 8.07 7.03 8.32
6/22/2021 7:15:00 AM 17.45 63.41 0.512 8.08 8.15 8.35
6/22/2021 7:30:00 AM 17.38 63.284 0.511 8.08 7.29 8.43
6/22/2021 7:45:00 AM 17.33 63.194 0.512 8.09 7.33 8.54
6/22/2021 8:00:00 AM 17.26 63.068 0.512 8.09 7.47 8.54
6/22/2021 8:15:00 AM 17.21 62.978 0.511 8.1 7.28 8.6
6/22/2021 8:30:00 AM 17.16 62.888 0.511 8.1 7.05 8.65
6/22/2021 8:45:00 AM 17.12 62.816 0.511 8.1 6.55 8.67
6/22/2021 9:00:00 AM 17.05 62.69 0.51 8.11 6.03 8.65
6/22/2021 9:15:00 AM 16.98 62.564 0.51 8.11 6.08 8.72
6/22/2021 9:30:00 AM 16.92 62.456 0.509 8.12 6.32 8.76
6/22/2021 9:45:00 AM 16.86 62.348 0.509 8.13 6.04 8.86
6/22/2021 10:00:00 AM 16.81 62.258 0.508 8.14 5.55 8.97
6/22/2021 10:15:00 AM 16.76 62.168 0.508 8.15 5.7 9.01
6/22/2021 10:30:00 AM 16.71 62.078 0.507 8.17 5.45 9.09
6/22/2021 10:45:00 AM 16.66 61.988 0.504 8.18 5.99 9.13
6/22/2021 11:00:00 AM 16.61 61.898 0.5 8.19 6.11 9.21
6/22/2021 11:15:00 AM 16.57 61.826 0.495 8.2 7.23 9.31
6/22/2021 11:30:00 AM 16.52 61.736 0.493 8.19 7.4 9.03
6/22/2021 11:45:00 AM 16.49 61.682 0.491 8.2 6.95 9.31
6/22/2021 12:00:00 PM 16.45 61.61 0.491 8.19 7.05 9.42
6/22/2021 12:15:00 PM 16.41 61.538 0.489 8.2 7.03 9.35
6/22/2021 12:30:00 PM 16.42 61.556 0.485 8.21 7.81 9.6
6/22/2021 12:45:00 PM 16.46 61.628 0.483 8.23 7.46 9.76
6/22/2021 1:00:00 PM 16.48 61.664 0.481 8.25 7.18 9.91
6/22/2021 1:15:00 PM 16.45 61.61 0.481 8.24 7.07 9.81
6/22/2021 1:30:00 PM 16.44 61.592 0.481 8.25 7.21 9.81
6/22/2021 1:45:00 PM 16.44 61.592 0.481 8.26 6.7 9.79
6/22/2021 2:00:00 PM 16.44 61.592 0.481 8.27 6.9 9.81
6/22/2021 2:15:00 PM 16.43 61.574 0.482 8.27 7.42 9.79
6/22/2021 2:30:00 PM 16.44 61.592 0.482 8.28 7.41 9.89
6/22/2021 2:45:00 PM 16.45 61.61 0.482 8.29 7.31 9.91
6/22/2021 3:00:00 PM 16.44 61.592 0.482 8.29 7.09 9.92
6/22/2021 3:15:00 PM 16.44 61.592 0.483 8.3 6.51 9.92
6/22/2021 3:30:00 PM 16.46 61.628 0.483 8.32 6.68 10.02
6/22/2021 3:45:00 PM 16.48 61.664 0.483 8.34 7.01 10.1
6/22/2021 4:00:00 PM 16.47 61.646 0.482 8.36 6.93 10.08
6/22/2021 4:15:00 PM 16.47 61.646 0.481 8.36 6.85 10.09
6/22/2021 4:30:00 PM 16.5 61.7 0.48 8.37 6.65 10.17
6/22/2021 4:45:00 PM 16.53 61.754 0.478 8.39 6.73 10.28
6/22/2021 5:00:00 PM 16.55 61.79 0.476 8.4 6.91 10.29
6/22/2021 5:15:00 PM 16.54 61.772 0.475 8.42 7.09 10.26
6/22/2021 5:30:00 PM 16.56 61.808 0.474 8.41 6.83 10.25
6/22/2021 5:45:00 PM 16.57 61.826 0.474 8.41 7.02 10.22
6/22/2021 6:00:00 PM 16.56 61.808 0.473 8.42 8.16 10.13
6/22/2021 6:15:00 PM 16.55 61.79 0.474 8.41 7.73 10.04
6/22/2021 6:30:00 PM 16.55 61.79 0.474 8.41 7.86 9.99
6/22/2021 6:45:00 PM 16.57 61.826 0.474 8.41 8.14 9.91
6/22/2021 7:00:00 PM 16.57 61.826 0.476 8.39 8.55 9.81
6/22/2021 7:15:00 PM 16.56 61.808 0.478 8.37 8.86 9.68
6/22/2021 7:30:00 PM 16.55 61.79 0.479 8.36 9.58 9.6
6/22/2021 7:45:00 PM 16.5 61.7 0.481 8.34 8.78 9.48
6/22/2021 8:00:00 PM 16.44 61.592 0.482 8.32 9.38 9.39
6/22/2021 8:15:00 PM 16.37 61.466 0.484 8.31 9.34 9.31
6/22/2021 8:30:00 PM 16.3 61.34 0.485 8.3 9.56 9.24
6/22/2021 8:45:00 PM 16.22 61.196 0.485 8.3 9.95 9.21
6/22/2021 9:00:00 PM 16.14 61.052 0.486 8.29 9.55 9.17
6/22/2021 9:15:00 PM 16.05 60.89 0.486 8.29 6.32 9.11
6/22/2021 9:30:00 PM 15.96 60.728 0.487 8.29 8.31 9.08
6/22/2021 9:45:00 PM 15.87 60.566 0.487 8.27 8.84 9.09
6/22/2021 10:00:00 PM 15.77 60.386 0.487 8.28 5.88 9.1
6/22/2021 10:15:00 PM 15.67 60.206 0.486 8.28 9.16 9.08
6/22/2021 10:30:00 PM 15.58 60.044 0.486 8.27 5.62 9.09
6/22/2021 10:45:00 PM 15.49 59.882 0.485 8.27 8.95 9.07
6/22/2021 11:00:00 PM 15.4 59.72 0.484 8.26 10.7 9.1
6/22/2021 11:15:00 PM 15.31 59.558 0.483 8.26 6.82 9.09
6/22/2021 11:30:00 PM 15.21 59.378 0.482 8.25 6.35 9.1
6/22/2021 11:45:00 PM 15.11 59.198 0.48 8.25 6.33 9.12
6/23/2021 12:00:00 AM 15.01 59.018 0.478 8.23 9.02 9.13
6/23/2021 12:15:00 AM 14.91 58.838 0.476 8.23 6 9.15
6/23/2021 12:30:00 AM 14.81 58.658 0.474 8.22 8.77 9.16
6/23/2021 12:45:00 AM 14.72 58.496 0.473 8.21 6.61 9.17
6/23/2021 1:00:00 AM 14.62 58.316 0.471 8.21 6.25 9.18
6/23/2021 1:15:00 AM 14.53 58.154 0.469 8.21 6.24 9.21
6/23/2021 1:30:00 AM 14.44 57.992 0.468 8.19 9.25 9.22
6/23/2021 1:45:00 AM 14.34 57.812 0.467 8.19 9.12 9.22
6/23/2021 2:00:00 AM 14.25 57.65 0.467 8.18 7.64 9.23
6/23/2021 2:15:00 AM 14.15 57.47 0.466 8.17 9.97 9.24
6/23/2021 2:30:00 AM 14.05 57.29 0.466 8.17 8.56 9.25
6/23/2021 2:45:00 AM 13.95 57.11 0.466 8.16 7.87 9.26
6/23/2021 3:00:00 AM 13.98 57.164 0.465 8.15 8.64 9.24
6/23/2021 3:15:00 AM 13.88 56.984 0.466 8.15 7.72 9.27
6/23/2021 3:30:00 AM 13.77 56.786 0.466 8.14 7.76 9.31
6/23/2021 3:45:00 AM 13.67 56.606 0.467 8.14 9.28 9.33
6/23/2021 4:00:00 AM 13.57 56.426 0.468 8.14 8.19 9.36
6/23/2021 4:15:00 AM 13.47 56.246 0.469 8.14 10.86 9.38
6/23/2021 4:30:00 AM 13.38 56.084 0.471 8.13 6.54 9.4
6/23/2021 4:45:00 AM 13.28 55.904 0.472 8.13 9.12 9.44
6/23/2021 5:00:00 AM 13.19 55.742 0.473 8.13 9.31 9.45
6/23/2021 5:15:00 AM 13.1 55.58 0.475 8.13 5.93 9.44
6/23/2021 5:30:00 AM 13.01 55.418 0.476 8.14 10.11 9.42
6/23/2021 5:45:00 AM 12.93 55.274 0.478 8.13 8.19 9.5
6/23/2021 6:00:00 AM 12.85 55.13 0.479 8.14 8.24 9.54
6/23/2021 6:15:00 AM 12.77 54.986 0.481 8.14 10 9.63
6/23/2021 6:30:00 AM 12.7 54.86 0.482 8.14 9.59 9.68
6/23/2021 6:45:00 AM 12.63 54.734 0.484 8.15 9.01 9.72
6/23/2021 7:00:00 AM 12.58 54.644 0.486 8.16 8.34 9.79
6/23/2021 7:15:00 AM 12.54 54.572 0.486 8.16 7.16 9.84
6/23/2021 7:30:00 AM 12.51 54.518 0.488 8.16 7.12 9.89
6/23/2021 7:45:00 AM 12.49 54.482 0.488 8.17 7.5 9.93
6/23/2021 8:00:00 AM 12.49 54.482 0.489 8.18 9.01 10
6/23/2021 8:15:00 AM 12.51 54.518 0.49 8.19 6.75 10.09
6/23/2021 8:30:00 AM 12.56 54.608 0.491 8.2 7 10.2
6/23/2021 8:45:00 AM 12.61 54.698 0.491 8.21 7.57 10.27
6/23/2021 9:00:00 AM 12.69 54.842 0.492 8.21 7 10.34
6/23/2021 9:15:00 AM 12.76 54.968 0.493 8.22 6.36 10.43
6/23/2021 9:30:00 AM 12.84 55.112 0.492 8.24 5.57 10.49
6/23/2021 9:45:00 AM 12.93 55.274 0.493 8.25 7.12 10.55
6/23/2021 10:00:00 AM 13.04 55.472 0.493 8.26 6.68 10.62
6/23/2021 10:15:00 AM 13.18 55.724 0.493 8.27 5.82 10.71
6/23/2021 10:30:00 AM 13.33 55.994 0.494 8.28 5.85 10.79
6/23/2021 10:45:00 AM 13.51 56.318 0.494 8.29 6.11 10.85
6/23/2021 11:00:00 AM 13.68 56.624 0.494 8.3 6.33 10.97
6/23/2021 11:15:00 AM 13.87 56.966 0.494 8.33 8.75 11.04
6/23/2021 11:30:00 AM 14.08 57.344 0.495 8.35 5.72 11.12
6/23/2021 11:45:00 AM 14.3 57.74 0.495 8.36 6.15 11.19
6/23/2021 12:00:00 PM 14.53 58.154 0.495 8.39 6.2 11.27
6/23/2021 12:15:00 PM 14.78 58.604 0.495 8.4 7.07 11.33
6/23/2021 12:30:00 PM 14.98 58.964 0.494 8.41 6.64 11.4
6/23/2021 12:45:00 PM 15.22 59.396 0.494 8.43 7.77 11.46
6/23/2021 1:00:00 PM 15.35 59.63 0.494 8.45 7.86 11.41
6/23/2021 1:15:00 PM 15.5 59.9 0.493 8.47 9.02 11.37
6/23/2021 1:30:00 PM 15.82 60.476 0.492 8.49 8.06 11.46
6/23/2021 1:45:00 PM 16.23 61.214 0.491 8.52 8 11.55
6/23/2021 2:00:00 PM 16.62 61.916 0.49 8.55 5.78 11.6
6/23/2021 2:15:00 PM 16.99 62.582 0.489 8.58 6.51 11.64
6/23/2021 2:30:00 PM 17.2 62.96 0.488 8.6 6.44 11.5
6/23/2021 2:45:00 PM 17.61 63.698 0.487 8.63 6.61 11.52
6/23/2021 3:00:00 PM 17.81 64.058 0.487 8.64 6.47 11.43
6/23/2021 3:15:00 PM 17.92 64.256 0.485 8.65 6.62 11.29
6/23/2021 3:30:00 PM 18.18 64.724 0.485 8.66 6.42 11.2
6/23/2021 3:45:00 PM 18.33 64.994 0.484 8.66 6.83 10.97
6/23/2021 4:00:00 PM 18.43 65.174 0.484 8.67 6.59 10.87
6/23/2021 4:15:00 PM 18.51 65.318 0.483 8.68 6.1 10.74
6/23/2021 4:30:00 PM 18.65 65.57 0.483 8.68 6.41 10.65
6/23/2021 4:45:00 PM 18.72 65.696 0.483 8.69 6.12 10.51
6/23/2021 5:00:00 PM 18.64 65.552 0.483 8.68 6.38 10.22
6/23/2021 5:15:00 PM 18.68 65.624 0.483 8.67 6.56 10.03
6/23/2021 5:30:00 PM 18.74 65.732 0.483 8.67 6.59 9.92
6/23/2021 5:45:00 PM 18.82 65.876 0.482 8.66 2.94 9.76
6/23/2021 6:00:00 PM 18.83 65.894 0.48 8.64 6.59 9.6
6/23/2021 6:15:00 PM 18.87 65.966 0.483 8.63 6.01 9.5
6/23/2021 6:30:00 PM 18.86 65.948 0.484 8.62 4.57 9.33
6/23/2021 6:45:00 PM 18.85 65.93 0.484 8.61 7 9.18
6/23/2021 7:00:00 PM 18.86 65.948 0.484 8.59 8.07 9.09
6/23/2021 7:15:00 PM 18.86 65.948 0.484 8.58 6.45 8.88
6/23/2021 7:30:00 PM 18.85 65.93 0.485 8.56 6.34 8.88
6/23/2021 7:45:00 PM 18.83 65.894 0.486 8.55 7.11 8.79
6/23/2021 8:00:00 PM 18.8 65.84 0.486 8.53 6.72 8.68
6/23/2021 8:15:00 PM 18.76 65.768 0.487 8.51 6.31 8.57
6/23/2021 8:30:00 PM 18.72 65.696 0.488 8.48 6.26 8.6
6/23/2021 8:45:00 PM 18.66 65.588 0.489 8.46 6.68 8.52
6/23/2021 9:00:00 PM 18.59 65.462 0.49 8.44 7.05 8.42
6/23/2021 9:15:00 PM 18.52 65.336 0.491 8.42 7.7 8.41
6/23/2021 9:30:00 PM 18.44 65.192 0.491 8.41 8.49 8.37
6/23/2021 9:45:00 PM 18.36 65.048 0.492 8.39 6.69 8.37
6/23/2021 10:00:00 PM 18.28 64.904 0.492 8.37 7.13 8.37
6/23/2021 10:15:00 PM 18.21 64.778 0.493 8.36 7.49 8.35
6/23/2021 10:30:00 PM 18.12 64.616 0.494 8.34 7.61 8.35
6/23/2021 10:45:00 PM 18.04 64.472 0.495 8.34 6.91 8.31
6/23/2021 11:00:00 PM 17.93 64.274 0.496 8.32 8.82 8.3
6/23/2021 11:15:00 PM 17.8 64.04 0.496 8.3 8.47 8.38
6/23/2021 11:30:00 PM 17.66 63.788 0.497 8.3 8.87 8.38
6/23/2021 11:45:00 PM 17.51 63.518 0.499 8.29 6.77 8.44
6/24/2021 12:00:00 AM 17.35 63.23 0.5 8.27 5.72 8.47
6/24/2021 12:15:00 AM 17.18 62.924 0.5 8.26 8.16 8.48
6/24/2021 12:30:00 AM 17.02 62.636 0.501 8.26 8.63 8.41
6/24/2021 12:45:00 AM 16.86 62.348 0.502 8.25 8.11 8.46
6/24/2021 1:00:00 AM 16.7 62.06 0.503 8.24 7.49 8.62
6/24/2021 1:15:00 AM 16.55 61.79 0.503 8.23 9.38 8.66
6/24/2021 1:30:00 AM 16.39 61.502 0.504 8.22 8.46 8.61
6/24/2021 1:45:00 AM 16.23 61.214 0.504 8.22 9.24 8.69
6/24/2021 2:00:00 AM 16.07 60.926 0.505 8.22 10.18 8.69
6/24/2021 2:15:00 AM 15.91 60.638 0.506 8.2 6.66 8.8
6/24/2021 2:30:00 AM 15.74 60.332 0.507 8.2 8.79 8.86
6/24/2021 2:45:00 AM 15.58 60.044 0.508 8.2 8.63 8.86
6/24/2021 3:00:00 AM 15.41 59.738 0.508 8.19 9.82 8.81
6/24/2021 3:15:00 AM 15.24 59.432 0.509 8.18 8.41 8.96
6/24/2021 3:30:00 AM 15.08 59.144 0.51 8.18 8.36 9.03
6/24/2021 3:45:00 AM 14.91 58.838 0.511 8.18 8.4 9.08
6/24/2021 4:00:00 AM 14.76 58.568 0.511 8.17 8.3 9.13
6/24/2021 4:15:00 AM 14.62 58.316 0.511 8.17 8.54 9.13
6/24/2021 4:30:00 AM 14.48 58.064 0.512 8.17 7.96 9.22
6/24/2021 4:45:00 AM 14.36 57.848 0.512 8.16 8.97 9.24
6/24/2021 5:00:00 AM 14.24 57.632 0.512 8.16 7.7 9.26
6/24/2021 5:15:00 AM 14.13 57.434 0.512 8.16 7.72 9.3
6/24/2021 5:30:00 AM 14.02 57.236 0.512 8.17 9.53 9.35
6/24/2021 5:45:00 AM 13.92 57.056 0.512 8.16 7.69 9.4
6/24/2021 6:00:00 AM 13.83 56.894 0.512 8.17 9.25 9.46
6/24/2021 6:15:00 AM 13.75 56.75 0.512 8.17 8.75 9.52
6/24/2021 6:30:00 AM 13.68 56.624 0.512 8.17 7.66 9.58
6/24/2021 6:45:00 AM 13.62 56.516 0.511 8.18 6.68 9.66
6/24/2021 7:00:00 AM 13.57 56.426 0.512 8.18 6.87 9.74
6/24/2021 7:15:00 AM 13.53 56.354 0.512 8.19 7.02 9.85
6/24/2021 7:30:00 AM 13.51 56.318 0.511 8.2 6.37 9.96
6/24/2021 7:45:00 AM 13.49 56.282 0.511 8.22 6.34 10.08
6/24/2021 8:00:00 AM 13.49 56.282 0.511 8.23 5.91 10.16
6/24/2021 8:15:00 AM 13.49 56.282 0.511 8.24 5.89 10.2
6/24/2021 8:30:00 AM 13.52 56.336 0.511 8.24 5.51 10.23
6/24/2021 8:45:00 AM 13.57 56.426 0.511 8.25 6.42 10.29
6/24/2021 9:00:00 AM 13.62 56.516 0.511 8.25 6.02 10.36
6/24/2021 9:15:00 AM 13.7 56.66 0.51 8.26 5.51 10.44
6/24/2021 9:30:00 AM 13.77 56.786 0.51 8.28 5.9 10.51
6/24/2021 9:45:00 AM 13.86 56.948 0.51 8.28 5.73 10.58
6/24/2021 10:00:00 AM 13.98 57.164 0.51 8.3 5.57 10.65
6/24/2021 10:15:00 AM 14.11 57.398 0.51 8.31 6.24 10.73
6/24/2021 10:30:00 AM 14.27 57.686 0.509 8.31 6 10.83
6/24/2021 10:45:00 AM 14.45 58.01 0.508 8.34 6.14 10.92
6/24/2021 11:00:00 AM 14.63 58.334 0.508 8.35 5.52 11.03
6/24/2021 11:15:00 AM 14.78 58.604 0.508 8.37 5.31 11.12
6/24/2021 11:30:00 AM 14.98 58.964 0.507 8.37 5.57 11.21
6/24/2021 11:45:00 AM 15.21 59.378 0.506 8.4 5.64 11.31
6/24/2021 12:00:00 PM 15.39 59.702 0.506 8.41 5.26 11.37
6/24/2021 12:15:00 PM 15.6 60.08 0.505 8.44 6.21 11.53
6/24/2021 12:30:00 PM 15.84 60.512 0.504 8.47 5.43 11.57
6/24/2021 12:45:00 PM 16.07 60.926 0.504 8.48 5.43 11.57
6/24/2021 1:00:00 PM 16.38 61.484 0.503 8.5 5.83 11.67
6/24/2021 1:15:00 PM 16.65 61.97 0.502 8.52 5.94 11.73
6/24/2021 1:30:00 PM 16.95 62.51 0.501 8.54 6.43 11.73
6/24/2021 1:45:00 PM 17.26 63.068 0.499 8.56 2.67 11.63
6/24/2021 2:00:00 PM 17.59 63.662 0.499 8.59 5.91 11.69
6/24/2021 2:15:00 PM 17.81 64.058 0.497 8.61 6.21 11.62
6/24/2021 2:30:00 PM 18.27 64.886 0.496 8.65 6.11 11.84
6/24/2021 2:45:00 PM 18.61 65.498 0.494 8.67 6.11 11.56
6/24/2021 3:00:00 PM 18.89 66.002 0.493 8.68 6.41 11.75
6/24/2021 3:15:00 PM 19.15 66.47 0.491 8.7 6.35 11.68
6/24/2021 3:30:00 PM 19.29 66.722 0.49 8.71 6.57 11.49
6/24/2021 3:45:00 PM 19.41 66.938 0.49 8.71 6.95 11.2
6/24/2021 4:00:00 PM 19.55 67.19 0.489 8.72 6.33 11.13
6/24/2021 4:15:00 PM 19.65 67.37 0.488 8.73 6.51 11.01
6/24/2021 4:30:00 PM 19.66 67.388 0.488 8.73 6.11 10.84
6/24/2021 4:45:00 PM 19.56 67.208 0.488 8.71 5.93 10.49
6/24/2021 5:00:00 PM 19.66 67.388 0.487 8.7 5.73 10.29
6/24/2021 5:15:00 PM 19.68 67.424 0.487 8.7 5.79 10.16
6/24/2021 5:30:00 PM 19.69 67.442 0.487 8.69 5.67 10.01
6/24/2021 5:45:00 PM 19.66 67.388 0.487 8.68 5.6 9.81
6/24/2021 6:00:00 PM 19.64 67.352 0.487 8.68 5.9 9.63
6/24/2021 6:15:00 PM 19.65 67.37 0.486 8.66 5.75 9.5
6/24/2021 6:30:00 PM 19.66 67.388 0.486 8.65 6.9 9.36
6/24/2021 6:45:00 PM 19.63 67.334 0.487 8.64 5.97 9.2
6/24/2021 7:00:00 PM 19.6 67.28 0.487 8.62 5.81 9.09
6/24/2021 7:15:00 PM 19.57 67.226 0.487 8.61 5.52 8.96
6/24/2021 7:30:00 PM 19.53 67.154 0.488 8.58 6.6 8.76
6/24/2021 7:45:00 PM 19.48 67.064 0.489 8.56 6.18 8.75
6/24/2021 8:00:00 PM 19.43 66.974 0.489 8.55 6.76 8.64
6/24/2021 8:15:00 PM 19.38 66.884 0.489 8.52 6.12 8.45
6/24/2021 8:30:00 PM 19.32 66.776 0.49 8.5 6.38 8.41
6/24/2021 8:45:00 PM 19.27 66.686 0.491 8.47 6.88 8.29
6/24/2021 9:00:00 PM 19.22 66.596 0.491 8.44 7.16 8.29
6/24/2021 9:15:00 PM 19.15 66.47 0.492 8.43 7.71 8.19
6/24/2021 9:30:00 PM 19.08 66.344 0.493 8.41 9.11 8.18
6/24/2021 9:45:00 PM 19 66.2 0.494 8.39 9.44 8.15
6/24/2021 10:00:00 PM 18.91 66.038 0.494 8.38 8.97 8.01
6/24/2021 10:15:00 PM 18.82 65.876 0.495 8.37 9.55 8.04
6/24/2021 10:30:00 PM 18.73 65.714 0.495 8.36 9.45 8.2
6/24/2021 10:45:00 PM 18.64 65.552 0.496 8.35 8.84 8.23
6/24/2021 11:00:00 PM 18.54 65.372 0.496 8.33 8.66 8.16
6/24/2021 11:15:00 PM 18.43 65.174 0.498 8.32 9.92 8.19
6/24/2021 11:30:00 PM 18.32 64.976 0.499 8.3 9.71 8.22
6/24/2021 11:45:00 PM 18.21 64.778 0.5 8.29 8.01 8.15
6/25/2021 12:00:00 AM 18.09 64.562 0.502 8.28 10.2 8.16
6/25/2021 12:15:00 AM 17.97 64.346 0.503 8.26 9.93 8.12
6/25/2021 12:30:00 AM 17.85 64.13 0.504 8.26 10.11 8.22
6/25/2021 12:45:00 AM 17.72 63.896 0.505 8.24 7.56 8.18
6/25/2021 1:00:00 AM 17.59 63.662 0.505 8.24 10.4 8.37
6/25/2021 1:15:00 AM 17.45 63.41 0.506 8.23 10.23 8.41
6/25/2021 1:30:00 AM 17.31 63.158 0.507 8.22 10.4 8.44
6/25/2021 1:45:00 AM 17.16 62.888 0.508 8.21 10.18 8.48
6/25/2021 2:00:00 AM 17.01 62.618 0.509 8.21 10 8.53
6/25/2021 2:15:00 AM 16.85 62.33 0.51 8.21 10.22 8.57
6/25/2021 2:30:00 AM 16.68 62.024 0.511 8.21 9.6 8.61
6/25/2021 2:45:00 AM 16.52 61.736 0.512 8.2 9.81 8.67
6/25/2021 3:00:00 AM 16.35 61.43 0.512 8.2 8.79 8.71
6/25/2021 3:15:00 AM 16.18 61.124 0.513 8.19 9.77 8.76
6/25/2021 3:30:00 AM 16.01 60.818 0.514 8.18 9.67 8.8
6/25/2021 3:45:00 AM 15.85 60.53 0.514 8.18 9.8 8.84
6/25/2021 4:00:00 AM 15.69 60.242 0.515 8.18 10.03 8.9
6/25/2021 4:15:00 AM 15.54 59.972 0.515 8.17 9.63 8.94
6/25/2021 4:30:00 AM 15.38 59.684 0.516 8.17 9.63 8.97
6/25/2021 4:45:00 AM 15.24 59.432 0.516 8.16 9.32 9.01
6/25/2021 5:00:00 AM 15.09 59.162 0.516 8.16 8.96 9.06
6/25/2021 5:15:00 AM 14.95 58.91 0.516 8.15 8.66 9.08
6/25/2021 5:30:00 AM 14.82 58.676 0.516 8.14 14.36 9.11
6/25/2021 5:45:00 AM 14.69 58.442 0.516 8.15 5.68 9.18
6/25/2021 6:00:00 AM 14.58 58.244 0.517 8.15 8.36 9.23
6/25/2021 6:15:00 AM 14.46 58.028 0.517 8.16 7.52 9.29
6/25/2021 6:30:00 AM 14.37 57.866 0.516 8.16 6.83 9.36
6/25/2021 6:45:00 AM 14.28 57.704 0.516 8.18 6.81 9.45
6/25/2021 7:00:00 AM 14.2 57.56 0.516 8.17 6.28 9.5
6/25/2021 7:15:00 AM 14.14 57.452 0.516 8.18 6.67 9.55
6/25/2021 7:30:00 AM 14.08 57.344 0.517 8.18 6.24 9.6
6/25/2021 7:45:00 AM 14.04 57.272 0.516 8.2 6.36 9.67
6/25/2021 8:00:00 AM 14.03 57.254 0.516 8.2 5.6 9.78
6/25/2021 8:15:00 AM 14.03 57.254 0.516 8.21 5.79 9.87
6/25/2021 8:30:00 AM 14.06 57.308 0.516 8.22 5.52 9.99
6/25/2021 8:45:00 AM 14.09 57.362 0.516 8.23 5.82 10.09
6/25/2021 9:00:00 AM 14.15 57.47 0.515 8.25 5.08 10.21
6/25/2021 9:15:00 AM 14.21 57.578 0.515 8.26 8.02 10.32
6/25/2021 9:30:00 AM 14.28 57.704 0.514 8.26 7.3 10.43
6/25/2021 9:45:00 AM 14.35 57.83 0.514 8.28 7.86 10.54
6/25/2021 10:00:00 AM 14.45 58.01 0.513 8.3 6.58 10.51
6/25/2021 10:15:00 AM 14.57 58.226 0.513 8.32 5.38 10.8
6/25/2021 10:30:00 AM 14.72 58.496 0.513 8.34 5.39 10.91
6/25/2021 10:45:00 AM 14.89 58.802 0.512 8.35 4.6 11.05
6/25/2021 11:00:00 AM 15.06 59.108 0.511 8.37 5.42 11.17
6/25/2021 11:15:00 AM 15.23 59.414 0.51 8.4 5.67 11.25
6/25/2021 11:30:00 AM 15.43 59.774 0.51 8.41 6.41 11.32
6/25/2021 11:45:00 AM 15.63 60.134 0.509 8.43 8.41 11.43
6/25/2021 12:00:00 PM 15.86 60.548 0.508 8.44 6 11.57
6/25/2021 12:15:00 PM 16.06 60.908 0.508 8.46 6.46 11.65
6/25/2021 12:30:00 PM 16.28 61.304 0.507 8.49 5.34 11.76
6/25/2021 12:45:00 PM 16.48 61.664 0.505 8.51 6.22 11.85
6/25/2021 1:00:00 PM 16.69 62.042 0.504 8.53 5.97 11.9
6/25/2021 1:15:00 PM 16.87 62.366 0.503 8.55 3.92 11.94
6/25/2021 1:30:00 PM 17.14 62.852 0.502 8.58 5.51 12
6/25/2021 1:45:00 PM 17.43 63.374 0.501 8.6 5.1 12.02
6/25/2021 2:00:00 PM 17.75 63.95 0.499 8.62 5.21 12.06
6/25/2021 2:15:00 PM 18.04 64.472 0.498 8.66 5.08 12.05
6/25/2021 2:30:00 PM 18.32 64.976 0.496 8.67 5.55 12.02
6/25/2021 2:45:00 PM 18.61 65.498 0.494 8.7 6.25 11.98
6/25/2021 3:00:00 PM 18.9 66.02 0.493 8.7 6.38 11.89
6/25/2021 3:15:00 PM 19.14 66.452 0.491 8.73 6.1 11.79
6/25/2021 3:30:00 PM 19.33 66.794 0.49 8.74 5.51 11.63
6/25/2021 3:45:00 PM 19.47 67.046 0.488 8.75 16.65 11.49
6/25/2021 4:00:00 PM 19.57 67.226 0.487 8.76 7.96 11.37
6/25/2021 4:15:00 PM 19.7 67.46 0.486 8.75 19.65 11.27
6/25/2021 4:30:00 PM 19.78 67.604 0.485 8.77 4.35 11.09
6/25/2021 4:45:00 PM 19.89 67.802 0.484 8.78 32.04 10.93
6/25/2021 5:00:00 PM 19.94 67.892 0.483 8.77 6.31 10.78
6/25/2021 5:15:00 PM 20.03 68.054 0.482 8.77 7.82 10.61
6/25/2021 5:30:00 PM 20.1 68.18 0.482 8.75 6.71 10.4
6/25/2021 5:45:00 PM 20.12 68.216 0.481 8.75 5.72 10.15
6/25/2021 6:00:00 PM 20.13 68.234 0.482 8.72 5.74 9.91
6/25/2021 6:15:00 PM 20.13 68.234 0.482 8.72 5.89 9.7
6/25/2021 6:30:00 PM 20.12 68.216 0.482 8.7 5.96 9.49
6/25/2021 6:45:00 PM 20.11 68.198 0.482 8.67 5.8 9.29
6/25/2021 7:00:00 PM 20.09 68.162 0.482 8.66 6.27 9.1
6/25/2021 7:15:00 PM 20.06 68.108 0.483 8.64 6.23 8.94
6/25/2021 7:30:00 PM 20.04 68.07201 0.483 8.61 5.54 8.81
6/25/2021 7:45:00 PM 20.02 68.036 0.483 8.59 5.96 8.69
6/25/2021 8:00:00 PM 20 68 0.484 8.57 5.97 8.59
6/25/2021 8:15:00 PM 19.95 67.91 0.485 8.55 6.31 8.48
6/25/2021 8:30:00 PM 19.9 67.82 0.485 8.52 6.01 8.39
6/25/2021 8:45:00 PM 19.84 67.712 0.486 8.49 5.74 8.31
6/25/2021 9:00:00 PM 19.78 67.604 0.487 8.47 6.05 8.24
6/25/2021 9:15:00 PM 19.72 67.496 0.487 8.45 6.36 8.18
6/25/2021 9:30:00 PM 19.66 67.388 0.488 8.42 7.48 8.09
6/25/2021 9:45:00 PM 19.59 67.262 0.489 8.4 8.14 8.08
6/25/2021 10:00:00 PM 19.53 67.154 0.489 8.38 8.58 8.02
6/25/2021 10:15:00 PM 19.45 67.01 0.49 8.36 9.49 8.02
6/25/2021 10:30:00 PM 19.38 66.884 0.491 8.36 9.86 8.02
6/25/2021 10:45:00 PM 19.3 66.74 0.492 8.35 8.99 8.04
6/25/2021 11:00:00 PM 19.21 66.578 0.493 8.32 10.08 8.03
6/25/2021 11:15:00 PM 19.11 66.398 0.494 8.31 9.23 8.05
6/25/2021 11:30:00 PM 19.01 66.218 0.495 8.3 9.81 8.07
6/25/2021 11:45:00 PM 18.9 66.02 0.496 8.29 9.65 8.08
6/26/2021 12:00:00 AM 18.79 65.82201 0.497 8.27 5.36 8.1
6/26/2021 12:15:00 AM 18.68 65.624 0.499 8.25 5.6 8.09
6/26/2021 12:30:00 AM 18.57 65.426 0.5 8.24 8.07 8.1
6/26/2021 12:45:00 AM 18.47 65.246 0.501 8.23 7.71 8.12
6/26/2021 1:00:00 AM 18.35 65.03 0.502 8.21 9.97 8.14
6/26/2021 1:15:00 AM 18.23 64.814 0.503 8.21 9.9 8.17
6/26/2021 1:30:00 AM 18.11 64.598 0.505 8.19 5.44 8.2
6/26/2021 1:45:00 AM 17.99 64.382 0.506 8.2 8.33 8.25
6/26/2021 2:00:00 AM 17.87 64.166 0.507 8.18 9.79 8.29
6/26/2021 2:15:00 AM 17.75 63.95 0.508 8.18 7.19 8.33
6/26/2021 2:30:00 AM 17.63 63.734 0.51 8.18 10.37 8.37
6/26/2021 2:45:00 AM 17.5 63.5 0.51 8.18 8.85 8.42
6/26/2021 3:00:00 AM 17.38 63.284 0.512 8.17 10.22 8.45
6/26/2021 3:15:00 AM 17.26 63.068 0.513 8.16 8.59 8.49
6/26/2021 3:30:00 AM 17.14 62.852 0.514 8.16 9.59 8.54
6/26/2021 3:45:00 AM 17.02 62.636 0.514 8.14 8.79 8.57
6/26/2021 4:00:00 AM 16.91 62.438 0.515 8.13 9.6 8.61
6/26/2021 4:15:00 AM 16.8 62.24 0.515 8.13 10.41 8.63
6/26/2021 4:30:00 AM 16.7 62.06 0.516 8.15 8.6 8.66
6/26/2021 4:45:00 AM 16.6 61.88 0.517 8.12 10.63 8.68
6/26/2021 5:00:00 AM 16.5 61.7 0.517 8.11 9.95 8.71
6/26/2021 5:15:00 AM 16.41 61.538 0.517 8.12 10.38 8.74
6/26/2021 5:30:00 AM 16.31 61.358 0.517 8.11 9.92 8.77
6/26/2021 5:45:00 AM 16.23 61.214 0.517 8.12 7.04 8.79
6/26/2021 6:00:00 AM 16.14 61.052 0.517 8.11 9.45 8.84
6/26/2021 6:15:00 AM 16.07 60.926 0.517 8.12 8.72 8.89
6/26/2021 6:30:00 AM 16.02 60.836 0.518 8.12 6.85 8.97
6/26/2021 6:45:00 AM 15.97 60.746 0.518 8.13 8.66 9.04
6/26/2021 7:00:00 AM 15.93 60.674 0.519 8.13 7.61 9.13
6/26/2021 7:15:00 AM 15.91 60.638 0.518 8.14 6.52 9.22
6/26/2021 7:30:00 AM 15.9 60.62 0.519 8.15 6.93 9.29
6/26/2021 7:45:00 AM 15.92 60.656 0.519 8.17 6.56 9.41
6/26/2021 8:00:00 AM 15.94 60.692 0.519 8.18 6.09 9.52
6/26/2021 8:15:00 AM 15.98 60.764 0.519 8.2 6.81 9.66
6/26/2021 8:30:00 AM 16.06 60.908 0.518 8.22 6.29 9.81
6/26/2021 8:45:00 AM 16.08 60.944 0.518 8.22 6.62 9.85
6/26/2021 9:00:00 AM 16.13 61.034 0.517 8.24 5.46 9.98
6/26/2021 9:15:00 AM 16.18 61.124 0.517 8.25 5.37 10.06
6/26/2021 9:30:00 AM 16.21 61.178 0.517 8.27 5.69 10.1
6/26/2021 9:45:00 AM 16.29 61.322 0.516 8.28 6.48 10.24
6/26/2021 10:00:00 AM 16.36 61.448 0.516 8.3 4.57 10.3
6/26/2021 10:15:00 AM 16.52 61.736 0.515 8.33 6.79 10.55
6/26/2021 10:30:00 AM 16.61 61.898 0.514 8.34 5.58 10.63
6/26/2021 10:45:00 AM 16.7 62.06 0.513 8.36 5.75 10.76
6/26/2021 11:00:00 AM 16.8 62.24 0.513 8.38 5.46 10.82
6/26/2021 11:15:00 AM 17.01 62.618 0.512 8.41 5.2 11.08
6/26/2021 11:30:00 AM 17.15 62.87 0.511 8.43 5.94 11.23
6/26/2021 11:45:00 AM 17.42 63.356 0.509 8.47 6.21 11.48
6/26/2021 12:00:00 PM 17.67 63.806 0.508 8.5 5.45 11.65
6/26/2021 12:15:00 PM 17.92 64.256 0.507 8.53 5.18 11.77
6/26/2021 12:30:00 PM 18.06 64.508 0.506 8.55 6.14 11.81
6/26/2021 12:45:00 PM 18.28 64.904 0.505 8.56 4.8 11.85
6/26/2021 1:00:00 PM 18.34 65.012 0.505 8.56 9 11.66
6/26/2021 1:15:00 PM 18.46 65.228 0.503 8.58 4.68 11.69
6/26/2021 1:30:00 PM 18.56 65.408 0.502 8.6 6.71 11.64
6/26/2021 1:45:00 PM 18.76 65.768 0.5 8.62 6.17 11.79
6/26/2021 2:00:00 PM 18.87 65.966 0.499 8.65 5.85 11.67
6/26/2021 2:15:00 PM 18.95 66.11 0.498 8.66 6.45 11.43
6/26/2021 2:30:00 PM 19.04 66.272 0.497 8.64 5.82 11.26
6/26/2021 2:45:00 PM 19.15 66.47 0.496 8.66 5.64 11.21
6/26/2021 3:00:00 PM 19.24 66.632 0.495 8.65 6.03 10.98
6/26/2021 3:15:00 PM 19.33 66.794 0.494 8.66 6.17 10.82
6/26/2021 3:30:00 PM 19.43 66.974 0.494 8.64 6 10.58
6/26/2021 3:45:00 PM 19.45 67.01 0.494 8.63 5.71 10.25
6/26/2021 4:00:00 PM 19.54 67.172 0.493 8.63 6.23 10.28
6/26/2021 4:15:00 PM 19.7 67.46 0.491 8.65 6.22 10.51
6/26/2021 4:30:00 PM 19.94 67.892 0.49 8.68 6.2 10.64
6/26/2021 4:45:00 PM 20.13 68.234 0.49 8.67 6.55 10.67
6/26/2021 5:00:00 PM 20.19 68.342 0.489 8.68 6.77 10.59
6/26/2021 5:15:00 PM 20.24 68.432 0.488 8.66 6.77 10.41
6/26/2021 5:30:00 PM 20.35 68.63 0.487 8.66 6.02 10.3
6/26/2021 5:45:00 PM 20.47 68.846 0.486 8.67 6.25 10.2
6/26/2021 6:00:00 PM 20.55 68.99 0.486 8.66 6.94 10
6/26/2021 6:15:00 PM 20.63 69.134 0.486 8.65 6.86 9.86
6/26/2021 6:30:00 PM 20.7 69.26 0.486 8.64 6.74 9.64
6/26/2021 6:45:00 PM 20.77 69.386 0.485 8.62 6.3 9.45
6/26/2021 7:00:00 PM 20.85 69.53 0.486 8.62 6.73 9.3
6/26/2021 7:15:00 PM 20.87 69.566 0.486 8.6 6.18 9.09
6/26/2021 7:30:00 PM 20.88 69.584 0.486 8.58 6.75 8.91
6/26/2021 7:45:00 PM 20.88 69.584 0.487 8.53 7.89 8.73
6/26/2021 8:00:00 PM 20.85 69.53 0.488 8.52 7.61 8.59
6/26/2021 8:15:00 PM 20.82 69.476 0.489 8.5 7.79 8.47
6/26/2021 8:30:00 PM 20.77 69.386 0.49 8.46 7.2 8.35
6/26/2021 8:45:00 PM 20.72 69.296 0.491 8.44 6.93 8.26
6/26/2021 9:00:00 PM 20.67 69.206 0.491 8.42 8.48 8.18
6/26/2021 9:15:00 PM 20.61 69.098 0.492 8.4 6.05 8.12
6/26/2021 9:30:00 PM 20.55 68.99 0.493 8.38 6.8 8.06
6/26/2021 9:45:00 PM 20.49 68.882 0.494 8.36 9.08 8.02
6/26/2021 10:00:00 PM 20.42 68.756 0.494 8.33 7.31 8
6/26/2021 10:15:00 PM 20.35 68.63 0.495 8.33 7.08 7.98
6/26/2021 10:30:00 PM 20.28 68.504 0.496 8.31 6.77 7.95
6/26/2021 10:45:00 PM 20.22 68.396 0.496 8.29 7.24 7.93
6/26/2021 11:00:00 PM 20.15 68.27 0.498 8.27 8.22 7.91
6/26/2021 11:15:00 PM 20.1 68.18 0.498 8.26 12.11 7.89
6/26/2021 11:30:00 PM 20.05 68.09 0.499 8.24 8.67 7.88
6/26/2021 11:45:00 PM 20 68 0.5 8.23 8.05 7.87
6/27/2021 12:00:00 AM 19.95 67.91 0.501 8.21 8.08 7.88
6/27/2021 12:15:00 AM 19.9 67.82 0.502 8.2 8.34 7.89
6/27/2021 12:30:00 AM 19.84 67.712 0.502 8.18 7.73 7.91
6/27/2021 12:45:00 AM 19.77 67.586 0.503 8.18 8.93 7.92
6/27/2021 1:00:00 AM 19.71 67.478 0.503 8.17 5.25 7.92
6/27/2021 1:15:00 AM 19.65 67.37 0.504 8.16 9.01 7.94
6/27/2021 1:30:00 AM 19.58 67.244 0.505 8.16 8.1 7.95
6/27/2021 1:45:00 AM 19.5 67.1 0.506 8.15 8.03 7.97
6/27/2021 2:00:00 AM 19.42 66.956 0.507 8.14 9.07 7.98
6/27/2021 2:15:00 AM 19.34 66.812 0.508 8.13 9.53 7.99
6/27/2021 2:30:00 AM 19.25 66.65 0.509 8.13 5.37 8.01
6/27/2021 2:45:00 AM 19.17 66.506 0.509 8.13 5.65 8.03
6/27/2021 3:00:00 AM 19.08 66.344 0.511 8.11 5.77 8.05
6/27/2021 3:15:00 AM 18.98 66.164 0.512 8.11 8.74 8.08
6/27/2021 3:30:00 AM 18.88 65.984 0.513 8.1 4.75 8.1
6/27/2021 3:45:00 AM 18.78 65.804 0.514 8.1 5.9 8.12
6/27/2021 4:00:00 AM 18.68 65.624 0.514 8.09 8.81 8.14
6/27/2021 4:15:00 AM 18.58 65.444 0.515 8.09 9.11 8.17
6/27/2021 4:30:00 AM 18.48 65.264 0.515 8.09 6.05 8.19
6/27/2021 4:45:00 AM 18.37 65.066 0.515 8.09 9.18 8.22
6/27/2021 5:00:00 AM 18.27 64.886 0.515 8.08 9.79 8.25
6/27/2021 5:15:00 AM 18.17 64.706 0.516 8.08 6.44 8.27
6/27/2021 5:30:00 AM 18.07 64.526 0.516 8.08 9.1 8.3
6/27/2021 5:45:00 AM 17.99 64.382 0.516 8.08 8.09 8.32
6/27/2021 6:00:00 AM 17.92 64.256 0.516 8.08 8.79 8.36
6/27/2021 6:15:00 AM 17.85 64.13 0.516 8.09 4.66 8.41
6/27/2021 6:30:00 AM 17.79 64.022 0.516 8.09 9.06 8.5
6/27/2021 6:45:00 AM 17.75 63.95 0.516 8.09 6.29 8.58
6/27/2021 7:00:00 AM 17.71 63.878 0.516 8.11 8.66 8.67
6/27/2021 7:15:00 AM 17.69 63.842 0.516 8.11 8.2 8.79
6/27/2021 7:30:00 AM 17.66 63.788 0.516 8.12 7.68 8.88
6/27/2021 7:45:00 AM 17.66 63.788 0.516 8.14 7.37 8.98
6/27/2021 8:00:00 AM 17.65 63.77 0.516 8.15 7.56 9.05
6/27/2021 8:15:00 AM 17.66 63.788 0.516 8.17 7.52 9.14
6/27/2021 8:30:00 AM 17.69 63.842 0.516 8.19 6.97 9.32
6/27/2021 8:45:00 AM 17.74 63.932 0.515 8.21 7.38 9.47
6/27/2021 9:00:00 AM 17.82 64.076 0.515 8.24 7.22 9.71
6/27/2021 9:15:00 AM 17.88 64.184 0.514 8.25 7.29 9.84
6/27/2021 9:30:00 AM 17.96 64.328 0.513 8.28 7.87 9.93
6/27/2021 9:45:00 AM 17.96 64.328 0.514 8.29 7.33 9.91
6/27/2021 10:00:00 AM 18.08 64.544 0.512 8.31 6.34 10.11
6/27/2021 10:15:00 AM 18.19 64.742 0.512 8.34 6.02 10.24
6/27/2021 10:30:00 AM 18.36 65.048 0.511 8.35 6.42 10.34
6/27/2021 10:45:00 AM 18.51 65.318 0.511 8.38 6.12 10.54
6/27/2021 11:00:00 AM 18.72 65.696 0.51 8.42 6.26 10.72
6/27/2021 11:15:00 AM 18.9 66.02 0.509 8.44 8.69 10.81
6/27/2021 11:30:00 AM 19.03 66.254 0.508 8.44 6.24 10.87
6/27/2021 11:45:00 AM 19.26 66.668 0.508 8.46 6.15 11.04
6/27/2021 12:00:00 PM 19.42 66.956 0.507 8.48 5.95 11.08
6/27/2021 12:15:00 PM 19.66 67.388 0.506 8.49 5.73 11.19
6/27/2021 12:30:00 PM 19.76 67.568 0.506 8.51 6.62 11.12
6/27/2021 12:45:00 PM 20 68 0.506 8.53 7.07 11.23
6/27/2021 1:00:00 PM 20.07 68.126 0.505 8.54 5.09 11.26
6/27/2021 1:15:00 PM 20.32 68.576 0.504 8.56 6.5 11.44
6/27/2021 1:30:00 PM 20.35 68.63 0.503 8.56 6.31 11.28
6/27/2021 1:45:00 PM 20.5 68.9 0.502 8.58 6.45 11.22
6/27/2021 2:00:00 PM 20.85 69.53 0.5 8.61 6.43 11.38
6/27/2021 2:15:00 PM 21.17 70.106 0.499 8.63 7.03 11.55
6/27/2021 2:30:00 PM 21.49 70.682 0.497 8.66 7.64 11.6
6/27/2021 2:45:00 PM 21.69 71.042 0.496 8.67 7.72 11.49
6/27/2021 3:00:00 PM 21.95 71.51 0.494 8.68 6.19 11.47
6/27/2021 3:15:00 PM 22.02 71.636 0.493 8.67 6.71 11.09
6/27/2021 3:30:00 PM 22.15 71.87 0.492 8.69 7.2 11.04
6/27/2021 3:45:00 PM 22.26 72.068 0.491 8.69 7.15 10.9
6/27/2021 4:00:00 PM 22.41 72.338 0.49 8.68 7.23 10.73
6/27/2021 4:15:00 PM 22.47 72.446 0.49 8.68 7.16 10.56
6/27/2021 4:30:00 PM 22.57 72.626 0.49 8.67 7.22 10.32
6/27/2021 4:45:00 PM 22.57 72.626 0.489 8.66 7.48 10.06
6/27/2021 5:00:00 PM 22.65 72.77 0.489 8.65 8.43 9.84
6/27/2021 5:15:00 PM 22.72 72.896 0.488 8.64 8.15 9.67
6/27/2021 5:30:00 PM 22.74 72.932 0.488 8.63 8.69 9.51
6/27/2021 5:45:00 PM 22.75 72.95 0.488 8.63 8.06 9.31
6/27/2021 6:00:00 PM 22.76 72.968 0.488 8.61 7.61 9.11
6/27/2021 6:15:00 PM 22.77 72.986 0.488 8.59 8.35 8.86
6/27/2021 6:30:00 PM 22.8 73.04 0.488 8.58 7.76 8.75
6/27/2021 6:45:00 PM 22.84 73.112 0.486 8.57 7.84 8.62
6/27/2021 7:00:00 PM 22.86 73.148 0.487 8.55 7.6 8.44
6/27/2021 7:15:00 PM 22.87 73.166 0.486 8.53 7.52 8.32
6/27/2021 7:30:00 PM 22.91 73.238 0.486 8.52 7.84 8.21
6/27/2021 7:45:00 PM 22.92 73.256 0.487 8.49 7.87 8.09
6/27/2021 8:00:00 PM 22.91 73.238 0.487 8.47 7.4 7.97
6/27/2021 8:15:00 PM 22.9 73.22 0.488 8.45 7.64 7.82
6/27/2021 8:30:00 PM 22.88 73.184 0.489 8.42 7.21 7.73
6/27/2021 8:45:00 PM 22.84 73.112 0.49 8.4 7.69 7.64
6/27/2021 9:00:00 PM 22.82 73.076 0.491 8.37 7.51 7.56
6/27/2021 9:15:00 PM 22.8 73.04 0.492 8.35 8.09 7.49
6/27/2021 9:30:00 PM 22.77 72.986 0.493 8.32 9.08 7.43
6/27/2021 9:45:00 PM 22.73 72.914 0.493 8.3 9.57 7.38
6/27/2021 10:00:00 PM 22.7 72.86 0.494 8.28 6.98 7.33
6/27/2021 10:15:00 PM 22.65 72.77 0.496 8.26 8.72 7.3
6/27/2021 10:30:00 PM 22.6 72.68 0.496 8.24 7.39 7.27
6/27/2021 10:45:00 PM 22.54 72.57201 0.497 8.22 7.64 7.27
6/27/2021 11:00:00 PM 22.48 72.464 0.498 8.21 8 7.26
6/27/2021 11:15:00 PM 22.41 72.338 0.499 8.19 8.22 7.26
6/27/2021 11:30:00 PM 22.33 72.194 0.5 8.19 7.98 7.26
6/27/2021 11:45:00 PM 22.24 72.032 0.501 8.17 8.39 7.26
6/28/2021 12:00:00 AM 22.15 71.87 0.502 8.17 5.12 7.28
6/28/2021 12:15:00 AM 22.06 71.708 0.503 8.15 4.14 7.29
6/28/2021 12:30:00 AM 21.96 71.528 0.504 8.15 8.83 7.29
6/28/2021 12:45:00 AM 21.86 71.348 0.505 8.15 8.04 7.32
6/28/2021 1:00:00 AM 21.75 71.15 0.506 8.13 9.61 7.35
6/28/2021 1:15:00 AM 21.64 70.952 0.507 8.13 7.08 7.36
6/28/2021 1:30:00 AM 21.52 70.736 0.507 8.13 8.06 7.4
6/28/2021 1:45:00 AM 21.39 70.502 0.509 8.13 5.1 7.44
6/28/2021 2:00:00 AM 21.26 70.268 0.51 8.12 4.57 7.47
6/28/2021 2:15:00 AM 21.13 70.034 0.511 8.12 6.58 7.52
6/28/2021 2:30:00 AM 20.99 69.782 0.512 8.12 8.66 7.56
6/28/2021 2:45:00 AM 20.85 69.53 0.513 8.11 8.78 7.6
6/28/2021 3:00:00 AM 20.7 69.26 0.514 8.11 5.2 7.63
6/28/2021 3:15:00 AM 20.56 69.008 0.515 8.11 9.17 7.68
6/28/2021 3:30:00 AM 20.42 68.756 0.516 8.11 8.61 7.71
6/28/2021 3:45:00 AM 20.27 68.486 0.517 8.11 8.52 7.75
6/28/2021 4:00:00 AM 20.13 68.234 0.517 8.1 8.78 7.78
6/28/2021 4:15:00 AM 19.99 67.982 0.518 8.1 4.35 7.82
6/28/2021 4:30:00 AM 19.85 67.73 0.518 8.1 5.45 7.86
6/28/2021 4:45:00 AM 19.72 67.496 0.519 8.1 5.38 7.89
6/28/2021 5:00:00 AM 19.59 67.262 0.519 8.09 6.96 7.93
6/28/2021 5:15:00 AM 19.46 67.028 0.52 8.09 7.95 7.96
6/28/2021 5:30:00 AM 19.34 66.812 0.52 8.09 7.82 7.99
6/28/2021 5:45:00 AM 19.24 66.632 0.52 8.09 8.28 8.02
6/28/2021 6:00:00 AM 19.13 66.434 0.52 8.09 8.4 8.05
6/28/2021 6:15:00 AM 19.03 66.254 0.52 8.08 6.56 8.11
6/28/2021 6:30:00 AM 18.94 66.092 0.52 8.08 6.46 8.17
6/28/2021 6:45:00 AM 18.85 65.93 0.52 8.09 9.07 8.21
6/28/2021 7:00:00 AM 18.77 65.786 0.52 8.08 7.8 8.26
6/28/2021 7:15:00 AM 18.7 65.66 0.52 8.09 7.93 8.33
6/28/2021 7:30:00 AM 18.63 65.534 0.52 8.1 8.29 8.44
6/28/2021 7:45:00 AM 18.57 65.426 0.52 8.1 6.57 8.55
6/28/2021 8:00:00 AM 18.53 65.354 0.52 8.11 7.94 8.7
6/28/2021 8:15:00 AM 18.51 65.318 0.52 8.12 7.16 8.88
6/28/2021 8:30:00 AM 18.49 65.282 0.52 8.14 7.53 9.02
6/28/2021 8:45:00 AM 18.49 65.282 0.52 8.17 7.54 9.19
6/28/2021 9:00:00 AM 18.53 65.354 0.519 8.19 11.08 9.36
6/28/2021 9:15:00 AM 18.57 65.426 0.519 8.21 6.96 9.5
6/28/2021 9:30:00 AM 18.66 65.588 0.519 8.23 7.49 9.64
6/28/2021 9:45:00 AM 18.75 65.75 0.518 8.25 5.8 9.76
6/28/2021 10:00:00 AM 18.87 65.966 0.517 8.27 7.06 9.94
6/28/2021 10:15:00 AM 18.96 66.128 0.517 8.29 6.98 10.06
6/28/2021 10:30:00 AM 19.11 66.398 0.516 8.31 6.21 10.17
6/28/2021 10:45:00 AM 19.25 66.65 0.515 8.33 5.59 10.25
6/28/2021 11:00:00 AM 19.4 66.92 0.515 8.36 6.67 10.43
6/28/2021 11:15:00 AM 19.55 67.19 0.514 8.37 6.06 10.58
6/28/2021 11:30:00 AM 19.72 67.496 0.513 8.4 6.75 10.68
6/28/2021 11:45:00 AM 19.91 67.838 0.512 8.42 7.09 10.82
6/28/2021 12:00:00 PM 20.12 68.216 0.512 8.45 7.21 10.97
6/28/2021 12:15:00 PM 20.29 68.522 0.511 8.47 6.75 11.1
6/28/2021 12:30:00 PM 20.47 68.846 0.511 8.49 6.65 11.21
6/28/2021 12:45:00 PM 20.71 69.278 0.51 8.51 7.34 11.36
6/28/2021 1:00:00 PM 20.89 69.602 0.509 8.53 6.33 11.49
6/28/2021 1:15:00 PM 21.11 69.998 0.507 8.56 6.61 11.58
6/28/2021 1:30:00 PM 21.02 69.836 0.508 8.55 6.82 11.3
6/28/2021 1:45:00 PM 21.3 70.34 0.506 8.58 6.61 11.45
6/28/2021 2:00:00 PM 21.61 70.898 0.504 8.61 7.06 11.61
6/28/2021 2:15:00 PM 21.71 71.078 0.503 8.61 6.72 11.38
6/28/2021 2:30:00 PM 21.98 71.564 0.501 8.64 6.63 11.48
6/28/2021 2:45:00 PM 22.27 72.086 0.499 8.66 7.44 11.59
6/28/2021 3:00:00 PM 22.42 72.356 0.498 8.66 7.18 11.27
6/28/2021 3:15:00 PM 22.5 72.5 0.497 8.67 7.96 10.98
6/28/2021 3:30:00 PM 22.73 72.914 0.494 8.69 8.13 11.1
6/28/2021 3:45:00 PM 22.98 73.364 0.493 8.7 8.05 11.02
6/28/2021 4:00:00 PM 23.08 73.544 0.492 8.69 7.09 10.71
6/28/2021 4:15:00 PM 23.09 73.562 0.491 8.68 6.86 10.44
6/28/2021 4:30:00 PM 23.13 73.634 0.491 8.68 7.07 10.14
6/28/2021 4:45:00 PM 23.17 73.706 0.491 8.67 8.39 9.95
6/28/2021 5:00:00 PM 23.24 73.832 0.49 8.67 7.7 9.89
6/28/2021 5:15:00 PM 23.28 73.904 0.49 8.65 8.5 9.58
6/28/2021 5:30:00 PM 23.36 74.048 0.49 8.64 8.78 9.5
6/28/2021 5:45:00 PM 23.36 74.048 0.49 8.62 5.89 9.2
6/28/2021 6:00:00 PM 23.47 74.246 0.489 8.62 7.16 9.08
6/28/2021 6:15:00 PM 23.49 74.282 0.489 8.6 4.62 8.8
6/28/2021 6:30:00 PM 23.55 74.39 0.489 8.59 7.1 8.73
6/28/2021 6:45:00 PM 23.58 74.444 0.489 8.56 6.94 8.49
6/28/2021 7:00:00 PM 23.59 74.462 0.49 8.54 6.22 8.34
6/28/2021 7:15:00 PM 23.6 74.48 0.491 8.52 7.46 8.18
6/28/2021 7:30:00 PM 23.59 74.462 0.492 8.5 7.23 8.05
6/28/2021 7:45:00 PM 23.57 74.426 0.493 8.47 6.96 7.93
6/28/2021 8:00:00 PM 23.53 74.354 0.494 8.44 7.83 7.78
6/28/2021 8:15:00 PM 23.48 74.264 0.495 8.41 6.68 7.69
6/28/2021 8:30:00 PM 23.42 74.156 0.497 8.38 7.11 7.59
6/28/2021 8:45:00 PM 23.34 74.012 0.498 8.35 7.67 7.52
6/28/2021 9:00:00 PM 23.27 73.886 0.498 8.33 8.44 7.44
6/28/2021 9:15:00 PM 23.17 73.706 0.499 8.31 8.58 7.38
6/28/2021 9:30:00 PM 23.07 73.526 0.5 8.29 6.95 7.34
6/28/2021 9:45:00 PM 22.97 73.346 0.501 8.26 7.56 7.29
6/28/2021 10:00:00 PM 22.87 73.166 0.502 8.25 7.42 7.31
6/28/2021 10:15:00 PM 22.78 73.004 0.503 8.23 7.72 7.28
6/28/2021 10:30:00 PM 22.7 72.86 0.504 8.22 7.3 7.29
6/28/2021 10:45:00 PM 22.62 72.716 0.504 8.2 11.62 7.24
6/28/2021 11:00:00 PM 22.54 72.57201 0.505 8.19 7.4 7.24
6/28/2021 11:15:00 PM 22.46 72.42799 0.506 8.18 3.55 7.22
6/28/2021 11:30:00 PM 22.37 72.266 0.506 8.17 3.81 7.21
6/28/2021 11:45:00 PM 22.28 72.104 0.507 8.17 8.79 7.23
6/29/2021 12:00:00 AM 22.19 71.942 0.508 8.16 5.64 7.26
6/29/2021 12:15:00 AM 22.09 71.762 0.508 8.15 8.56 7.28
6/29/2021 12:30:00 AM 21.99 71.582 0.509 8.14 4.4 7.26
6/29/2021 12:45:00 AM 21.89 71.402 0.509 8.14 6.05 7.34
6/29/2021 1:00:00 AM 21.8 71.24 0.51 8.13 4.22 7.35
6/29/2021 1:15:00 AM 21.7 71.06 0.511 8.12 9.35 7.35
6/29/2021 1:30:00 AM 21.59 70.862 0.512 8.12 4.44 7.37
6/29/2021 1:45:00 AM 21.48 70.664 0.513 8.12 8.91 7.37
6/29/2021 2:00:00 AM 21.37 70.466 0.514 8.11 9.32 7.37
6/29/2021 2:15:00 AM 21.26 70.268 0.515 8.11 4.99 7.42
6/29/2021 2:30:00 AM 21.14 70.052 0.516 8.1 5.8 7.44
6/29/2021 2:45:00 AM 21.01 69.818 0.516 8.11 5.87 7.49
6/29/2021 3:00:00 AM 20.88 69.584 0.517 8.1 6.99 7.49
6/29/2021 3:15:00 AM 20.74 69.332 0.518 8.11 5.78 7.52
6/29/2021 3:30:00 AM 20.6 69.08 0.519 8.1 6.07 7.55
6/29/2021 3:45:00 AM 20.45 68.81 0.52 8.1 5.3 7.39
6/29/2021 4:00:00 AM 20.31 68.558 0.52 8.1 5.63 7.51
6/29/2021 4:15:00 AM 20.17 68.306 0.521 8.1 5.9 7.61
6/29/2021 4:30:00 AM 20.03 68.054 0.521 8.09 6.55 7.72
6/29/2021 4:45:00 AM 19.9 67.82 0.522 8.09 8.94 7.73
6/29/2021 5:00:00 AM 19.77 67.586 0.521 8.09 6.37 7.76
6/29/2021 5:15:00 AM 19.64 67.352 0.522 8.1 8.68 7.72
6/29/2021 5:30:00 AM 19.52 67.136 0.522 8.08 9.88 7.88
6/29/2021 5:45:00 AM 19.4 66.92 0.522 8.09 5.72 7.87
6/29/2021 6:00:00 AM 19.29 66.722 0.522 8.1 3.88 8
6/29/2021 6:15:00 AM 19.18 66.524 0.522 8.1 9.34 7.98
6/29/2021 6:30:00 AM 19.08 66.344 0.523 8.1 9.22 8.05
6/29/2021 6:45:00 AM 18.99 66.182 0.523 8.11 9.02 8.18
6/29/2021 7:00:00 AM 18.9 66.02 0.523 8.1 6.99 8.25
6/29/2021 7:15:00 AM 18.83 65.894 0.523 8.11 8.8 8.31
6/29/2021 7:30:00 AM 18.76 65.768 0.523 8.11 8.29 8.42
6/29/2021 7:45:00 AM 18.7 65.66 0.523 8.12 7.4 8.49
6/29/2021 8:00:00 AM 18.65 65.57 0.523 8.13 7.23 8.6
6/29/2021 8:15:00 AM 18.63 65.534 0.523 8.13 6.48 8.68
6/29/2021 8:30:00 AM 18.62 65.516 0.523 8.14 6.44 8.83
6/29/2021 8:45:00 AM 18.62 65.516 0.523 8.16 7.53 8.96
6/29/2021 9:00:00 AM 18.64 65.552 0.523 8.18 7.36 9.1
6/29/2021 9:15:00 AM 18.67 65.606 0.522 8.19 6.07 9.24
6/29/2021 9:30:00 AM 18.71 65.67799 0.522 8.21 7.15 9.34
6/29/2021 9:45:00 AM 18.76 65.768 0.522 8.23 6.71 9.45
6/29/2021 10:00:00 AM 18.83 65.894 0.522 8.25 6.43 9.52
6/29/2021 10:15:00 AM 18.91 66.038 0.521 8.26 7.32 9.68
6/29/2021 10:30:00 AM 19 66.2 0.521 8.29 6.96 9.82
6/29/2021 10:45:00 AM 19.14 66.452 0.521 8.3 7.22 10.07
6/29/2021 11:00:00 AM 19.27 66.686 0.52 8.33 5.81 10.14
6/29/2021 11:15:00 AM 19.41 66.938 0.52 8.35 6.1 10.35
6/29/2021 11:30:00 AM 19.6 67.28 0.519 8.39 6.59 10.39
6/29/2021 11:45:00 AM 19.79 67.622 0.518 8.4 6.22 10.63
6/29/2021 12:00:00 PM 19.99 67.982 0.518 8.43 6.42 10.7
6/29/2021 12:15:00 PM 20.2 68.36 0.516 8.45 5.81 10.86
6/29/2021 12:30:00 PM 20.43 68.774 0.515 8.48 6.7 11.08
6/29/2021 12:45:00 PM 20.66 69.188 0.514 8.5 6.02 11.2
6/29/2021 1:00:00 PM 20.68 69.224 0.513 8.51 5.98 11.05
6/29/2021 1:15:00 PM 21.04 69.872 0.511 8.54 6.44 11.32
6/29/2021 1:30:00 PM 21.31 70.358 0.51 8.57 6.19 11.41
6/29/2021 1:45:00 PM 21.6 70.88 0.509 8.6 6.13 11.57
6/29/2021 2:00:00 PM 21.78 71.204 0.507 8.61 5.78 11.47
6/29/2021 2:15:00 PM 21.93 71.474 0.507 8.61 6.57 11.24
6/29/2021 2:30:00 PM 22.23 72.014 0.505 8.64 6.5 11.34
6/29/2021 2:45:00 PM 22.38 72.284 0.504 8.64 6.36 11.13
6/29/2021 3:00:00 PM 22.55 72.59 0.503 8.65 7.37 10.84
6/29/2021 3:15:00 PM 22.8 73.04 0.502 8.66 6.77 10.95
6/29/2021 3:30:00 PM 23.12 73.616 0.501 8.68 6.6 10.99
6/29/2021 3:45:00 PM 23.37 74.066 0.499 8.68 6.24 10.89
6/29/2021 4:00:00 PM 23.55 74.39 0.498 8.68 6.69 10.71
6/29/2021 4:15:00 PM 23.61 74.498 0.497 8.68 6.41 10.37
6/29/2021 4:30:00 PM 23.67 74.606 0.496 8.68 7.04 10.07
6/29/2021 4:45:00 PM 23.73 74.714 0.496 8.66 6.94 9.83
6/29/2021 5:00:00 PM 23.87 74.966 0.495 8.66 7.25 9.73
6/29/2021 5:15:00 PM 23.87 74.966 0.494 8.65 7.16 9.47
6/29/2021 5:30:00 PM 23.89 75.002 0.494 8.64 5.87 9.28
6/29/2021 5:45:00 PM 23.96 75.128 0.493 8.63 6.29 9.1
6/29/2021 6:00:00 PM 24 75.2 0.493 8.61 7.3 8.88
6/29/2021 6:15:00 PM 24.04 75.272 0.493 8.61 6.29 8.71
6/29/2021 6:30:00 PM 24.09 75.362 0.493 8.59 6.8 8.49
6/29/2021 6:45:00 PM 24.12 75.416 0.493 8.56 6.79 8.35
6/29/2021 7:00:00 PM 24.13 75.434 0.494 8.54 6.78 8.17
6/29/2021 7:15:00 PM 24.14 75.452 0.495 8.51 7.26 7.99
6/29/2021 7:30:00 PM 24.15 75.47 0.496 8.48 10.57 7.78
6/29/2021 7:45:00 PM 24.14 75.452 0.498 8.45 7.34 7.7
6/29/2021 8:00:00 PM 24.12 75.416 0.498 8.42 6.99 7.57
6/29/2021 8:15:00 PM 24.11 75.398 0.499 8.39 7.91 7.46
6/29/2021 8:30:00 PM 24.08 75.344 0.499 8.36 7.25 7.36
6/29/2021 8:45:00 PM 24.05 75.29 0.499 8.35 6.85 7.28
6/29/2021 9:00:00 PM 24.01 75.218 0.5 8.32 7.42 7.21
6/29/2021 9:15:00 PM 23.97 75.146 0.5 8.3 8.18 7.16
6/29/2021 9:30:00 PM 23.92 75.056 0.501 8.28 8.12 7.11
6/29/2021 9:45:00 PM 23.87 74.966 0.501 8.26 8.95 7.03
6/29/2021 10:00:00 PM 23.82 74.876 0.502 8.24 6.3 7.03
6/29/2021 10:15:00 PM 23.77 74.786 0.503 8.23 7.21 6.92
6/29/2021 10:30:00 PM 23.71 74.67799 0.503 8.21 6.73 6.9
6/29/2021 10:45:00 PM 23.66 74.588 0.504 8.2 3.17 6.91
6/29/2021 11:00:00 PM 23.59 74.462 0.506 8.18 7.27 6.92
6/29/2021 11:15:00 PM 23.52 74.336 0.507 8.17 7.6 6.87
6/29/2021 11:30:00 PM 23.44 74.192 0.508 8.16 7.29 6.93
6/29/2021 11:45:00 PM 23.36 74.048 0.509 8.16 8.26 6.88
6/30/2021 12:00:00 AM 23.26 73.868 0.51 8.14 7.28 6.87
6/30/2021 12:15:00 AM 23.17 73.706 0.511 8.13 7.53 6.71
6/30/2021 12:30:00 AM 23.06 73.508 0.512 8.12 8.75 6.9
6/30/2021 12:45:00 AM 22.95 73.31 0.512 8.11 3.82 6.86
6/30/2021 1:00:00 AM 22.83 73.094 0.513 8.11 7.97 6.96
6/30/2021 1:15:00 AM 22.71 72.878 0.513 8.1 8.01 7.03
6/30/2021 1:30:00 AM 22.59 72.662 0.513 8.11 3.62 6.96
6/30/2021 1:45:00 AM 22.46 72.42799 0.514 8.1 7.82 6.96
6/30/2021 2:00:00 AM 22.32 72.176 0.515 8.1 8.75 7.12
6/30/2021 2:15:00 AM 22.18 71.924 0.515 8.09 8.09 7.2
6/30/2021 2:30:00 AM 22.03 71.654 0.516 8.09 4.93 7.22
6/30/2021 2:45:00 AM 21.87 71.366 0.517 8.09 7.56 7.29
6/30/2021 3:00:00 AM 21.7 71.06 0.518 8.09 4.91 7.36
6/30/2021 3:15:00 AM 21.53 70.754 0.519 8.09 7.82 7.37
6/30/2021 3:30:00 AM 21.36 70.448 0.52 8.09 8.16 7.37
6/30/2021 3:45:00 AM 21.18 70.124 0.521 8.09 8.75 7.48
6/30/2021 4:00:00 AM 21.01 69.818 0.521 8.09 7.74 7.54
6/30/2021 4:15:00 AM 20.84 69.512 0.522 8.09 5.52 7.57
6/30/2021 4:30:00 AM 20.67 69.206 0.522 8.08 5.68 7.62
6/30/2021 4:45:00 AM 20.5 68.9 0.523 8.09 5.04 7.66
6/30/2021 5:00:00 AM 20.34 68.612 0.523 8.09 8.45 7.7
6/30/2021 5:15:00 AM 20.19 68.342 0.523 8.08 28.23 7.73
6/30/2021 5:30:00 AM 20.04 68.07201 0.524 8.09 8.34 7.78
6/30/2021 5:45:00 AM 19.89 67.802 0.524 8.08 7.45 7.82
6/30/2021 6:00:00 AM 19.75 67.55 0.524 8.08 4.68 7.88
6/30/2021 6:15:00 AM 19.61 67.298 0.525 8.09 10.29 7.95
6/30/2021 6:30:00 AM 19.49 67.082 0.525 8.09 6.26 8.02
6/30/2021 6:45:00 AM 19.37 66.866 0.525 8.09 9.31 8.09
6/30/2021 7:00:00 AM 19.26 66.668 0.526 8.1 8.26 8.16
6/30/2021 7:15:00 AM 19.19 66.542 0.526 8.12 7.88 8.35
6/30/2021 7:30:00 AM 19.11 66.398 0.526 8.12 7.46 8.41
6/30/2021 7:45:00 AM 19.03 66.254 0.526 8.13 7.76 8.48
6/30/2021 8:00:00 AM 18.97 66.146 0.527 8.13 6.65 8.53
6/30/2021 8:15:00 AM 18.93 66.074 0.527 8.15 8.03 8.64
6/30/2021 8:30:00 AM 18.93 66.074 0.527 8.16 6.51 8.86
6/30/2021 8:45:00 AM 18.93 66.074 0.526 8.19 7.71 9.1
6/30/2021 9:00:00 AM 18.95 66.11 0.526 8.2 7.21 9.25
6/30/2021 9:15:00 AM 18.9 66.02 0.526 8.21 6.55 9.23
6/30/2021 9:30:00 AM 18.9 66.02 0.526 8.21 6.64 9.34
6/30/2021 9:45:00 AM 18.95 66.11 0.526 8.23 6.28 9.48
6/30/2021 10:00:00 AM 19.03 66.254 0.525 8.26 7.88 9.64
6/30/2021 10:15:00 AM 19.11 66.398 0.525 8.29 7.05 9.79
6/30/2021 10:30:00 AM 19.24 66.632 0.524 8.31 6.73 9.89
6/30/2021 10:45:00 AM 19.36 66.848 0.524 8.31 7.6 10.05
6/30/2021 11:00:00 AM 19.5 67.1 0.523 8.34 5.71 10.17
6/30/2021 11:15:00 AM 19.63 67.334 0.523 8.36 5.92 10.27
6/30/2021 11:30:00 AM 19.8 67.64 0.522 8.39 6.93 10.49
6/30/2021 11:45:00 AM 19.87 67.766 0.521 8.4 7.53 10.51
6/30/2021 12:00:00 PM 19.87 67.766 0.521 8.42 6.7 10.49
6/30/2021 12:15:00 PM 20.25 68.45 0.519 8.44 11.94 10.71
6/30/2021 12:30:00 PM 20.48 68.864 0.519 8.46 5.9 10.87
6/30/2021 12:45:00 PM 20.66 69.188 0.518 8.48 6.54 11.06
6/30/2021 1:00:00 PM 20.85 69.53 0.517 8.5 6.34 11.16
6/30/2021 1:15:00 PM 20.9 69.62 0.516 8.5 6.21 10.96
6/30/2021 1:30:00 PM 21.32 70.376 0.515 8.54 6.14 11.26
6/30/2021 1:45:00 PM 21.62 70.916 0.513 8.57 6.57 11.37
6/30/2021 2:00:00 PM 21.91 71.438 0.512 8.59 6.56 11.37
6/30/2021 2:15:00 PM 22.23 72.014 0.51 8.61 6.52 11.45
6/30/2021 2:30:00 PM 22.51 72.518 0.509 8.63 6.14 11.38
6/30/2021 2:45:00 PM 22.81 73.058 0.507 8.66 6.87 11.41
6/30/2021 3:00:00 PM 22.94 73.292 0.506 8.65 6.87 11.02
6/30/2021 3:15:00 PM 23.25 73.85 0.503 8.67 6.57 11.16
6/30/2021 3:30:00 PM 23.49 74.282 0.502 8.68 7.76 11.12
6/30/2021 3:45:00 PM 23.64 74.552 0.501 8.67 8.11 10.89
6/30/2021 4:00:00 PM 23.74 74.732 0.5 8.68 6.21 10.68
6/30/2021 4:15:00 PM 23.83 74.894 0.499 8.68 6.73 10.37
6/30/2021 4:30:00 PM 23.92 75.056 0.498 8.67 5.83 10.19
6/30/2021 4:45:00 PM 24.01 75.218 0.497 8.66 6.05 9.98
6/30/2021 5:00:00 PM 24.11 75.398 0.497 8.66 5.85 9.88
6/30/2021 5:15:00 PM 24.14 75.452 0.497 8.63 6.62 9.62
6/30/2021 5:30:00 PM 24.15 75.47 0.497 8.62 6.64 9.38
6/30/2021 5:45:00 PM 24.19 75.542 0.496 8.62 6.94 9.18
6/30/2021 6:00:00 PM 24.19 75.542 0.496 8.59 7.15 8.92
6/30/2021 6:15:00 PM 24.19 75.542 0.496 8.58 6.69 8.75
6/30/2021 6:30:00 PM 24.19 75.542 0.496 8.56 6.16 8.53
6/30/2021 6:45:00 PM 24.15 75.47 0.496 8.53 6.71 8.29
6/30/2021 7:00:00 PM 24.12 75.416 0.496 8.51 6.41 8.11
6/30/2021 7:15:00 PM 24.09 75.362 0.497 8.48 7.02 7.87
6/30/2021 7:30:00 PM 23.98 75.164 0.489 8.46 8 7.7
6/30/2021 7:45:00 PM 23.81 74.858 0.473 8.42 9.3 7.6
6/30/2021 8:00:00 PM 23.72 74.696 0.467 8.38 12.5 7.44
6/30/2021 8:15:00 PM 23.67 74.606 0.471 8.34 8.49 7.27
6/30/2021 8:30:00 PM 23.6 74.48 0.467 8.31 13.17 7.15
6/30/2021 8:45:00 PM 23.54 74.372 0.467 8.29 10.99 7.09
6/30/2021 9:00:00 PM 23.44 74.192 0.459 8.25 10.4 7.02
6/30/2021 9:15:00 PM 23.35 74.03 0.453 8.22 14.65 6.92
6/30/2021 9:30:00 PM 23.31 73.958 0.453 8.19 14.67 6.83
6/30/2021 9:45:00 PM 23.29 73.922 0.454 8.17 15.3 6.77
6/30/2021 10:00:00 PM 23.29 73.922 0.458 8.15 12.86 6.79
6/30/2021 10:15:00 PM 23.3 73.94 0.463 8.15 11.55 6.79
6/30/2021 10:30:00 PM 23.3 73.94 0.468 8.15 13.32 6.78
6/30/2021 10:45:00 PM 23.28 73.904 0.472 8.14 28.33 6.77
6/30/2021 11:00:00 PM 23.22 73.796 0.474 8.12 16.09 6.8
6/30/2021 11:15:00 PM 23.14 73.652 0.474 8.12 13.14 6.82
6/30/2021 11:30:00 PM 23.03 73.454 0.476 8.11 11.66 6.86
6/30/2021 11:45:00 PM 22.91 73.238 0.481 8.1 11.19 6.9
7/1/2021 12:00:00 AM 22.78 73.004 0.487 8.11 9.6 6.95
7/1/2021 12:15:00 AM 22.64 72.752 0.492 8.1 10.13 7
7/1/2021 12:30:00 AM 22.47 72.446 0.494 8.11 9.26 7.05
7/1/2021 12:45:00 AM 22.29 72.122 0.494 8.1 10.07 7.08
7/1/2021 1:00:00 AM 22.09 71.762 0.491 8.08 9.65 7.12
7/1/2021 1:15:00 AM 21.88 71.384 0.487 8.07 10.18 7.15
7/1/2021 1:30:00 AM 21.67 71.006 0.483 8.06 10.69 7.18
7/1/2021 1:45:00 AM 21.46 70.628 0.479 8.05 10.1 7.21
7/1/2021 2:00:00 AM 21.25 70.25 0.476 8.03 11.31 7.22
7/1/2021 2:15:00 AM 21.06 69.908 0.474 8.03 11.36 7.24
7/1/2021 2:30:00 AM 20.87 69.566 0.472 8.01 12.56 7.25
7/1/2021 2:45:00 AM 20.7 69.26 0.471 8 14.27 7.26
7/1/2021 3:00:00 AM 20.53 68.954 0.471 8 13.53 7.29
7/1/2021 3:15:00 AM 20.35 68.63 0.473 7.99 13.93 7.32
7/1/2021 3:30:00 AM 20.18 68.324 0.476 7.99 13.2 7.33
7/1/2021 3:45:00 AM 20.01 68.018 0.48 7.98 12.98 7.31
7/1/2021 4:00:00 AM 19.84 67.712 0.484 7.98 13.58 7.28
7/1/2021 4:15:00 AM 19.69 67.442 0.488 7.96 13.53 7.23
7/1/2021 4:30:00 AM 19.53 67.154 0.285 7.97 14.2 7.26
7/1/2021 4:45:00 AM 19.38 66.884 0.495 7.96 13.51 7.3
7/1/2021 5:00:00 AM 19.24 66.632 0.497 7.98 12.23 7.39
7/1/2021 5:15:00 AM 19.1 66.38 0.5 7.97 11.25 7.49
7/1/2021 5:30:00 AM 18.96 66.128 0.502 7.98 11.24 7.59
7/1/2021 5:45:00 AM 18.84 65.912 0.503 7.99 9.72 7.68
7/1/2021 6:00:00 AM 18.72 65.696 0.503 8 7.54 7.76
7/1/2021 6:15:00 AM 18.6 65.48 0.501 8 6.55 7.84
7/1/2021 6:30:00 AM 18.49 65.282 0.499 8 6.5 7.91
7/1/2021 6:45:00 AM 18.4 65.12 0.496 8 5.04 8.01
7/1/2021 7:00:00 AM 18.33 64.994 0.492 8.01 5.58 8.11
7/1/2021 7:15:00 AM 18.27 64.886 0.489 8.02 5.02 8.23
7/1/2021 7:30:00 AM 18.24 64.832 0.485 8.04 7.5 8.39
7/1/2021 7:45:00 AM 18.21 64.778 0.481 8.05 3.56 8.49
7/1/2021 8:00:00 AM 18.21 64.778 0.477 8.06 7.14 8.66
7/1/2021 8:15:00 AM 18.21 64.778 0.473 8.07 6.76 8.77
7/1/2021 8:30:00 AM 18.23 64.814 0.469 8.08 2.78 8.89
7/1/2021 8:45:00 AM 18.2 64.76 0.465 8.08 8.59 8.84
7/1/2021 9:00:00 AM 18.2 64.76 0.461 8.08 8 8.92
7/1/2021 9:15:00 AM 18.18 64.724 0.457 8.07 8.4 8.86
7/1/2021 9:30:00 AM 18.18 64.724 0.454 8.08 7.79 8.93
7/1/2021 9:45:00 AM 18.2 64.76 0.452 8.1 7.59 9.03
7/1/2021 10:00:00 AM 18.2 64.76 0.451 8.1 7.68 9.02
7/1/2021 10:15:00 AM 18.21 64.778 0.447 8.1 7.2 9.01
7/1/2021 10:30:00 AM 18.21 64.778 0.445 8.11 8.58 9.03
7/1/2021 10:45:00 AM 18.22 64.796 0.445 8.11 7.94 9.12
7/1/2021 11:00:00 AM 18.25 64.85 0.445 8.13 8.48 9.32
7/1/2021 11:15:00 AM 18.24 64.832 0.446 8.14 8.1 9.29
7/1/2021 11:30:00 AM 18.26 64.868 0.447 8.15 8.5 9.4
7/1/2021 11:45:00 AM 18.35 65.03 0.447 8.19 7.94 9.69
7/1/2021 12:00:00 PM 18.52 65.336 0.448 8.24 7.88 10.05
7/1/2021 12:15:00 PM 18.63 65.534 0.449 8.29 8.01 10.41
7/1/2021 12:30:00 PM 18.75 65.75 0.451 8.32 7.58 10.63
7/1/2021 12:45:00 PM 18.8 65.84 0.453 8.34 7.81 10.64
7/1/2021 1:00:00 PM 18.83 65.894 0.456 8.36 7.5 10.6
7/1/2021 1:15:00 PM 18.82 65.876 0.458 8.34 7.6 10.39
7/1/2021 1:30:00 PM 18.78 65.804 0.461 8.33 7.48 10.08
7/1/2021 1:45:00 PM 18.78 65.804 0.461 8.31 6.63 9.79
7/1/2021 2:00:00 PM 18.81 65.858 0.458 8.29 7.45 9.5
7/1/2021 2:15:00 PM 18.93 66.074 0.437 8.29 7.94 9.26
7/1/2021 2:30:00 PM 19.13 66.434 0.402 8.24 36.12 9.03
7/1/2021 2:45:00 PM 19.3 66.74 0.404 8.26 31.64 9.19
7/1/2021 3:00:00 PM 19.3 66.74 0.402 8.24 39.61 9.06
7/1/2021 3:15:00 PM 19.27 66.686 0.399 8.2 38.5 8.95
7/1/2021 3:30:00 PM 19.24 66.632 0.389 8.13 49.84 8.71
7/1/2021 3:45:00 PM 19.27 66.686 0.392 8.12 45.8 8.75
7/1/2021 4:00:00 PM 19.26 66.668 0.387 8.07 61.94 8.58
7/1/2021 4:15:00 PM 19.26 66.668 0.382 7.99 66.4 8.46
7/1/2021 4:30:00 PM 19.27 66.686 0.386 8 69.67 8.43
7/1/2021 4:45:00 PM 19.3 66.74 0.392 8.04 68.19 8.4
7/1/2021 5:00:00 PM 19.35 66.83 0.4 8.06 51.99 8.43
7/1/2021 5:15:00 PM 19.42 66.956 0.409 8.1 38.56 8.53
7/1/2021 5:30:00 PM 19.51 67.118 0.419 8.13 26.89 8.59
7/1/2021 5:45:00 PM 19.62 67.316 0.431 8.15 29.24 8.59
7/1/2021 6:00:00 PM 19.7 67.46 0.44 8.16 23.36 8.54
7/1/2021 6:15:00 PM 19.75 67.55 0.445 8.15 21.14 8.5
7/1/2021 6:30:00 PM 19.74 67.532 0.446 8.14 19.94 8.42
7/1/2021 6:45:00 PM 19.69 67.442 0.442 8.12 13.88 8.33
7/1/2021 7:00:00 PM 19.63 67.334 0.438 8.09 17.66 8.26
7/1/2021 7:15:00 PM 19.59 67.262 0.437 8.08 18.5 8.18
7/1/2021 7:30:00 PM 19.56 67.208 0.435 8.06 19.33 8.1
7/1/2021 7:45:00 PM 19.55 67.19 0.433 8.04 21.19 8.02
7/1/2021 8:00:00 PM 19.55 67.19 0.428 8.02 25.91 7.95
7/1/2021 8:15:00 PM 19.54 67.172 0.425 8 25.73 7.9
7/1/2021 8:30:00 PM 19.51 67.118 0.425 8 22.5 7.82
7/1/2021 8:45:00 PM 19.45 67.01 0.429 7.98 26.05 7.69
7/1/2021 9:00:00 PM 19.38 66.884 0.435 7.95 34.5 7.52
7/1/2021 9:15:00 PM 19.31 66.758 0.441 7.95 27.11 7.37
7/1/2021 9:30:00 PM 19.24 66.632 0.445 7.94 23.42 7.29
7/1/2021 9:45:00 PM 19.16 66.488 0.449 7.94 22.41 7.32
7/1/2021 10:00:00 PM 19.09 66.362 0.451 7.96 19.19 7.43
7/1/2021 10:15:00 PM 19.02 66.236 0.453 7.97 20.05 7.58
7/1/2021 10:30:00 PM 18.94 66.092 0.455 7.99 19.2 7.71
7/1/2021 10:45:00 PM 18.86 65.948 0.456 8 19.12 7.81
7/1/2021 11:00:00 PM 18.78 65.804 0.456 8.01 21.76 7.9
7/1/2021 11:15:00 PM 18.69 65.642 0.454 8.01 17.45 7.94
7/1/2021 11:30:00 PM 18.61 65.498 0.45 8 20.55 7.96
7/1/2021 11:45:00 PM 18.53 65.354 0.445 8 15.65 7.97
7/2/2021 12:00:00 AM 18.45 65.21 0.438 8 14.93 7.97
7/2/2021 12:15:00 AM 18.39 65.102 0.431 7.99 15.93 7.97
7/2/2021 12:30:00 AM 18.33 64.994 0.425 7.99 22.51 7.97
7/2/2021 12:45:00 AM 18.27 64.886 0.417 7.98 16.76 7.97
7/2/2021 1:00:00 AM 18.23 64.814 0.411 7.97 23.04 7.97
7/2/2021 1:15:00 AM 18.19 64.742 0.405 7.96 17.42 7.97
7/2/2021 1:30:00 AM 18.16 64.688 0.399 7.96 17.3 7.96
7/2/2021 1:45:00 AM 18.12 64.616 0.395 7.96 17.5 7.97
7/2/2021 2:00:00 AM 18.09 64.562 0.392 7.95 17.48 7.97
7/2/2021 2:15:00 AM 18.05 64.49 0.389 7.95 19.73 7.97
7/2/2021 2:30:00 AM 18.02 64.436 0.388 7.94 18.91 7.97
7/2/2021 2:45:00 AM 17.98 64.364 0.389 7.94 17.44 7.97
7/2/2021 3:00:00 AM 17.94 64.292 0.391 7.94 19.26 7.96
7/2/2021 3:15:00 AM 17.9 64.22 0.394 7.94 18.83 7.96
7/2/2021 3:30:00 AM 17.86 64.148 0.398 7.93 19.59 7.95
7/2/2021 3:45:00 AM 17.81 64.058 0.401 7.93 19.36 7.95
7/2/2021 4:00:00 AM 17.77 63.986 0.405 7.93 21.52 7.96
7/2/2021 4:15:00 AM 17.72 63.896 0.409 7.91 20.24 7.96
7/2/2021 4:30:00 AM 17.68 63.824 0.413 7.93 22.85 7.91
7/2/2021 4:45:00 AM 17.63 63.734 0.418 7.93 23.07 7.85
7/2/2021 5:00:00 AM 17.58 63.644 0.424 7.92 19.48 7.79
7/2/2021 5:15:00 AM 17.53 63.554 0.429 7.93 20.4 7.77
7/2/2021 5:30:00 AM 17.47 63.446 0.433 7.92 19.55 7.78
7/2/2021 5:45:00 AM 17.41 63.338 0.436 7.92 21.42 7.83
7/2/2021 6:00:00 AM 17.36 63.248 0.439 7.94 15.63 7.9
7/2/2021 6:15:00 AM 17.3 63.14 0.442 7.95 15.18 7.98
7/2/2021 6:30:00 AM 17.25 63.05 0.445 7.94 12.16 8.05
7/2/2021 6:45:00 AM 17.2 62.96 0.447 7.95 10.62 8.13
7/2/2021 7:00:00 AM 17.16 62.888 0.45 7.96 8.7 8.2
7/2/2021 7:15:00 AM 17.11 62.798 0.451 7.97 8.01 8.28
7/2/2021 7:30:00 AM 17.08 62.744 0.453 7.99 8.49 8.36
7/2/2021 7:45:00 AM 17.05 62.69 0.453 8 6.56 8.45
7/2/2021 8:00:00 AM 17.02 62.636 0.453 8.01 9.22 8.52
7/2/2021 8:15:00 AM 17 62.6 0.453 8.01 5.59 8.58
7/2/2021 8:30:00 AM 16.99 62.582 0.451 8.01 5.26 8.67
7/2/2021 8:45:00 AM 16.98 62.564 0.45 8.02 8.53 8.74
7/2/2021 9:00:00 AM 16.99 62.582 0.448 8.02 8.23 8.83
7/2/2021 9:15:00 AM 17.01 62.618 0.446 8.03 10 8.98
7/2/2021 9:30:00 AM 17.03 62.654 0.445 8.05 9.4 9.1
7/2/2021 9:45:00 AM 17.09 62.762 0.443 8.07 9.57 9.27
7/2/2021 10:00:00 AM 17.12 62.816 0.442 8.1 4.75 9.39
7/2/2021 10:15:00 AM 17.18 62.924 0.441 8.13 9.46 9.59
7/2/2021 10:30:00 AM 17.23 63.014 0.44 8.15 9.59 9.72
7/2/2021 10:45:00 AM 17.31 63.158 0.44 8.18 9.85 9.9
7/2/2021 11:00:00 AM 17.38 63.284 0.439 8.2 9.41 10.06
7/2/2021 11:15:00 AM 17.46 63.428 0.44 8.23 9.02 10.2
7/2/2021 11:30:00 AM 17.52 63.536 0.44 8.26 9.2 10.29
7/2/2021 11:45:00 AM 17.64 63.752 0.441 8.28 9.68 10.45
7/2/2021 12:00:00 PM 17.7 63.86 0.441 8.31 8.77 10.56
7/2/2021 12:15:00 PM 17.91 64.238 0.442 8.34 3.22 10.76
7/2/2021 12:30:00 PM 18.01 64.418 0.443 8.38 8.36 10.87
7/2/2021 12:45:00 PM 18.22 64.796 0.444 8.4 8.33 11.01
7/2/2021 1:00:00 PM 18.44 65.192 0.445 8.42 8.98 11.13
7/2/2021 1:15:00 PM 18.63 65.534 0.446 8.45 9.66 11.16
7/2/2021 1:30:00 PM 18.86 65.948 0.447 8.47 8.89 11.27
7/2/2021 1:45:00 PM 19.02 66.236 0.447 8.5 3.17 11.31
7/2/2021 2:00:00 PM 19.09 66.362 0.448 8.51 9.39 11.26
7/2/2021 2:15:00 PM 19.14 66.452 0.449 8.52 8.83 11.17
7/2/2021 2:30:00 PM 19.21 66.578 0.45 8.53 9 11.09
7/2/2021 2:45:00 PM 19.36 66.848 0.451 8.54 4.76 11.13
7/2/2021 3:00:00 PM 19.43 66.974 0.451 8.55 5.25 11.05
7/2/2021 3:15:00 PM 19.66 67.388 0.452 8.58 3.52 11.12
7/2/2021 3:30:00 PM 19.87 67.766 0.452 8.59 9.66 11.08
7/2/2021 3:45:00 PM 19.96 67.92799 0.453 8.59 9.42 10.92
7/2/2021 4:00:00 PM 19.99 67.982 0.454 8.61 8.5 10.72
7/2/2021 4:15:00 PM 19.96 67.92799 0.455 8.59 9.11 10.37
7/2/2021 4:30:00 PM 20.01 68.018 0.455 8.59 9.15 10.21
7/2/2021 4:45:00 PM 20.09 68.162 0.456 8.6 2.79 10.17
7/2/2021 5:00:00 PM 20.11 68.198 0.457 8.6 4.08 10.02
7/2/2021 5:15:00 PM 20.08 68.144 0.457 8.58 7.87 9.86
7/2/2021 5:30:00 PM 20.13 68.234 0.459 8.58 9.05 9.68
7/2/2021 5:45:00 PM 20.14 68.252 0.459 8.57 7.35 9.56
7/2/2021 6:00:00 PM 20.15 68.27 0.461 8.56 8.68 9.39
7/2/2021 6:15:00 PM 20.14 68.252 0.461 8.55 7.87 9.21
7/2/2021 6:30:00 PM 20.14 68.252 0.463 8.52 9.2 9.03
7/2/2021 6:45:00 PM 20.13 68.234 0.464 8.5 8.48 8.9
7/2/2021 7:00:00 PM 20.13 68.234 0.465 8.5 9.74 8.8
7/2/2021 7:15:00 PM 20.14 68.252 0.466 8.49 8.24 8.69
7/2/2021 7:30:00 PM 20.17 68.306 0.466 8.47 9.68 8.58
7/2/2021 7:45:00 PM 20.18 68.324 0.468 8.46 7.32 8.47
7/2/2021 8:00:00 PM 20.19 68.342 0.47 8.43 8.22 8.35
7/2/2021 8:15:00 PM 20.18 68.324 0.47 8.41 9.28 8.25
7/2/2021 8:30:00 PM 20.15 68.27 0.472 8.39 7.92 8.15
7/2/2021 8:45:00 PM 20.11 68.198 0.473 8.38 4.48 8.07
7/2/2021 9:00:00 PM 20.08 68.144 0.474 8.36 7.09 8
7/2/2021 9:15:00 PM 20.03 68.054 0.475 8.34 4.42 7.95
7/2/2021 9:30:00 PM 20 68 0.476 8.32 6.06 7.86
7/2/2021 9:45:00 PM 19.96 67.92799 0.477 8.29 9.24 7.86
7/2/2021 10:00:00 PM 19.91 67.838 0.478 8.28 7.82 7.85
7/2/2021 10:15:00 PM 19.85 67.73 0.479 8.28 6.47 7.84
7/2/2021 10:30:00 PM 19.78 67.604 0.48 8.27 9.9 7.81
7/2/2021 10:45:00 PM 19.69 67.442 0.481 8.25 7.16 7.81
7/2/2021 11:00:00 PM 19.59 67.262 0.482 8.24 7.24 7.81
7/2/2021 11:15:00 PM 19.48 67.064 0.483 8.22 8.03 7.84
7/2/2021 11:30:00 PM 19.36 66.848 0.484 8.22 8.16 7.82
7/2/2021 11:45:00 PM 19.26 66.668 0.485 8.2 8.13 7.86
7/3/2021 12:00:00 AM 19.13 66.434 0.486 8.19 9.67 7.87
7/3/2021 12:15:00 AM 19.01 66.218 0.486 8.2 8.06 7.88
7/3/2021 12:30:00 AM 18.87 65.966 0.487 8.19 8.69 7.88
7/3/2021 12:45:00 AM 18.74 65.732 0.488 8.18 8.5 7.93
7/3/2021 1:00:00 AM 18.6 65.48 0.488 8.16 7.57 7.97
7/3/2021 1:15:00 AM 18.46 65.228 0.489 8.16 7.19 8.04
7/3/2021 1:30:00 AM 18.33 64.994 0.49 8.15 8.5 8.07
7/3/2021 1:45:00 AM 18.18 64.724 0.491 8.15 8.99 8.09
7/3/2021 2:00:00 AM 18.04 64.472 0.491 8.15 9.19 8.09
7/3/2021 2:15:00 AM 17.89 64.202 0.493 8.14 9.26 8.14
7/3/2021 2:30:00 AM 17.73 63.914 0.494 8.13 7.84 8.19
7/3/2021 2:45:00 AM 17.57 63.626 0.494 8.13 9.28 8.22
7/3/2021 3:00:00 AM 17.41 63.338 0.495 8.14 7.83 8.26
7/3/2021 3:15:00 AM 17.26 63.068 0.496 8.12 9.84 8.3
7/3/2021 3:30:00 AM 17.1 62.78 0.496 8.12 9.53 8.34
7/3/2021 3:45:00 AM 16.95 62.51 0.497 8.11 13.29 8.37
7/3/2021 4:00:00 AM 16.81 62.258 0.498 8.12 8.46 8.41
7/3/2021 4:15:00 AM 16.67 62.006 0.498 8.12 9.49 8.45
7/3/2021 4:30:00 AM 16.54 61.772 0.499 8.11 9.66 8.48
7/3/2021 4:45:00 AM 16.41 61.538 0.499 8.11 8.42 8.54
7/3/2021 5:00:00 AM 16.3 61.34 0.5 8.12 8.24 8.57
7/3/2021 5:15:00 AM 16.19 61.142 0.5 8.12 8.95 8.59
7/3/2021 5:30:00 AM 16.07 60.926 0.5 8.12 8.51 8.63
7/3/2021 5:45:00 AM 15.96 60.728 0.5 8.12 7 8.66
7/3/2021 6:00:00 AM 15.86 60.548 0.501 8.12 9.75 8.71
7/3/2021 6:15:00 AM 15.76 60.368 0.501 8.12 6.54 8.77
7/3/2021 6:30:00 AM 15.67 60.206 0.501 8.12 5.4 8.82
7/3/2021 6:45:00 AM 15.58 60.044 0.502 8.13 19.18 8.9
7/3/2021 7:00:00 AM 15.52 59.936 0.502 8.13 7.8 8.98
7/3/2021 7:15:00 AM 15.49 59.882 0.501 8.14 7.89 9.11
7/3/2021 7:30:00 AM 15.45 59.81 0.502 8.14 6.85 9.17
7/3/2021 7:45:00 AM 15.42 59.756 0.502 8.15 7.22 9.23
7/3/2021 8:00:00 AM 15.43 59.774 0.502 8.17 9.34 9.36
7/3/2021 8:15:00 AM 15.44 59.792 0.502 8.18 8.45 9.45
7/3/2021 8:30:00 AM 15.47 59.846 0.502 8.2 7.9 9.58
7/3/2021 8:45:00 AM 15.5 59.9 0.502 8.21 7.69 9.68
7/3/2021 9:00:00 AM 15.53 59.954 0.501 8.22 8.06 9.77
7/3/2021 9:15:00 AM 15.58 60.044 0.501 8.24 8.56 9.88
7/3/2021 9:30:00 AM 15.62 60.116 0.501 8.25 7.41 10.03
7/3/2021 9:45:00 AM 15.71 60.278 0.501 8.27 7.12 10.06
7/3/2021 10:00:00 AM 15.79 60.422 0.501 8.28 7.25 10.21
7/3/2021 10:15:00 AM 15.99 60.782 0.5 8.3 7.76 10.43
7/3/2021 10:30:00 AM 15.97 60.746 0.5 8.31 7.89 10.39
7/3/2021 10:45:00 AM 16.11 60.998 0.5 8.32 7.21 10.48
7/3/2021 11:00:00 AM 16.13 61.034 0.5 8.35 6.85 10.56
7/3/2021 11:15:00 AM 16.31 61.358 0.499 8.37 7.74 10.68
7/3/2021 11:30:00 AM 16.36 61.448 0.499 8.38 6.72 10.69
7/3/2021 11:45:00 AM 16.37 61.466 0.499 8.39 7.08 10.62
7/3/2021 12:00:00 PM 16.8 62.24 0.498 8.42 7.3 10.87
7/3/2021 12:15:00 PM 17.01 62.618 0.498 8.43 7.94 10.79
7/3/2021 12:30:00 PM 17.3 63.14 0.497 8.46 7.39 11.02
7/3/2021 12:45:00 PM 17.39 63.302 0.496 8.47 6.66 10.98
7/3/2021 1:00:00 PM 17.52 63.536 0.496 8.49 8.12 11.07
7/3/2021 1:15:00 PM 17.65 63.77 0.495 8.51 7.38 11.06
7/3/2021 1:30:00 PM 17.92 64.256 0.495 8.52 6.58 11.08
7/3/2021 1:45:00 PM 17.86 64.148 0.494 8.52 7.74 10.73
7/3/2021 2:00:00 PM 18.13 64.634 0.493 8.55 6.25 10.96
7/3/2021 2:15:00 PM 18.24 64.832 0.492 8.57 7.19 11.08
7/3/2021 2:30:00 PM 18.46 65.228 0.49 8.59 7.79 11.17
7/3/2021 2:45:00 PM 18.52 65.336 0.489 8.61 6.92 11.07
7/3/2021 3:00:00 PM 18.76 65.768 0.488 8.62 7.83 11.06
7/3/2021 3:15:00 PM 19.03 66.254 0.487 8.64 7.95 11.08
7/3/2021 3:30:00 PM 19.16 66.488 0.486 8.65 7.66 11.01
7/3/2021 3:45:00 PM 19.13 66.434 0.485 8.65 7.93 10.78
7/3/2021 4:00:00 PM 19.02 66.236 0.484 8.63 8.38 10.24
7/3/2021 4:15:00 PM 19.08 66.344 0.484 8.62 7.62 10.32
7/3/2021 4:30:00 PM 19.14 66.452 0.484 8.62 8.13 10.2
7/3/2021 4:45:00 PM 19.27 66.686 0.485 8.63 6.95 10.13
7/3/2021 5:00:00 PM 19.4 66.92 0.485 8.62 7.85 10
7/3/2021 5:15:00 PM 19.42 66.956 0.484 8.61 7.7 9.83
7/3/2021 5:30:00 PM 19.41 66.938 0.485 8.59 7.48 9.6
7/3/2021 5:45:00 PM 19.44 66.992 0.484 8.59 2.98 9.51
7/3/2021 6:00:00 PM 19.47 67.046 0.484 8.58 7.54 9.42
7/3/2021 6:15:00 PM 19.53 67.154 0.485 8.57 7.4 9.37
7/3/2021 6:30:00 PM 19.55 67.19 0.485 8.57 7.95 9.33
7/3/2021 6:45:00 PM 19.58 67.244 0.485 8.57 7.43 9.29
7/3/2021 7:00:00 PM 19.59 67.262 0.486 8.55 8.59 9.15
7/3/2021 7:15:00 PM 19.6 67.28 0.486 8.53 2.86 9.03
7/3/2021 7:30:00 PM 19.61 67.298 0.486 8.53 4.86 8.94
7/3/2021 7:45:00 PM 19.59 67.262 0.487 8.51 8.36 8.8
7/3/2021 8:00:00 PM 19.56 67.208 0.487 8.49 8.13 8.68
7/3/2021 8:15:00 PM 19.52 67.136 0.488 8.48 8.68 8.55
7/3/2021 8:30:00 PM 19.48 67.064 0.488 8.45 8.22 8.45
7/3/2021 8:45:00 PM 19.45 67.01 0.489 8.44 8.19 8.35
7/3/2021 9:00:00 PM 19.42 66.956 0.49 8.42 9.41 8.27
7/3/2021 9:15:00 PM 19.4 66.92 0.491 8.41 9.43 8.2
7/3/2021 9:30:00 PM 19.37 66.866 0.491 8.39 8.05 8.16
7/3/2021 9:45:00 PM 19.34 66.812 0.492 8.37 10.17 8.09
7/3/2021 10:00:00 PM 19.3 66.74 0.492 8.35 7.6 8.08
7/3/2021 10:15:00 PM 19.26 66.668 0.492 8.33 4.37 8.06
7/3/2021 10:30:00 PM 19.19 66.542 0.493 8.31 8.85 8.04
7/3/2021 10:45:00 PM 19.11 66.398 0.493 8.3 5.62 8.04
7/3/2021 11:00:00 PM 19.04 66.272 0.494 8.29 8.38 8.04
7/3/2021 11:15:00 PM 18.96 66.128 0.494 8.28 5.6 8.04
7/3/2021 11:30:00 PM 18.88 65.984 0.494 8.27 5.4 8.05
7/3/2021 11:45:00 PM 18.79 65.82201 0.494 8.26 6.43 8.06
7/4/2021 12:00:00 AM 18.69 65.642 0.495 8.25 6.17 8.07
7/4/2021 12:15:00 AM 18.58 65.444 0.496 8.24 5.71 8.1
7/4/2021 12:30:00 AM 18.46 65.228 0.496 8.23 6.87 8.12
7/4/2021 12:45:00 AM 18.34 65.012 0.497 8.22 7.46 8.15
7/4/2021 1:00:00 AM 18.22 64.796 0.497 8.22 9.69 8.17
7/4/2021 1:15:00 AM 18.09 64.562 0.497 8.21 8.53 8.2
7/4/2021 1:30:00 AM 17.96 64.328 0.498 8.2 7.25 8.23
7/4/2021 1:45:00 AM 17.82 64.076 0.499 8.19 5.71 8.26
7/4/2021 2:00:00 AM 17.69 63.842 0.5 8.19 6.83 8.29
7/4/2021 2:15:00 AM 17.57 63.626 0.501 8.18 7.36 8.32
7/4/2021 2:30:00 AM 17.44 63.392 0.502 8.17 6.71 8.35
7/4/2021 2:45:00 AM 17.3 63.14 0.503 8.17 9.63 8.38
7/4/2021 3:00:00 AM 17.17 62.906 0.504 8.17 6.46 8.41
7/4/2021 3:15:00 AM 17.04 62.672 0.504 8.16 8.16 8.44
7/4/2021 3:30:00 AM 16.92 62.456 0.505 8.16 6.45 8.47
7/4/2021 3:45:00 AM 16.8 62.24 0.506 8.15 9.29 8.5
7/4/2021 4:00:00 AM 16.67 62.006 0.506 8.15 8.08 8.53
7/4/2021 4:15:00 AM 16.55 61.79 0.507 8.14 8.43 8.56
7/4/2021 4:30:00 AM 16.44 61.592 0.507 8.14 7.38 8.59
7/4/2021 4:45:00 AM 16.34 61.412 0.508 8.13 6.8 8.62
7/4/2021 5:00:00 AM 16.24 61.232 0.508 8.13 6.83 8.64
7/4/2021 5:15:00 AM 16.14 61.052 0.508 8.14 8.35 8.67
7/4/2021 5:30:00 AM 16.05 60.89 0.508 8.13 9.49 8.69
7/4/2021 5:45:00 AM 15.96 60.728 0.508 8.13 10.13 8.72
7/4/2021 6:00:00 AM 15.88 60.584 0.508 8.13 4.41 8.77
7/4/2021 6:15:00 AM 15.79 60.422 0.508 8.13 4.93 8.82
7/4/2021 6:30:00 AM 15.71 60.278 0.508 8.14 8.04 8.89
7/4/2021 6:45:00 AM 15.64 60.152 0.508 8.14 9.26 8.95
7/4/2021 7:00:00 AM 15.58 60.044 0.508 8.14 8.83 9.03
7/4/2021 7:15:00 AM 15.51 59.918 0.508 8.16 8.63 9.09
7/4/2021 7:30:00 AM 15.46 59.828 0.508 8.16 8.44 9.13
7/4/2021 7:45:00 AM 15.41 59.738 0.508 8.16 8.09 9.19
7/4/2021 8:00:00 AM 15.39 59.702 0.508 8.17 7.96 9.28
7/4/2021 8:15:00 AM 15.39 59.702 0.508 8.18 7.23 9.4
7/4/2021 8:30:00 AM 15.39 59.702 0.508 8.19 7.89 9.48
7/4/2021 8:45:00 AM 15.36 59.648 0.507 8.19 8.19 9.51
7/4/2021 9:00:00 AM 15.4 59.72 0.507 8.2 7.24 9.64
7/4/2021 9:15:00 AM 15.49 59.882 0.507 8.22 7.29 9.78
7/4/2021 9:30:00 AM 15.57 60.026 0.506 8.23 6.52 9.87
7/4/2021 9:45:00 AM 15.65 60.17 0.506 8.24 6.96 9.96
7/4/2021 10:00:00 AM 15.76 60.368 0.506 8.26 6.97 10.05
7/4/2021 10:15:00 AM 15.88 60.584 0.505 8.27 6.73 10.16
7/4/2021 10:30:00 AM 16.02 60.836 0.505 8.29 6.63 10.27
7/4/2021 10:45:00 AM 16.19 61.142 0.504 8.31 6.52 10.4
7/4/2021 11:00:00 AM 16.34 61.412 0.504 8.32 7.27 10.5
7/4/2021 11:15:00 AM 16.47 61.646 0.503 8.35 6.83 10.6
7/4/2021 11:30:00 AM 16.54 61.772 0.503 8.36 6.88 10.59
7/4/2021 11:45:00 AM 16.73 62.114 0.502 8.38 6.62 10.7
7/4/2021 12:00:00 PM 16.98 62.564 0.502 8.4 7.23 10.85
7/4/2021 12:15:00 PM 17.21 62.978 0.501 8.42 7.1 11.02
7/4/2021 12:30:00 PM 17.44 63.392 0.5 8.44 6.28 11.08
7/4/2021 12:45:00 PM 17.52 63.536 0.5 8.46 6.69 11.05
7/4/2021 1:00:00 PM 17.91 64.238 0.499 8.49 6.67 11.3
7/4/2021 1:15:00 PM 18 64.4 0.498 8.5 6.92 11.25
7/4/2021 1:30:00 PM 18.16 64.688 0.498 8.52 6.97 11.24
7/4/2021 1:45:00 PM 18.21 64.778 0.497 8.52 6.25 11.05
7/4/2021 2:00:00 PM 18.3 64.94 0.496 8.53 6.92 11
7/4/2021 2:15:00 PM 18.26 64.868 0.496 8.53 6.77 10.76
7/4/2021 2:30:00 PM 18.26 64.868 0.495 8.53 7.22 10.6
7/4/2021 2:45:00 PM 18.49 65.282 0.494 8.55 7.48 10.73
7/4/2021 3:00:00 PM 18.56 65.408 0.493 8.55 7.01 10.48
7/4/2021 3:15:00 PM 18.8 65.84 0.492 8.58 8.91 10.56
7/4/2021 3:30:00 PM 19.27 66.686 0.49 8.62 6.69 10.85
7/4/2021 3:45:00 PM 19.53 67.154 0.489 8.63 7.82 10.82
7/4/2021 4:00:00 PM 19.74 67.532 0.488 8.64 8.01 10.75
7/4/2021 4:15:00 PM 19.84 67.712 0.487 8.65 7.47 10.58
7/4/2021 4:30:00 PM 20.16 68.288 0.486 8.67 7.18 10.52
7/4/2021 4:45:00 PM 20.37 68.666 0.485 8.67 7.51 10.34
7/4/2021 5:00:00 PM 20.56 69.008 0.484 8.68 7.23 10.15
7/4/2021 5:15:00 PM 20.71 69.278 0.483 8.68 7.62 9.94
7/4/2021 5:30:00 PM 20.83 69.494 0.483 8.67 7.85 9.73
7/4/2021 5:45:00 PM 20.93 69.674 0.483 8.67 8.18 9.52
7/4/2021 6:00:00 PM 21.08 69.944 0.483 8.66 8.04 9.37
7/4/2021 6:15:00 PM 21.15 70.07 0.483 8.65 7.94 9.18
7/4/2021 6:30:00 PM 21.21 70.17799 0.483 8.63 8.02 9.02
7/4/2021 6:45:00 PM 21.24 70.232 0.484 8.61 7.08 8.85
7/4/2021 7:00:00 PM 21.25 70.25 0.484 8.6 8.51 8.7
7/4/2021 7:15:00 PM 21.26 70.268 0.485 8.58 7.42 8.56
7/4/2021 7:30:00 PM 21.25 70.25 0.486 8.56 7.92 8.44
7/4/2021 7:45:00 PM 21.23 70.214 0.486 8.54 7.06 8.32
7/4/2021 8:00:00 PM 21.2 70.16 0.487 8.52 7.55 8.2
7/4/2021 8:15:00 PM 21.16 70.088 0.488 8.49 7.02 8.09
7/4/2021 8:30:00 PM 21.11 69.998 0.489 8.46 7.26 8
7/4/2021 8:45:00 PM 21.06 69.908 0.49 8.43 7.56 7.92
7/4/2021 9:00:00 PM 21.01 69.818 0.491 8.42 7.69 7.85
7/4/2021 9:15:00 PM 20.95 69.71 0.491 8.39 7.75 7.8
7/4/2021 9:30:00 PM 20.9 69.62 0.492 8.38 8.63 7.76
7/4/2021 9:45:00 PM 20.85 69.53 0.492 8.36 10.13 7.73
7/4/2021 10:00:00 PM 20.79 69.422 0.493 8.34 4.17 7.7
7/4/2021 10:15:00 PM 20.73 69.314 0.493 8.34 7.9 7.69
7/4/2021 10:30:00 PM 20.67 69.206 0.494 8.32 8.54 7.69
7/4/2021 10:45:00 PM 20.6 69.08 0.494 8.31 10.44 7.68
7/4/2021 11:00:00 PM 20.53 68.954 0.494 8.3 9.45 7.69
7/4/2021 11:15:00 PM 20.44 68.792 0.495 8.29 10.28 7.69
7/4/2021 11:30:00 PM 20.35 68.63 0.496 8.28 9.96 7.7
7/4/2021 11:45:00 PM 20.25 68.45 0.496 8.26 6.01 7.71
7/5/2021 12:00:00 AM 20.15 68.27 0.497 8.25 7.51 7.73
7/5/2021 12:15:00 AM 20.03 68.054 0.498 8.25 7.61 7.75
7/5/2021 12:30:00 AM 19.91 67.838 0.499 8.23 6.2 7.78
7/5/2021 12:45:00 AM 19.78 67.604 0.5 8.21 6.25 7.81
7/5/2021 1:00:00 AM 19.66 67.388 0.501 8.21 6.99 7.84
7/5/2021 1:15:00 AM 19.52 67.136 0.501 8.2 7.23 7.87
7/5/2021 1:30:00 AM 19.38 66.884 0.503 8.21 9.91 7.9
7/5/2021 1:45:00 AM 19.23 66.614 0.504 8.2 8.04 7.93
7/5/2021 2:00:00 AM 19.08 66.344 0.505 8.18 8.15 7.96
7/5/2021 2:15:00 AM 18.92 66.056 0.507 8.17 11.23 8
7/5/2021 2:30:00 AM 18.75 65.75 0.508 8.17 7.49 8.04
7/5/2021 2:45:00 AM 18.58 65.444 0.509 8.16 7.59 8.08
7/5/2021 3:00:00 AM 18.41 65.138 0.51 8.16 7.98 8.13
7/5/2021 3:15:00 AM 18.23 64.814 0.511 8.16 9.56 8.17
7/5/2021 3:30:00 AM 18.05 64.49 0.512 8.15 7.72 8.21
7/5/2021 3:45:00 AM 17.88 64.184 0.513 8.14 6.99 8.25
7/5/2021 4:00:00 AM 17.7 63.86 0.514 8.14 7.07 8.31
7/5/2021 4:15:00 AM 17.53 63.554 0.514 8.14 7.64 8.35
7/5/2021 4:30:00 AM 17.36 63.248 0.514 8.14 7.58 8.4
7/5/2021 4:45:00 AM 17.2 62.96 0.515 8.14 7.03 8.43
7/5/2021 5:00:00 AM 17.04 62.672 0.515 8.14 7.01 8.48
7/5/2021 5:15:00 AM 16.89 62.402 0.516 8.13 6.84 8.53
7/5/2021 5:30:00 AM 16.75 62.15 0.516 8.13 6.62 8.57
7/5/2021 5:45:00 AM 16.62 61.916 0.516 8.13 6.02 8.61
7/5/2021 6:00:00 AM 16.49 61.682 0.516 8.13 7.3 8.66
7/5/2021 6:15:00 AM 16.38 61.484 0.516 8.13 4.96 8.72
7/5/2021 6:30:00 AM 16.27 61.286 0.516 8.13 10.19 8.79
7/5/2021 6:45:00 AM 16.17 61.106 0.516 8.14 8.33 8.86
7/5/2021 7:00:00 AM 16.08 60.944 0.516 8.14 7.1 8.93
7/5/2021 7:15:00 AM 16 60.8 0.517 8.14 8.46 9
7/5/2021 7:30:00 AM 15.94 60.692 0.516 8.15 9.38 9.08
7/5/2021 7:45:00 AM 15.89 60.602 0.517 8.15 8.65 9.17
7/5/2021 8:00:00 AM 15.86 60.548 0.516 8.17 8.79 9.29
7/5/2021 8:15:00 AM 15.84 60.512 0.517 8.17 8.36 9.37
7/5/2021 8:30:00 AM 15.84 60.512 0.516 8.18 7.36 9.48
7/5/2021 8:45:00 AM 15.85 60.53 0.516 8.19 8.11 9.6
7/5/2021 9:00:00 AM 15.89 60.602 0.516 8.21 7.89 9.73
7/5/2021 9:15:00 AM 15.93 60.674 0.516 8.22 7.71 9.86
7/5/2021 9:30:00 AM 15.99 60.782 0.515 8.23 7.23 9.98
7/5/2021 9:45:00 AM 16.06 60.908 0.515 8.25 7.32 10.09
7/5/2021 10:00:00 AM 16.14 61.052 0.515 8.28 7.35 10.2
7/5/2021 10:15:00 AM 16.27 61.286 0.514 8.29 6.95 10.34
7/5/2021 10:30:00 AM 16.4 61.52 0.514 8.3 7.15 10.47
7/5/2021 10:45:00 AM 16.58 61.844 0.513 8.32 8.74 10.6
7/5/2021 11:00:00 AM 16.75 62.15 0.512 8.34 7.43 10.74
7/5/2021 11:15:00 AM 16.93 62.474 0.512 8.37 6.96 10.88
7/5/2021 11:30:00 AM 17.12 62.816 0.511 8.39 6.55 11.01
7/5/2021 11:45:00 AM 17.29 63.122 0.51 8.4 7.14 11.11
7/5/2021 12:00:00 PM 17.5 63.5 0.509 8.43 6.58 11.25
7/5/2021 12:15:00 PM 17.73 63.914 0.509 8.45 7.82 11.38
7/5/2021 12:30:00 PM 18 64.4 0.508 8.48 7.3 11.51
7/5/2021 12:45:00 PM 18.18 64.724 0.506 8.5 3.84 11.57
7/5/2021 1:00:00 PM 18.34 65.012 0.506 8.49 6.37 11.54
7/5/2021 1:15:00 PM 18.59 65.462 0.504 8.54 8.64 11.6
7/5/2021 1:30:00 PM 18.8 65.84 0.503 8.57 6.92 11.66
7/5/2021 1:45:00 PM 19.08 66.344 0.502 8.57 6.76 11.73
7/5/2021 2:00:00 PM 19.36 66.848 0.5 8.6 7.72 11.78
7/5/2021 2:15:00 PM 19.68 67.424 0.499 8.64 7.07 11.82
7/5/2021 2:30:00 PM 19.98 67.964 0.497 8.65 7.73 11.8
7/5/2021 2:45:00 PM 20.24 68.432 0.495 8.68 7.33 11.83
7/5/2021 3:00:00 PM 20.36 68.648 0.493 8.69 7.72 11.59
7/5/2021 3:15:00 PM 20.51 68.918 0.492 8.68 8.34 11.38
7/5/2021 3:30:00 PM 20.79 69.422 0.491 8.71 8.09 11.38
7/5/2021 3:45:00 PM 20.98 69.764 0.49 8.72 7.43 11.26
7/5/2021 4:00:00 PM 21.19 70.142 0.488 8.74 7.33 11.15
7/5/2021 4:15:00 PM 21.33 70.394 0.487 8.74 8.27 10.94
7/5/2021 4:30:00 PM 21.41 70.538 0.486 8.74 6.93 10.75
7/5/2021 4:45:00 PM 21.48 70.664 0.485 8.73 7.8 10.55
7/5/2021 5:00:00 PM 21.55 70.79 0.485 8.73 7.25 10.34
7/5/2021 5:15:00 PM 21.64 70.952 0.484 8.73 7.73 10.16
7/5/2021 5:30:00 PM 21.72 71.096 0.484 8.71 7.57 9.96
7/5/2021 5:45:00 PM 21.78 71.204 0.484 8.7 8.07 9.81
7/5/2021 6:00:00 PM 21.82 71.276 0.484 8.7 7.61 9.59
7/5/2021 6:15:00 PM 21.86 71.348 0.484 8.67 8.34 9.36
7/5/2021 6:30:00 PM 21.9 71.42 0.484 8.65 8.08 9.2
7/5/2021 6:45:00 PM 21.93 71.474 0.484 8.65 7.93 9.03
7/5/2021 7:00:00 PM 21.95 71.51 0.485 8.63 8.37 8.84
7/5/2021 7:15:00 PM 21.96 71.528 0.485 8.61 8.08 8.68
7/5/2021 7:30:00 PM 21.96 71.528 0.486 8.59 8.61 8.52
7/5/2021 7:45:00 PM 21.95 71.51 0.486 8.56 9.33 8.34
7/5/2021 8:00:00 PM 21.94 71.492 0.487 8.54 8.05 8.23
7/5/2021 8:15:00 PM 21.92 71.456 0.488 8.5 9.37 8.09
7/5/2021 8:30:00 PM 21.9 71.42 0.489 8.47 9.52 7.96
7/5/2021 8:45:00 PM 21.88 71.384 0.49 8.44 9.29 7.84
7/5/2021 9:00:00 PM 21.85 71.33 0.49 8.42 3.8 7.77
7/5/2021 9:15:00 PM 21.82 71.276 0.491 8.39 7.31 7.7
7/5/2021 9:30:00 PM 21.78 71.204 0.492 8.38 10.14 7.62
7/5/2021 9:45:00 PM 21.75 71.15 0.492 8.36 4.05 7.57
7/5/2021 10:00:00 PM 21.7 71.06 0.493 8.34 4.85 7.55
7/5/2021 10:15:00 PM 21.66 70.988 0.493 8.32 5.12 7.52
7/5/2021 10:30:00 PM 21.61 70.898 0.494 8.31 4.64 7.47
7/5/2021 10:45:00 PM 21.55 70.79 0.495 8.3 6.25 7.5
7/5/2021 11:00:00 PM 21.49 70.682 0.495 8.27 7.39 7.49
7/5/2021 11:15:00 PM 21.42 70.556 0.496 8.27 5.91 7.47
7/5/2021 11:30:00 PM 21.34 70.412 0.497 8.25 6.63 7.46
7/5/2021 11:45:00 PM 21.26 70.268 0.498 8.23 7.75 7.41
7/6/2021 12:00:00 AM 21.17 70.106 0.499 8.22 8.13 7.45
7/6/2021 12:15:00 AM 21.08 69.944 0.501 8.19 7.57 7.45
7/6/2021 12:30:00 AM 20.98 69.764 0.502 8.19 9.55 7.47
7/6/2021 12:45:00 AM 20.88 69.584 0.503 8.19 8.21 7.5
7/6/2021 1:00:00 AM 20.76 69.368 0.504 8.18 7.72 7.53
7/6/2021 1:15:00 AM 20.65 69.17 0.504 8.18 10.57 7.56
7/6/2021 1:30:00 AM 20.52 68.936 0.505 8.17 8.46 7.6
7/6/2021 1:45:00 AM 20.39 68.702 0.506 8.16 8.54 7.64
7/6/2021 2:00:00 AM 20.26 68.468 0.507 8.17 7.73 7.68
7/6/2021 2:15:00 AM 20.12 68.216 0.508 8.15 8.82 7.72
7/6/2021 2:30:00 AM 19.97 67.946 0.509 8.14 8.11 7.75
7/6/2021 2:45:00 AM 19.82 67.676 0.511 8.14 8.38 7.79
7/6/2021 3:00:00 AM 19.67 67.406 0.512 8.15 8.68 7.83
7/6/2021 3:15:00 AM 19.51 67.118 0.513 8.14 10.05 7.86
7/6/2021 3:30:00 AM 19.36 66.848 0.514 8.13 9.18 7.9
7/6/2021 3:45:00 AM 19.2 66.56 0.515 8.12 11.01 7.94
7/6/2021 4:00:00 AM 19.05 66.29 0.516 8.11 10.54 7.98
7/6/2021 4:15:00 AM 18.9 66.02 0.516 8.12 12.1 8.01
7/6/2021 4:30:00 AM 18.75 65.75 0.517 8.11 8.53 8.05
7/6/2021 4:45:00 AM 18.61 65.498 0.517 8.11 8.2 8.09
7/6/2021 5:00:00 AM 18.47 65.246 0.517 8.1 9.19 8.12
7/6/2021 5:15:00 AM 18.35 65.03 0.518 8.1 10.28 8.16
7/6/2021 5:30:00 AM 18.24 64.832 0.518 8.11 8.79 8.19
7/6/2021 5:45:00 AM 18.14 64.652 0.518 8.1 6.74 8.22
7/6/2021 6:00:00 AM 18.04 64.472 0.518 8.1 5.08 8.26
7/6/2021 6:15:00 AM 17.95 64.31 0.518 8.11 5.52 8.32
7/6/2021 6:30:00 AM 17.87 64.166 0.518 8.11 6.81 8.38
7/6/2021 6:45:00 AM 17.8 64.04 0.518 8.11 6.84 8.45
7/6/2021 7:00:00 AM 17.74 63.932 0.518 8.11 5.42 8.55
7/6/2021 7:15:00 AM 17.69 63.842 0.518 8.12 7.75 8.64
7/6/2021 7:30:00 AM 17.65 63.77 0.519 8.13 7.31 8.73
7/6/2021 7:45:00 AM 17.61 63.698 0.518 8.14 9.35 8.83
7/6/2021 8:00:00 AM 17.59 63.662 0.519 8.15 9.43 8.94
7/6/2021 8:15:00 AM 17.58 63.644 0.518 8.16 8.77 9.06
7/6/2021 8:30:00 AM 17.59 63.662 0.518 8.17 8.99 9.2
7/6/2021 8:45:00 AM 17.61 63.698 0.518 8.2 8.98 9.34
7/6/2021 9:00:00 AM 17.64 63.752 0.518 8.2 9.05 9.49
7/6/2021 9:15:00 AM 17.68 63.824 0.517 8.23 7.79 9.65
7/6/2021 9:30:00 AM 17.73 63.914 0.516 8.25 7.45 9.8
7/6/2021 9:45:00 AM 17.79 64.022 0.516 8.26 8.13 9.94
7/6/2021 10:00:00 AM 17.86 64.148 0.516 8.28 9.7 10.09
7/6/2021 10:15:00 AM 17.96 64.328 0.515 8.3 8.48 10.23
7/6/2021 10:30:00 AM 18.08 64.544 0.515 8.33 7.58 10.38
7/6/2021 10:45:00 AM 18.22 64.796 0.514 8.36 7.63 10.53
7/6/2021 11:00:00 AM 18.35 65.03 0.513 8.38 7.98 10.68
7/6/2021 11:15:00 AM 18.51 65.318 0.513 8.4 6.68 10.81
7/6/2021 11:30:00 AM 18.69 65.642 0.512 8.41 7.31 10.96
7/6/2021 11:45:00 AM 18.89 66.002 0.511 8.44 6.77 11.09
7/6/2021 12:00:00 PM 19.12 66.416 0.51 8.46 6.99 11.19
7/6/2021 12:15:00 PM 19.34 66.812 0.51 8.49 7.5 11.33
7/6/2021 12:30:00 PM 19.55 67.19 0.509 8.5 6.47 11.44
7/6/2021 12:45:00 PM 19.8 67.64 0.509 8.53 6.95 11.47
7/6/2021 1:00:00 PM 20.02 68.036 0.508 8.55 6.82 11.57
7/6/2021 1:15:00 PM 20.25 68.45 0.507 8.57 7.79 11.66
7/6/2021 1:30:00 PM 20.51 68.918 0.505 8.59 7.35 11.73
7/6/2021 1:45:00 PM 20.77 69.386 0.503 8.61 6.82 11.81
7/6/2021 2:00:00 PM 21 69.8 0.502 8.63 7.69 11.79
7/6/2021 2:15:00 PM 21.09 69.962 0.5 8.63 6.62 11.58
7/6/2021 2:30:00 PM 21.25 70.25 0.498 8.66 6.71 11.46
7/6/2021 2:45:00 PM 21.6 70.88 0.496 8.69 7.23 11.6
7/6/2021 3:00:00 PM 21.88 71.384 0.494 8.7 7.19 11.56
7/6/2021 3:15:00 PM 22.13 71.834 0.492 8.71 8.14 11.51
7/6/2021 3:30:00 PM 22.34 72.212 0.491 8.72 6.5 11.39
7/6/2021 3:45:00 PM 22.52 72.536 0.49 8.72 6.52 11.24
7/6/2021 4:00:00 PM 22.68 72.824 0.489 8.73 7.35 11.08
7/6/2021 4:15:00 PM 22.81 73.058 0.488 8.72 7.46 10.88
7/6/2021 4:30:00 PM 22.89 73.202 0.487 8.74 8.32 10.72
7/6/2021 4:45:00 PM 23 73.4 0.486 8.72 7 10.5
7/6/2021 5:00:00 PM 23.03 73.454 0.486 8.72 8.07 10.12
7/6/2021 5:15:00 PM 23.02 73.436 0.485 8.7 7.6 9.74
7/6/2021 5:30:00 PM 23.07 73.526 0.484 8.69 8.53 9.5
7/6/2021 5:45:00 PM 23.08 73.544 0.484 8.68 7.1 9.31
7/6/2021 6:00:00 PM 23.11 73.598 0.484 8.67 6.72 9.18
7/6/2021 6:15:00 PM 23.13 73.634 0.483 8.66 8.11 9.04
7/6/2021 6:30:00 PM 23.17 73.706 0.484 8.64 7.68 8.89
7/6/2021 6:45:00 PM 23.14 73.652 0.484 8.61 8.86 8.67
7/6/2021 7:00:00 PM 23.14 73.652 0.485 8.58 9.3 8.52
7/6/2021 7:15:00 PM 23.14 73.652 0.485 8.56 7.93 8.39
7/6/2021 7:30:00 PM 23.14 73.652 0.486 8.54 8.42 8.22
7/6/2021 7:45:00 PM 23.15 73.67 0.488 8.51 8.6 8.09
7/6/2021 8:00:00 PM 23.15 73.67 0.489 8.47 8.21 7.95
7/6/2021 8:15:00 PM 23.14 73.652 0.489 8.44 9.08 7.8
7/6/2021 8:30:00 PM 23.14 73.652 0.49 8.41 8.13 7.67
7/6/2021 8:45:00 PM 23.14 73.652 0.491 8.38 8.41 7.55
7/6/2021 9:00:00 PM 23.13 73.634 0.491 8.36 8.29 7.43
7/6/2021 9:15:00 PM 23.12 73.616 0.492 8.34 9.84 7.37
7/6/2021 9:30:00 PM 23.1 73.58 0.493 8.3 5.21 7.3
7/6/2021 9:45:00 PM 23.06 73.508 0.494 8.27 2.88 7.24
7/6/2021 10:00:00 PM 23.02 73.436 0.495 8.25 4.31 7.21
7/6/2021 10:15:00 PM 22.96 73.328 0.496 8.24 4.86 7.17
7/6/2021 10:30:00 PM 22.9 73.22 0.497 8.22 5.08 7.16
7/6/2021 10:45:00 PM 22.84 73.112 0.497 8.22 5.19 7.14
7/6/2021 11:00:00 PM 22.77 72.986 0.498 8.21 4.7 7.12
7/6/2021 11:15:00 PM 22.7 72.86 0.5 8.19 8.14 7.11
7/6/2021 11:30:00 PM 22.62 72.716 0.501 8.18 4.56 7.11
7/6/2021 11:45:00 PM 22.53 72.554 0.502 8.17 10.36 7.12
7/7/2021 12:00:00 AM 22.42 72.356 0.503 8.16 5.34 7.12
7/7/2021 12:15:00 AM 22.31 72.158 0.504 8.15 8.53 7.15
7/7/2021 12:30:00 AM 22.19 71.942 0.505 8.14 6.1 7.18
7/7/2021 12:45:00 AM 22.06 71.708 0.506 8.14 8.04 7.22
7/7/2021 1:00:00 AM 21.93 71.474 0.507 8.14 7.5 7.26
7/7/2021 1:15:00 AM 21.8 71.24 0.507 8.14 7.64 7.29
7/7/2021 1:30:00 AM 21.66 70.988 0.509 8.13 8.45 7.33
7/7/2021 1:45:00 AM 21.53 70.754 0.51 8.14 8.27 7.37
7/7/2021 2:00:00 AM 21.39 70.502 0.511 8.13 8.81 7.4
7/7/2021 2:15:00 AM 21.25 70.25 0.512 8.12 10.22 7.44
7/7/2021 2:30:00 AM 21.11 69.998 0.513 8.12 7.72 7.47
7/7/2021 2:45:00 AM 20.97 69.746 0.515 8.12 6.4 7.51
7/7/2021 3:00:00 AM 20.82 69.476 0.516 8.12 7.11 7.54
7/7/2021 3:15:00 AM 20.67 69.206 0.517 8.1 6.85 7.57
7/7/2021 3:30:00 AM 20.51 68.918 0.519 8.09 17 7.59
7/7/2021 3:45:00 AM 20.36 68.648 0.519 8.09 7.85 7.64
7/7/2021 4:00:00 AM 20.2 68.36 0.52 8.09 8.41 7.68
7/7/2021 4:15:00 AM 20.04 68.07201 0.521 8.09 6.97 7.71
7/7/2021 4:30:00 AM 19.88 67.784 0.522 8.08 6.35 7.75
7/7/2021 4:45:00 AM 19.73 67.514 0.523 8.08 9.29 7.8
7/7/2021 5:00:00 AM 19.57 67.226 0.523 8.08 7.76 7.84
7/7/2021 5:15:00 AM 19.42 66.956 0.523 8.08 7.61 7.87
7/7/2021 5:30:00 AM 19.26 66.668 0.524 8.07 7.47 7.9
7/7/2021 5:45:00 AM 19.12 66.416 0.524 8.07 7.04 7.95
7/7/2021 6:00:00 AM 18.97 66.146 0.525 8.07 7.98 8
7/7/2021 6:15:00 AM 18.84 65.912 0.525 8.08 10.29 8.07
7/7/2021 6:30:00 AM 18.71 65.67799 0.525 8.09 9.44 8.05
7/7/2021 6:45:00 AM 18.59 65.462 0.526 8.09 8.26 8.23
7/7/2021 7:00:00 AM 18.48 65.264 0.526 8.1 8.74 8.33
7/7/2021 7:15:00 AM 18.38 65.084 0.526 8.11 7.77 8.43
7/7/2021 7:30:00 AM 18.3 64.94 0.525 8.11 7.98 8.53
7/7/2021 7:45:00 AM 18.22 64.796 0.526 8.12 7.86 8.65
7/7/2021 8:00:00 AM 18.15 64.67 0.526 8.13 7.55 8.78
7/7/2021 8:15:00 AM 18.1 64.58 0.526 8.13 6.98 8.91
7/7/2021 8:30:00 AM 18.07 64.526 0.526 8.15 6.95 9.06
7/7/2021 8:45:00 AM 18.06 64.508 0.525 8.16 6.64 9.21
7/7/2021 9:00:00 AM 18.07 64.526 0.525 8.17 6.94 9.36
7/7/2021 9:15:00 AM 18.09 64.562 0.524 8.2 6.2 9.54
7/7/2021 9:30:00 AM 18.12 64.616 0.524 8.22 7.2 9.69
7/7/2021 9:45:00 AM 18.16 64.688 0.523 8.25 6.72 9.83
7/7/2021 10:00:00 AM 18.22 64.796 0.522 8.26 6.52 10
7/7/2021 10:15:00 AM 18.3 64.94 0.521 8.28 7.17 10.16
7/7/2021 10:30:00 AM 18.4 65.12 0.52 8.3 6.47 10.32
7/7/2021 10:45:00 AM 18.53 65.354 0.519 8.33 7.14 10.48
7/7/2021 11:00:00 AM 18.66 65.588 0.518 8.35 6.63 10.63
7/7/2021 11:15:00 AM 18.82 65.876 0.517 8.37 7.07 10.78
7/7/2021 11:30:00 AM 19 66.2 0.516 8.38 6.93 10.93
7/7/2021 11:45:00 AM 19.2 66.56 0.516 8.41 7.58 11.06
7/7/2021 12:00:00 PM 19.43 66.974 0.515 8.44 6.77 11.22
7/7/2021 12:15:00 PM 19.52 67.136 0.514 8.46 7.46 11.23
7/7/2021 12:30:00 PM 19.8 67.64 0.513 8.49 6.06 11.45
7/7/2021 12:45:00 PM 19.97 67.946 0.512 8.51 6.73 11.55
7/7/2021 1:00:00 PM 20.22 68.396 0.511 8.53 6.11 11.69
7/7/2021 1:15:00 PM 20.38 68.684 0.51 8.55 6.77 11.72
7/7/2021 1:30:00 PM 20.45 68.81 0.509 8.56 6.55 11.56
7/7/2021 1:45:00 PM 20.82 69.476 0.508 8.59 6.82 11.83
7/7/2021 2:00:00 PM 21.04 69.872 0.506 8.62 6.08 11.86
7/7/2021 2:15:00 PM 21.32 70.376 0.504 8.64 7.14 11.91
7/7/2021 2:30:00 PM 21.56 70.808 0.502 8.66 6.84 11.93
7/7/2021 2:45:00 PM 21.75 71.15 0.5 8.68 7.55 11.81
7/7/2021 3:00:00 PM 21.97 71.546 0.498 8.68 7.95 11.81
7/7/2021 3:15:00 PM 22.1 71.78 0.496 8.69 6.17 11.61
7/7/2021 3:30:00 PM 22.17 71.906 0.495 8.69 79.55 11.28
7/7/2021 3:45:00 PM 22.19 71.942 0.494 8.68 40.07 10.99
7/7/2021 4:00:00 PM 22.24 72.032 0.493 8.7 6.99 10.77
7/7/2021 4:15:00 PM 22.37 72.266 0.492 8.7 8.01 10.7
7/7/2021 4:30:00 PM 22.54 72.57201 0.491 8.71 6.26 10.6
7/7/2021 4:45:00 PM 22.68 72.824 0.49 8.7 5.78 10.49
7/7/2021 5:00:00 PM 22.82 73.076 0.49 8.7 6.25 10.32
7/7/2021 5:15:00 PM 22.84 73.112 0.489 8.69 6.64 10.01
7/7/2021 5:30:00 PM 22.96 73.328 0.488 8.68 6.62 9.96
7/7/2021 5:45:00 PM 23.08 73.544 0.487 8.68 5.73 9.77
7/7/2021 6:00:00 PM 23.18 73.724 0.487 8.67 5.62 9.58
7/7/2021 6:15:00 PM 23.24 73.832 0.487 8.66 6.8 9.33
7/7/2021 6:30:00 PM 23.27 73.886 0.487 8.63 6.86 9.09
7/7/2021 6:45:00 PM 23.3 73.94 0.487 8.61 6.47 8.87
7/7/2021 7:00:00 PM 23.32 73.976 0.487 8.59 6.01 8.65
7/7/2021 7:15:00 PM 23.34 74.012 0.487 8.57 6.52 8.39
7/7/2021 7:30:00 PM 23.36 74.048 0.488 8.53 6.65 8.2
7/7/2021 7:45:00 PM 23.37 74.066 0.489 8.5 6.63 8.01
7/7/2021 8:00:00 PM 23.37 74.066 0.49 8.48 6.42 7.88
7/7/2021 8:15:00 PM 23.36 74.048 0.491 8.45 6.13 7.75
7/7/2021 8:30:00 PM 23.34 74.012 0.492 8.43 6.23 7.61
7/7/2021 8:45:00 PM 23.3 73.94 0.494 8.38 6.35 7.48
7/7/2021 9:00:00 PM 23.27 73.886 0.495 8.34 9.89 7.34
7/7/2021 9:15:00 PM 23.23 73.814 0.495 8.32 7.84 7.3
7/7/2021 9:30:00 PM 23.2 73.76 0.496 8.31 8.56 7.24
7/7/2021 9:45:00 PM 23.15 73.67 0.496 8.28 9.23 7.19
7/7/2021 10:00:00 PM 23.11 73.598 0.497 8.27 8.3 7.17
7/7/2021 10:15:00 PM 23.06 73.508 0.497 8.26 8.64 7.14
7/7/2021 10:30:00 PM 23 73.4 0.498 8.23 9.64 7.1
7/7/2021 10:45:00 PM 22.93 73.274 0.5 8.21 9.75 7.06
7/7/2021 11:00:00 PM 22.86 73.148 0.502 8.19 9.97 7.02
7/7/2021 11:15:00 PM 22.78 73.004 0.504 8.17 6.5 7
7/7/2021 11:30:00 PM 22.69 72.842 0.506 8.17 9.34 7
7/7/2021 11:45:00 PM 22.6 72.68 0.507 8.16 10.12 7
7/8/2021 12:00:00 AM 22.51 72.518 0.508 8.13 5.58 7.03
7/8/2021 12:15:00 AM 22.42 72.356 0.509 8.13 5.34 7.05
7/8/2021 12:30:00 AM 22.32 72.176 0.509 8.13 9.36 7.07
7/8/2021 12:45:00 AM 22.23 72.014 0.51 8.12 8.76 7.11
7/8/2021 1:00:00 AM 22.13 71.834 0.511 8.13 6.5 7.14
7/8/2021 1:15:00 AM 22.03 71.654 0.512 8.11 7.17 7.16
7/8/2021 1:30:00 AM 21.91 71.438 0.513 8.11 6.49 7.18
7/8/2021 1:45:00 AM 21.79 71.222 0.514 8.12 6.04 7.21
7/8/2021 2:00:00 AM 21.67 71.006 0.515 8.11 7.27 7.25
7/8/2021 2:15:00 AM 21.53 70.754 0.516 8.1 6.77 7.28
7/8/2021 2:30:00 AM 21.39 70.502 0.516 8.1 6.63 7.32
7/8/2021 2:45:00 AM 21.25 70.25 0.517 8.09 5.61 7.36
7/8/2021 3:00:00 AM 21.09 69.962 0.518 8.09 8.56 7.41
7/8/2021 3:15:00 AM 20.94 69.692 0.519 8.1 10.54 7.46
7/8/2021 3:30:00 AM 20.78 69.404 0.52 8.1 8.95 7.52
7/8/2021 3:45:00 AM 20.62 69.116 0.52 8.09 7.14 7.56
7/8/2021 4:00:00 AM 20.46 68.828 0.521 8.11 5.72 7.61
7/8/2021 4:15:00 AM 20.3 68.54 0.522 8.11 7.68 7.65
7/8/2021 4:30:00 AM 20.14 68.252 0.522 8.1 7.91 7.69
7/8/2021 4:45:00 AM 19.99 67.982 0.523 8.1 6.66 7.73
7/8/2021 5:00:00 AM 19.85 67.73 0.523 8.09 5.96 7.77
7/8/2021 5:15:00 AM 19.7 67.46 0.524 8.09 7.76 7.81
7/8/2021 5:30:00 AM 19.56 67.208 0.525 8.09 9.98 7.85
7/8/2021 5:45:00 AM 19.42 66.956 0.526 8.11 9.55 7.88
7/8/2021 6:00:00 AM 19.3 66.74 0.526 8.11 8.58 7.92
7/8/2021 6:15:00 AM 19.19 66.542 0.526 8.09 9.65 7.98
7/8/2021 6:30:00 AM 19.08 66.344 0.527 8.09 9.46 8.09
7/8/2021 6:45:00 AM 18.98 66.164 0.527 8.1 8.49 8.15
7/8/2021 7:00:00 AM 18.89 66.002 0.527 8.12 7.96 8.19
7/8/2021 7:15:00 AM 18.79 65.82201 0.527 8.12 7.44 8.24
7/8/2021 7:30:00 AM 18.71 65.67799 0.527 8.12 7.65 8.31
7/8/2021 7:45:00 AM 18.63 65.534 0.527 8.12 6.84 8.38
7/8/2021 8:00:00 AM 18.56 65.408 0.527 8.12 7.86 8.52
7/8/2021 8:15:00 AM 18.5 65.3 0.527 8.13 8.62 8.64
7/8/2021 8:30:00 AM 18.46 65.228 0.526 8.15 7.15 8.87
7/8/2021 8:45:00 AM 18.42 65.156 0.525 8.16 7.24 9.04
7/8/2021 9:00:00 AM 18.47 65.246 0.525 8.21 7.05 9.44
7/8/2021 9:15:00 AM 18.42 65.156 0.525 8.21 6.68 9.42
7/8/2021 9:30:00 AM 18.43 65.174 0.511 8.24 6.29 9.67
7/8/2021 9:45:00 AM 18.41 65.138 0.524 8.25 7.63 9.75
7/8/2021 10:00:00 AM 18.42 65.156 0.523 8.27 6.46 9.94
7/8/2021 10:15:00 AM 18.39 65.102 0.523 8.28 8.99 9.96
7/8/2021 10:30:00 AM 18.35 65.03 0.522 8.27 6.98 9.93
7/8/2021 10:45:00 AM 18.29 64.922 0.522 8.27 6.64 9.81
7/8/2021 11:00:00 AM 18.26 64.868 0.522 8.28 6.56 9.81
7/8/2021 11:15:00 AM 18.24 64.832 0.521 8.28 5.86 9.87
7/8/2021 11:30:00 AM 18.25 64.85 0.521 8.3 5.96 10.02
7/8/2021 11:45:00 AM 18.31 64.958 0.52 8.33 6.14 10.31
7/8/2021 12:00:00 PM 18.41 65.138 0.519 8.36 7.77 10.64
7/8/2021 12:15:00 PM 18.44 65.192 0.518 8.39 7.25 10.8
7/8/2021 12:30:00 PM 18.55 65.39 0.517 8.43 5.65 11.05
7/8/2021 12:45:00 PM 18.63 65.534 0.516 8.44 6.21 11.19
7/8/2021 1:00:00 PM 18.71 65.67799 0.516 8.47 6.56 11.34
7/8/2021 1:15:00 PM 18.78 65.804 0.514 8.48 5.7 11.42
7/8/2021 1:30:00 PM 18.9 66.02 0.513 8.52 6.19 11.58
7/8/2021 1:45:00 PM 18.99 66.182 0.512 8.53 5.96 11.69
7/8/2021 2:00:00 PM 19.11 66.398 0.511 8.56 6.38 11.83
7/8/2021 2:15:00 PM 19.23 66.614 0.509 8.58 5.67 11.94
7/8/2021 2:30:00 PM 19.35 66.83 0.507 8.6 6.89 11.98
7/8/2021 2:45:00 PM 19.63 67.334 0.506 8.63 6.55 12.16
7/8/2021 3:00:00 PM 19.64 67.352 0.505 8.64 6.06 11.75
7/8/2021 3:15:00 PM 19.58 67.244 0.505 8.61 6.48 11.19
7/8/2021 3:30:00 PM 19.53 67.154 0.502 8.59 6.51 10.62
7/8/2021 3:45:00 PM 19.56 67.208 0.497 8.57 6.19 10.23
7/8/2021 4:00:00 PM 19.63 67.334 0.487 8.54 9.29 9.86
7/8/2021 4:15:00 PM 19.66 67.388 0.483 8.54 6.27 9.62
7/8/2021 4:30:00 PM 19.66 67.388 0.483 8.51 9.06 9.38
7/8/2021 4:45:00 PM 19.66 67.388 0.48 8.47 4.88 9.08
7/8/2021 5:00:00 PM 19.66 67.388 0.475 8.46 8.47 8.89
7/8/2021 5:15:00 PM 19.69 67.442 0.466 8.42 9.45 8.73
7/8/2021 5:30:00 PM 19.68 67.424 0.462 8.39 11.14 8.6
7/8/2021 5:45:00 PM 19.65 67.37 0.46 8.36 12.43 8.5
7/8/2021 6:00:00 PM 19.6 67.28 0.458 8.33 11.1 8.41
7/8/2021 6:15:00 PM 19.55 67.19 0.455 8.31 13.79 8.36
7/8/2021 6:30:00 PM 19.53 67.154 0.454 8.3 13.93 8.32
7/8/2021 6:45:00 PM 19.53 67.154 0.454 8.28 13.73 8.26
7/8/2021 7:00:00 PM 19.53 67.154 0.455 8.27 12.98 8.21
7/8/2021 7:15:00 PM 19.55 67.19 0.458 8.26 11.59 8.2
7/8/2021 7:30:00 PM 19.59 67.262 0.461 8.26 19.18 8.15
7/8/2021 7:45:00 PM 19.65 67.37 0.461 8.24 25.98 8.11
7/8/2021 8:00:00 PM 19.75 67.55 0.462 8.23 22.94 8.07
7/8/2021 8:15:00 PM 19.82 67.676 0.465 8.22 18.72 8.01
7/8/2021 8:30:00 PM 19.86 67.748 0.469 8.2 21.05 7.97
7/8/2021 8:45:00 PM 19.84 67.712 0.473 8.18 23.87 7.92
7/8/2021 9:00:00 PM 19.76 67.568 0.473 8.15 27.95 7.9
7/8/2021 9:15:00 PM 19.64 67.352 0.47 8.12 21.77 7.9
7/8/2021 9:30:00 PM 19.5 67.1 0.465 8.1 23.85 7.86
7/8/2021 9:45:00 PM 19.35 66.83 0.46 8.07 32.26 7.8
7/8/2021 10:00:00 PM 19.21 66.578 0.453 8.03 36.63 7.72
7/8/2021 10:15:00 PM 19.11 66.398 0.444 7.99 38.98 7.64
7/8/2021 10:30:00 PM 19.03 66.254 0.435 7.97 50.71 7.52
7/8/2021 10:45:00 PM 18.96 66.128 0.429 7.94 48.25 7.51
7/8/2021 11:00:00 PM 18.87 65.966 0.429 7.92 46.96 7.41
7/8/2021 11:15:00 PM 18.76 65.768 0.432 7.9 63.21 7.24
7/8/2021 11:30:00 PM 18.66 65.588 0.439 7.89 42.79 7.13
7/8/2021 11:45:00 PM 18.55 65.39 0.446 7.89 37.01 7.12
7/9/2021 12:00:00 AM 18.44 65.192 0.454 7.89 30.96 7.04
7/9/2021 12:15:00 AM 18.34 65.012 0.46 7.89 28.86 7.2
7/9/2021 12:30:00 AM 18.24 64.832 0.463 7.91 29.26 7.28
7/9/2021 12:45:00 AM 18.15 64.67 0.464 7.91 29.17 7.43
7/9/2021 1:00:00 AM 18.07 64.526 0.461 7.91 25.55 7.5
7/9/2021 1:15:00 AM 18.02 64.436 0.455 7.91 24.09 7.59
7/9/2021 1:30:00 AM 17.99 64.382 0.446 7.91 35.11 7.6
7/9/2021 1:45:00 AM 17.98 64.364 0.436 7.9 23.62 7.66
7/9/2021 2:00:00 AM 17.99 64.382 0.425 7.9 19.34 7.52
7/9/2021 2:15:00 AM 18.01 64.418 0.416 7.9 23.96 7.62
7/9/2021 2:30:00 AM 18.03 64.454 0.409 7.89 26.47 7.63
7/9/2021 2:45:00 AM 18.05 64.49 0.403 7.89 20.7 7.7
7/9/2021 3:00:00 AM 18.07 64.526 0.399 7.89 21.27 7.69
7/9/2021 3:15:00 AM 18.08 64.544 0.395 7.88 23.45 7.64
7/9/2021 3:30:00 AM 18.1 64.58 0.391 7.9 24.8 7.74
7/9/2021 3:45:00 AM 18.11 64.598 0.387 7.89 16.35 7.76
7/9/2021 4:00:00 AM 18.11 64.598 0.382 7.89 21.87 7.78
7/9/2021 4:15:00 AM 18.11 64.598 0.378 7.9 19.71 7.77
7/9/2021 4:30:00 AM 18.1 64.58 0.375 7.89 13.69 7.8
7/9/2021 4:45:00 AM 18.09 64.562 0.372 7.89 18.29 7.81
7/9/2021 5:00:00 AM 18.07 64.526 0.37 7.88 17.87 7.81
7/9/2021 5:15:00 AM 18.06 64.508 0.37 7.9 27.55 7.81
7/9/2021 5:30:00 AM 18.04 64.472 0.371 7.88 15.7 7.83
7/9/2021 5:45:00 AM 18.02 64.436 0.371 7.88 17.11 7.83
7/9/2021 6:00:00 AM 17.99 64.382 0.373 7.89 15.47 7.85
7/9/2021 6:15:00 AM 17.97 64.346 0.376 7.89 11.75 7.88
7/9/2021 6:30:00 AM 17.94 64.292 0.378 7.9 12.16 7.92
7/9/2021 6:45:00 AM 17.92 64.256 0.381 7.89 12.1 7.97
7/9/2021 7:00:00 AM 17.9 64.22 0.385 7.92 10.07 8.03
7/9/2021 7:15:00 AM 17.89 64.202 0.389 7.93 8.76 8.12
7/9/2021 7:30:00 AM 17.88 64.184 0.393 7.94 8.34 8.21
7/9/2021 7:45:00 AM 17.88 64.184 0.397 7.95 7.68 8.29
7/9/2021 8:00:00 AM 17.89 64.202 0.401 7.97 10.25 8.36
7/9/2021 8:15:00 AM 17.89 64.202 0.406 7.98 5.87 8.43
7/9/2021 8:30:00 AM 17.9 64.22 0.41 7.99 6.05 8.51
7/9/2021 8:45:00 AM 17.89 64.202 0.414 8.01 6.81 8.58
7/9/2021 9:00:00 AM 17.93 64.274 0.419 8.04 5.89 8.72
7/9/2021 9:15:00 AM 17.97 64.346 0.423 8.05 5.3 8.84
7/9/2021 9:30:00 AM 18.03 64.454 0.427 8.06 4.8 8.95
7/9/2021 9:45:00 AM 18.11 64.598 0.431 8.08 4.89 9.07
7/9/2021 10:00:00 AM 18.19 64.742 0.435 8.1 7.37 9.2
7/9/2021 10:15:00 AM 18.28 64.904 0.438 8.14 5.37 9.36
7/9/2021 10:30:00 AM 18.4 65.12 0.441 8.16 3.86 9.57
7/9/2021 10:45:00 AM 18.42 65.156 0.444 8.19 7.17 9.72
7/9/2021 11:00:00 AM 18.55 65.39 0.446 8.22 7.97 9.96
7/9/2021 11:15:00 AM 18.6 65.48 0.448 8.25 6.79 10.05
7/9/2021 11:30:00 AM 18.75 65.75 0.45 8.28 7.19 10.25
7/9/2021 11:45:00 AM 18.81 65.858 0.452 8.31 7.17 10.38
7/9/2021 12:00:00 PM 19.04 66.272 0.453 8.35 7.6 10.61
7/9/2021 12:15:00 PM 19.22 66.596 0.455 8.38 7.2 10.79
7/9/2021 12:30:00 PM 19.32 66.776 0.456 8.41 4.96 10.89
7/9/2021 12:45:00 PM 19.39 66.902 0.457 8.44 8.66 10.98
7/9/2021 1:00:00 PM 19.48 67.064 0.458 8.46 7.55 11.03
7/9/2021 1:15:00 PM 19.42 66.956 0.46 8.47 9.86 10.77
7/9/2021 1:30:00 PM 19.63 67.334 0.461 8.48 9.24 10.89
7/9/2021 1:45:00 PM 19.78 67.604 0.461 8.51 5.99 10.94
7/9/2021 2:00:00 PM 19.91 67.838 0.462 8.51 9.12 10.89
7/9/2021 2:15:00 PM 20.05 68.09 0.462 8.55 9.51 10.88
7/9/2021 2:30:00 PM 20.09 68.162 0.463 8.54 3.22 10.69
7/9/2021 2:45:00 PM 20.23 68.414 0.463 8.55 7.63 10.59
7/9/2021 3:00:00 PM 20.53 68.954 0.463 8.59 9.62 10.8
7/9/2021 3:15:00 PM 20.79 69.422 0.462 8.62 8.94 10.94
7/9/2021 3:30:00 PM 20.95 69.71 0.462 8.63 10.03 10.85
7/9/2021 3:45:00 PM 21.06 69.908 0.462 8.63 8.06 10.79
7/9/2021 4:00:00 PM 21.21 70.17799 0.462 8.65 8.51 10.65
7/9/2021 4:15:00 PM 21.33 70.394 0.463 8.65 8.27 10.51
7/9/2021 4:30:00 PM 21.43 70.574 0.463 8.65 8.15 10.36
7/9/2021 4:45:00 PM 21.64 70.952 0.463 8.65 8.55 10.41
7/9/2021 5:00:00 PM 21.78 71.204 0.464 8.65 9.44 10.33
7/9/2021 5:15:00 PM 21.87 71.366 0.464 8.65 6.52 10.11
7/9/2021 5:30:00 PM 21.83 71.294 0.465 8.62 8.81 9.66
7/9/2021 5:45:00 PM 21.81 71.258 0.467 8.59 10.4 9.2
7/9/2021 6:00:00 PM 21.82 71.276 0.463 8.55 3.2 8.82
7/9/2021 6:15:00 PM 21.86 71.348 0.459 8.54 4.89 8.62
7/9/2021 6:30:00 PM 21.88 71.384 0.459 8.53 4.74 8.66
7/9/2021 6:45:00 PM 21.87 71.366 0.461 8.51 4.11 8.5
7/9/2021 7:00:00 PM 21.87 71.366 0.462 8.48 4.02 8.35
7/9/2021 7:15:00 PM 21.88 71.384 0.463 8.47 4.06 8.25
7/9/2021 7:30:00 PM 21.87 71.366 0.463 8.44 5.16 8.19
7/9/2021 7:45:00 PM 21.83 71.294 0.463 8.4 4.19 8.11
7/9/2021 8:00:00 PM 21.77 71.186 0.464 8.38 4.67 7.99
7/9/2021 8:15:00 PM 21.71 71.078 0.466 8.35 8.38 7.88
7/9/2021 8:30:00 PM 21.66 70.988 0.467 8.33 8.51 7.8
7/9/2021 8:45:00 PM 21.62 70.916 0.469 8.31 7.66 7.75
7/9/2021 9:00:00 PM 21.6 70.88 0.471 8.3 5.61 7.68
7/9/2021 9:15:00 PM 21.58 70.844 0.473 8.29 7.79 7.58
7/9/2021 9:30:00 PM 21.57 70.826 0.474 8.26 6.98 7.43
7/9/2021 9:45:00 PM 21.56 70.808 0.475 8.25 9.05 7.47
7/9/2021 10:00:00 PM 21.53 70.754 0.476 8.23 8.97 7.44
7/9/2021 10:15:00 PM 21.49 70.682 0.476 8.22 9.69 7.48
7/9/2021 10:30:00 PM 21.44 70.592 0.478 8.21 7.93 7.47
7/9/2021 10:45:00 PM 21.37 70.466 0.479 8.19 7.63 7.47
7/9/2021 11:00:00 PM 21.3 70.34 0.481 8.18 8.51 7.47
7/9/2021 11:15:00 PM 21.22 70.196 0.482 8.17 7.23 7.48
7/9/2021 11:30:00 PM 21.13 70.034 0.483 8.18 8.2 7.48
7/9/2021 11:45:00 PM 21.02 69.836 0.484 8.16 9.82 7.5
7/10/2021 12:00:00 AM 20.89 69.602 0.483 8.14 9.58 7.49
7/10/2021 12:15:00 AM 20.76 69.368 0.483 8.14 9.96 7.54
7/10/2021 12:30:00 AM 20.61 69.098 0.483 8.13 9.17 7.57
7/10/2021 12:45:00 AM 20.46 68.828 0.482 8.12 10.49 7.57
7/10/2021 1:00:00 AM 20.31 68.558 0.482 8.12 14.93 7.62
7/10/2021 1:15:00 AM 20.17 68.306 0.482 8.11 13.39 7.63
7/10/2021 1:30:00 AM 20.01 68.018 0.481 8.11 13.44 7.68
7/10/2021 1:45:00 AM 19.86 67.748 0.481 8.1 11.85 7.68
7/10/2021 2:00:00 AM 19.71 67.478 0.482 8.09 10.39 7.72
7/10/2021 2:15:00 AM 19.55 67.19 0.483 8.09 10.86 7.8
7/10/2021 2:30:00 AM 19.39 66.902 0.484 8.08 11.46 7.82
7/10/2021 2:45:00 AM 19.24 66.632 0.486 8.07 10.43 7.83
7/10/2021 3:00:00 AM 19.08 66.344 0.488 8.05 10.81 7.83
7/10/2021 3:15:00 AM 18.93 66.074 0.49 8.05 10.71 7.84
7/10/2021 3:30:00 AM 18.79 65.82201 0.492 8.06 10.73 7.87
7/10/2021 3:45:00 AM 18.64 65.552 0.494 8.05 10.62 7.91
7/10/2021 4:00:00 AM 18.5 65.3 0.495 8.05 10.06 7.96
7/10/2021 4:15:00 AM 18.35 65.03 0.496 8.05 10.3 8.01
7/10/2021 4:30:00 AM 18.21 64.778 0.496 8.06 10.84 8.07
7/10/2021 4:45:00 AM 18.08 64.544 0.497 8.06 9.73 8.12
7/10/2021 5:00:00 AM 17.95 64.31 0.497 8.07 9.14 8.17
7/10/2021 5:15:00 AM 17.82 64.076 0.497 8.07 9.26 8.21
7/10/2021 5:30:00 AM 17.7 63.86 0.496 8.07 9.17 8.26
7/10/2021 5:45:00 AM 17.59 63.662 0.495 8.08 9.45 8.3
7/10/2021 6:00:00 AM 17.47 63.446 0.494 8.08 8.05 8.34
7/10/2021 6:15:00 AM 17.38 63.284 0.492 8.08 9.27 8.39
7/10/2021 6:30:00 AM 17.29 63.122 0.489 8.09 9.41 8.44
7/10/2021 6:45:00 AM 17.21 62.978 0.487 8.09 6.58 8.5
7/10/2021 7:00:00 AM 17.14 62.852 0.485 8.09 6.18 8.56
7/10/2021 7:15:00 AM 17.08 62.744 0.482 8.1 7.34 8.61
7/10/2021 7:30:00 AM 17.03 62.654 0.479 8.11 7.24 8.66
7/10/2021 7:45:00 AM 17 62.6 0.476 8.11 5.3 8.74
7/10/2021 8:00:00 AM 16.98 62.564 0.474 8.12 7.4 8.82
7/10/2021 8:15:00 AM 16.98 62.564 0.472 8.13 8.21 8.91
7/10/2021 8:30:00 AM 17 62.6 0.471 8.15 8.94 9.03
7/10/2021 8:45:00 AM 17.03 62.654 0.47 8.16 6.73 9.19
7/10/2021 9:00:00 AM 17.07 62.726 0.469 8.18 8.78 9.26
7/10/2021 9:15:00 AM 17.12 62.816 0.469 8.19 7.29 9.34
7/10/2021 9:30:00 AM 17.17 62.906 0.469 8.21 7.58 9.52
7/10/2021 9:45:00 AM 17.23 63.014 0.47 8.21 7.42 9.61
7/10/2021 10:00:00 AM 17.26 63.068 0.47 8.23 7.53 9.75
7/10/2021 10:15:00 AM 17.4 63.32 0.471 8.26 6.57 10.01
7/10/2021 10:30:00 AM 17.5 63.5 0.472 8.3 7.87 10.3
7/10/2021 10:45:00 AM 17.64 63.752 0.472 8.33 7.22 10.55
7/10/2021 11:00:00 AM 17.64 63.752 0.474 8.34 8.4 10.63
7/10/2021 11:15:00 AM 17.62 63.716 0.475 8.36 8.2 10.59
7/10/2021 11:30:00 AM 17.71 63.878 0.475 8.39 7.38 10.77
7/10/2021 11:45:00 AM 17.73 63.914 0.476 8.4 7.63 10.83
7/10/2021 12:00:00 PM 17.81 64.058 0.477 8.43 7.25 10.99
7/10/2021 12:15:00 PM 17.91 64.238 0.477 8.45 7.04 11.15
7/10/2021 12:30:00 PM 17.93 64.274 0.478 8.47 7.83 11.12
7/10/2021 12:45:00 PM 18.02 64.436 0.478 8.48 7.34 11.22
7/10/2021 1:00:00 PM 18.23 64.814 0.479 8.51 8.02 11.38
7/10/2021 1:15:00 PM 18.33 64.994 0.478 8.54 7.37 11.52
7/10/2021 1:30:00 PM 18.46 65.228 0.478 8.56 7.19 11.53
7/10/2021 1:45:00 PM 18.71 65.67799 0.478 8.59 7.29 11.61
7/10/2021 2:00:00 PM 18.8 65.84 0.478 8.6 7.69 11.51
7/10/2021 2:15:00 PM 19.02 66.236 0.478 8.61 8.03 11.57
7/10/2021 2:30:00 PM 18.96 66.128 0.478 8.62 7.33 11.39
7/10/2021 2:45:00 PM 19.25 66.65 0.477 8.65 7.4 11.49
7/10/2021 3:00:00 PM 19.61 67.298 0.476 8.67 7.98 11.58
7/10/2021 3:15:00 PM 19.85 67.73 0.476 8.69 6.81 11.46
7/10/2021 3:30:00 PM 20.2 68.36 0.476 8.71 6.78 11.47
7/10/2021 3:45:00 PM 20.43 68.774 0.475 8.71 8.56 11.31
7/10/2021 4:00:00 PM 20.64 69.152 0.474 8.72 6.96 11.15
7/10/2021 4:15:00 PM 20.83 69.494 0.474 8.73 3.16 11
7/10/2021 4:30:00 PM 20.89 69.602 0.474 8.72 8.37 10.74
7/10/2021 4:45:00 PM 21.02 69.836 0.474 8.72 8.06 10.61
7/10/2021 5:00:00 PM 21.06 69.908 0.475 8.71 8.29 10.41
7/10/2021 5:15:00 PM 21.13 70.034 0.475 8.7 7.17 10.24
7/10/2021 5:30:00 PM 21.2 70.16 0.475 8.69 7.54 10.09
7/10/2021 5:45:00 PM 21.21 70.17799 0.476 8.68 8.02 9.88
7/10/2021 6:00:00 PM 21.25 70.25 0.476 8.67 7.52 9.74
7/10/2021 6:15:00 PM 21.27 70.286 0.477 8.66 8.8 9.57
7/10/2021 6:30:00 PM 21.27 70.286 0.478 8.65 8.59 9.44
7/10/2021 6:45:00 PM 21.25 70.25 0.479 8.63 9.71 9.28
7/10/2021 7:00:00 PM 21.2 70.16 0.48 8.61 8.42 9.09
7/10/2021 7:15:00 PM 21.15 70.07 0.48 8.59 8.17 8.98
7/10/2021 7:30:00 PM 21.1 69.98 0.481 8.58 7.22 8.82
7/10/2021 7:45:00 PM 21.06 69.908 0.482 8.54 9 8.67
7/10/2021 8:00:00 PM 21.03 69.854 0.482 8.52 9.34 8.52
7/10/2021 8:15:00 PM 21 69.8 0.483 8.5 8.8 8.36
7/10/2021 8:30:00 PM 20.99 69.782 0.484 8.46 9.09 8.22
7/10/2021 8:45:00 PM 21 69.8 0.485 8.44 4.3 8.11
7/10/2021 9:00:00 PM 21.01 69.818 0.486 8.42 3.88 8
7/10/2021 9:15:00 PM 21.02 69.836 0.487 8.4 6.81 7.91
7/10/2021 9:30:00 PM 21.03 69.854 0.487 8.38 4.18 7.83
7/10/2021 9:45:00 PM 21.04 69.872 0.488 8.36 8.66 7.78
7/10/2021 10:00:00 PM 21.04 69.872 0.488 8.34 8.45 7.72
7/10/2021 10:15:00 PM 21.02 69.836 0.489 8.32 4.95 7.68
7/10/2021 10:30:00 PM 21 69.8 0.489 8.31 6.2 7.65
7/10/2021 10:45:00 PM 20.96 69.728 0.49 8.29 5.96 7.63
7/10/2021 11:00:00 PM 20.91 69.638 0.491 8.28 8.7 7.62
7/10/2021 11:15:00 PM 20.85 69.53 0.492 8.27 6.3 7.61
7/10/2021 11:30:00 PM 20.78 69.404 0.493 8.26 6.03 7.61
7/10/2021 11:45:00 PM 20.7 69.26 0.494 8.24 5.84 7.62
7/11/2021 12:00:00 AM 20.61 69.098 0.494 8.23 6.82 7.63
7/11/2021 12:15:00 AM 20.52 68.936 0.496 8.22 7.19 7.65
7/11/2021 12:30:00 AM 20.41 68.738 0.497 8.21 6.82 7.67
7/11/2021 12:45:00 AM 20.29 68.522 0.498 8.2 5.78 7.69
7/11/2021 1:00:00 AM 20.16 68.288 0.499 8.19 6.61 7.72
7/11/2021 1:15:00 AM 20.02 68.036 0.5 8.18 6.86 7.74
7/11/2021 1:30:00 AM 19.87 67.766 0.501 8.18 6.96 7.77
7/11/2021 1:45:00 AM 19.71 67.478 0.503 8.16 7.48 7.8
7/11/2021 2:00:00 AM 19.56 67.208 0.504 8.16 7.32 7.84
7/11/2021 2:15:00 AM 19.4 66.92 0.505 8.15 7 7.87
7/11/2021 2:30:00 AM 19.24 66.632 0.506 8.15 7.46 7.92
7/11/2021 2:45:00 AM 19.08 66.344 0.506 8.14 7.23 7.96
7/11/2021 3:00:00 AM 18.93 66.074 0.507 8.14 7.5 8
7/11/2021 3:15:00 AM 18.79 65.82201 0.508 8.13 7.11 8.04
7/11/2021 3:30:00 AM 18.65 65.57 0.508 8.13 7.11 8.08
7/11/2021 3:45:00 AM 18.51 65.318 0.509 8.13 6.98 8.12
7/11/2021 4:00:00 AM 18.37 65.066 0.509 8.13 8.01 8.16
7/11/2021 4:15:00 AM 18.25 64.85 0.51 8.13 7.93 8.2
7/11/2021 4:30:00 AM 18.12 64.616 0.51 8.13 6.84 8.23
7/11/2021 4:45:00 AM 18.01 64.418 0.51 8.12 8.88 8.27
7/11/2021 5:00:00 AM 17.89 64.202 0.51 8.12 6.75 8.3
7/11/2021 5:15:00 AM 17.78 64.004 0.51 8.12 7.35 8.34
7/11/2021 5:30:00 AM 17.68 63.824 0.51 8.12 7.5 8.37
7/11/2021 5:45:00 AM 17.59 63.662 0.511 8.12 6.18 8.39
7/11/2021 6:00:00 AM 17.49 63.482 0.51 8.11 5.93 8.42
7/11/2021 6:15:00 AM 17.41 63.338 0.51 8.11 7.53 8.44
7/11/2021 6:30:00 AM 17.32 63.176 0.51 8.11 8.28 8.48
7/11/2021 6:45:00 AM 17.24 63.032 0.51 8.11 7.61 8.53
7/11/2021 7:00:00 AM 17.17 62.906 0.511 8.11 3.64 8.58
7/11/2021 7:15:00 AM 17.1 62.78 0.511 8.12 9.4 8.64
7/11/2021 7:30:00 AM 17.06 62.708 0.511 8.12 9.01 8.81
7/11/2021 7:45:00 AM 17 62.6 0.511 8.13 8.24 8.88
7/11/2021 8:00:00 AM 16.95 62.51 0.512 8.13 8.67 8.94
7/11/2021 8:15:00 AM 16.93 62.474 0.511 8.14 8.42 9.11
7/11/2021 8:30:00 AM 16.9 62.42 0.511 8.15 9.21 9.2
7/11/2021 8:45:00 AM 16.85 62.33 0.511 8.15 9.05 9.19
7/11/2021 9:00:00 AM 16.84 62.312 0.512 8.17 8.72 9.35
7/11/2021 9:15:00 AM 16.8 62.24 0.512 8.18 8.25 9.36
7/11/2021 9:30:00 AM 16.8 62.24 0.511 8.19 6.87 9.56
7/11/2021 9:45:00 AM 16.79 62.222 0.511 8.2 7.27 9.66
7/11/2021 10:00:00 AM 16.83 62.294 0.511 8.23 8.03 9.9
7/11/2021 10:15:00 AM 16.85 62.33 0.511 8.25 7.16 9.97
7/11/2021 10:30:00 AM 16.89 62.402 0.51 8.27 7.5 10.21
7/11/2021 10:45:00 AM 16.98 62.564 0.509 8.31 6.97 10.46
7/11/2021 11:00:00 AM 17 62.6 0.509 8.32 6.98 10.5
7/11/2021 11:15:00 AM 17.13 62.834 0.508 8.35 8.61 10.76
7/11/2021 11:30:00 AM 17.13 62.834 0.508 8.36 6.95 10.62
7/11/2021 11:45:00 AM 17.17 62.906 0.508 8.36 6.65 10.5
7/11/2021 12:00:00 PM 17.19 62.942 0.507 8.37 6.7 10.59
7/11/2021 12:15:00 PM 17.25 63.05 0.506 8.38 6.05 10.67
7/11/2021 12:30:00 PM 17.38 63.284 0.505 8.42 6.76 10.85
7/11/2021 12:45:00 PM 17.58 63.644 0.504 8.45 6.98 11.24
7/11/2021 1:00:00 PM 17.84 64.112 0.502 8.5 6.94 11.55
7/11/2021 1:15:00 PM 17.95 64.31 0.501 8.51 7.47 11.52
7/11/2021 1:30:00 PM 18.16 64.688 0.5 8.54 6.44 11.69
7/11/2021 1:45:00 PM 18.41 65.138 0.499 8.56 7.82 11.86
7/11/2021 2:00:00 PM 18.6 65.48 0.498 8.58 7.16 11.88
7/11/2021 2:15:00 PM 18.82 65.876 0.497 8.6 6.51 11.89
7/11/2021 2:30:00 PM 19.04 66.272 0.496 8.62 6.98 11.98
7/11/2021 2:45:00 PM 19.1 66.38 0.494 8.64 6.61 11.86
7/11/2021 3:00:00 PM 19.07 66.326 0.494 8.63 7.29 11.45
7/11/2021 3:15:00 PM 19.12 66.416 0.493 8.64 7.62 11.31
7/11/2021 3:30:00 PM 19.15 66.47 0.492 8.64 7.09 11.15
7/11/2021 3:45:00 PM 19.25 66.65 0.492 8.65 6.51 11.16
7/11/2021 4:00:00 PM 19.36 66.848 0.491 8.65 6.76 11.06
7/11/2021 4:15:00 PM 19.46 67.028 0.49 8.65 7.21 11.05
7/11/2021 4:30:00 PM 19.55 67.19 0.489 8.66 6.85 10.96
7/11/2021 4:45:00 PM 19.61 67.298 0.489 8.65 6.62 10.72
7/11/2021 5:00:00 PM 19.7 67.46 0.488 8.65 7.91 10.59
7/11/2021 5:15:00 PM 19.77 67.586 0.488 8.64 8.22 10.37
7/11/2021 5:30:00 PM 19.83 67.694 0.488 8.63 8.09 10.2
7/11/2021 5:45:00 PM 19.88 67.784 0.488 8.62 7.68 10.03
7/11/2021 6:00:00 PM 19.96 67.92799 0.488 8.61 7.16 9.97
7/11/2021 6:15:00 PM 20 68 0.488 8.6 6.52 9.73
7/11/2021 6:30:00 PM 20.07 68.126 0.488 8.6 7.53 9.59
7/11/2021 6:45:00 PM 20.16 68.288 0.488 8.58 8.47 9.43
7/11/2021 7:00:00 PM 20.22 68.396 0.488 8.56 8.36 9.26
7/11/2021 7:15:00 PM 20.3 68.54 0.488 8.55 9.11 9.16
7/11/2021 7:30:00 PM 20.36 68.648 0.489 8.53 8.09 9.01
7/11/2021 7:45:00 PM 20.4 68.72 0.489 8.52 8.53 8.8
7/11/2021 8:00:00 PM 20.45 68.81 0.49 8.49 8.05 8.62
7/11/2021 8:15:00 PM 20.5 68.9 0.49 8.47 9.01 8.43
7/11/2021 8:30:00 PM 20.55 68.99 0.491 8.44 8.26 8.16
7/11/2021 8:45:00 PM 20.6 69.08 0.492 8.41 9.45 8.18
7/11/2021 9:00:00 PM 20.64 69.152 0.493 8.39 9.89 8.06
7/11/2021 9:15:00 PM 20.66 69.188 0.494 8.37 3.5 7.97
7/11/2021 9:30:00 PM 20.68 69.224 0.495 8.33 3.94 7.89
7/11/2021 9:45:00 PM 20.69 69.242 0.496 8.32 7.8 7.83
7/11/2021 10:00:00 PM 20.68 69.224 0.497 8.29 8.42 7.79
7/11/2021 10:15:00 PM 20.66 69.188 0.498 8.26 5.93 7.76
7/11/2021 10:30:00 PM 20.65 69.17 0.498 8.24 5.35 7.73
7/11/2021 10:45:00 PM 20.64 69.152 0.477 8.25 5.94 7.91
7/11/2021 11:00:00 PM 20.62 69.116 0.435 8.24 31.24 8.04
7/11/2021 11:15:00 PM 20.59 69.062 0.411 8.19 45.87 7.89
7/11/2021 11:30:00 PM 20.49 68.882 0.409 8.16 93.86 7.8
7/11/2021 11:45:00 PM 20.39 68.702 0.404 8.1 139.26 7.82
7/12/2021 12:00:00 AM 20.29 68.522 0.384 8.04 138.62 7.8
7/12/2021 12:15:00 AM 20.22 68.396 0.381 8.01 112.74 7.76
7/12/2021 12:30:00 AM 20.17 68.306 0.377 7.99 174.55 7.7
7/12/2021 12:45:00 AM 20.12 68.216 0.381 7.98 191.3 7.69
7/12/2021 1:00:00 AM 20.05 68.09 0.385 7.97 140.89 7.68
7/12/2021 1:15:00 AM 20 68 0.377 7.96 115.85 7.65
7/12/2021 1:30:00 AM 19.93 67.874 0.389 7.96 108.17 7.62
7/12/2021 1:45:00 AM 19.79 67.622 0.405 7.96 90 7.68
7/12/2021 2:00:00 AM 19.65 67.37 0.415 7.96 77.67 7.68
7/12/2021 2:15:00 AM 19.48 67.064 0.429 7.95 65.75 7.72
7/12/2021 2:30:00 AM 19.29 66.722 0.437 7.95 60.01 7.76
7/12/2021 2:45:00 AM 19.09 66.362 0.431 7.94 61.01 7.79
7/12/2021 3:00:00 AM 18.91 66.038 0.424 7.92 88.56 7.78
7/12/2021 3:15:00 AM 18.78 65.804 0.422 7.9 115.12 7.68
7/12/2021 3:30:00 AM 18.72 65.696 0.41 7.87 129.67 7.55
7/12/2021 3:45:00 AM 18.66 65.588 0.402 7.85 111.37 7.45
7/12/2021 4:00:00 AM 18.56 65.408 0.403 7.83 106.15 7.39
7/12/2021 4:15:00 AM 18.45 65.21 0.407 7.82 86.92 7.34
7/12/2021 4:30:00 AM 18.35 65.03 0.413 7.82 80.36 7.37
7/12/2021 4:45:00 AM 18.24 64.832 0.422 7.84 78.52 7.53
7/12/2021 5:00:00 AM 18.14 64.652 0.428 7.85 79.44 7.65
7/12/2021 5:15:00 AM 18.08 64.544 0.422 7.84 65.52 7.75
7/12/2021 5:30:00 AM 18.11 64.598 0.407 7.84 58.42 7.78
7/12/2021 5:45:00 AM 18.2 64.76 0.387 7.83 69.79 7.78
7/12/2021 6:00:00 AM 18.32 64.976 0.367 7.82 61.84 7.75
7/12/2021 6:15:00 AM 18.44 65.192 0.349 7.81 54.71 7.72
7/12/2021 6:30:00 AM 18.52 65.336 0.332 7.79 58.19 7.64
7/12/2021 6:45:00 AM 18.58 65.444 0.323 7.78 55.63 7.66
7/12/2021 7:00:00 AM 18.6 65.48 0.319 7.78 56.42 7.71
7/12/2021 7:15:00 AM 18.61 65.498 0.319 7.78 44.87 7.78
7/12/2021 7:30:00 AM 18.6 65.48 0.32 7.78 41.88 7.83
7/12/2021 7:45:00 AM 18.6 65.48 0.321 7.79 45.7 7.91
7/12/2021 8:00:00 AM 18.61 65.498 0.321 7.8 27.55 7.97
7/12/2021 8:15:00 AM 18.62 65.516 0.32 7.8 42.57 8.04
7/12/2021 8:30:00 AM 18.64 65.552 0.318 7.82 29.98 8.09
7/12/2021 8:45:00 AM 18.68 65.624 0.317 7.82 25.16 8.2
7/12/2021 9:00:00 AM 18.7 65.66 0.316 7.83 72.14 8.24
7/12/2021 9:15:00 AM 18.74 65.732 0.317 7.84 21.69 8.35
7/12/2021 9:30:00 AM 18.79 65.82201 0.318 7.85 29.32 8.46
7/12/2021 9:45:00 AM 18.86 65.948 0.32 7.88 23.02 8.58
7/12/2021 10:00:00 AM 18.92 66.056 0.322 7.9 15.35 8.49
7/12/2021 10:15:00 AM 18.96 66.128 0.325 7.91 15.89 8.73
7/12/2021 10:30:00 AM 19.08 66.344 0.329 7.94 15.7 8.89
7/12/2021 10:45:00 AM 19.28 66.704 0.331 7.98 13.43 9.14
7/12/2021 11:00:00 AM 19.47 67.046 0.398 8.02 13.38 9.19
7/12/2021 11:15:00 AM 19.5 67.1 0.348 8.04 13 9.27
7/12/2021 11:30:00 AM 19.63 67.334 0.346 8.06 14.45 9.26
7/12/2021 11:45:00 AM 19.68 67.424 0.348 8.09 11.38 9.41
7/12/2021 12:00:00 PM 19.92 67.856 0.352 8.11 13.06 9.6
7/12/2021 12:15:00 PM 20.16 68.288 0.356 8.15 19.48 9.78
7/12/2021 12:30:00 PM 20.41 68.738 0.359 8.2 9.44 10.05
7/12/2021 12:45:00 PM 20.65 69.17 0.363 8.24 11.25 10.25
7/12/2021 1:00:00 PM 20.87 69.566 0.366 8.27 10.19 10.31
7/12/2021 1:15:00 PM 21.1 69.98 0.37 8.3 10.88 10.4
7/12/2021 1:30:00 PM 21.31 70.358 0.374 8.33 9 10.4
7/12/2021 1:45:00 PM 21.54 70.772 0.377 8.36 8.53 10.58
7/12/2021 2:00:00 PM 21.77 71.186 0.38 8.39 8.5 10.62
7/12/2021 2:15:00 PM 21.99 71.582 0.384 8.42 7.47 10.68
7/12/2021 2:30:00 PM 22.26 72.068 0.388 8.45 8.21 10.79
7/12/2021 2:45:00 PM 22.49 72.482 0.391 8.47 7.38 10.75
7/12/2021 3:00:00 PM 22.73 72.914 0.394 8.5 6.16 10.7
7/12/2021 3:15:00 PM 22.93 73.274 0.398 8.51 7.54 10.71
7/12/2021 3:30:00 PM 23.11 73.598 0.401 8.52 6.23 10.58
7/12/2021 3:45:00 PM 23.21 73.778 0.404 8.53 10.24 10.47
7/12/2021 4:00:00 PM 23.2 73.76 0.407 8.51 8.54 10.19
7/12/2021 4:15:00 PM 23.1 73.58 0.411 8.49 10.02 9.63
7/12/2021 4:30:00 PM 23.08 73.544 0.414 8.46 6.64 9.24
7/12/2021 4:45:00 PM 23.11 73.598 0.411 8.43 10.54 8.77
7/12/2021 5:00:00 PM 23.17 73.706 0.408 8.4 11.63 8.59
7/12/2021 5:15:00 PM 23.17 73.706 0.41 8.37 11.55 8.43
7/12/2021 5:30:00 PM 23.17 73.706 0.411 8.32 11.79 8.17
7/12/2021 5:45:00 PM 23.18 73.724 0.412 8.29 13.75 8.04
7/12/2021 6:00:00 PM 23.16 73.688 0.414 8.26 11.85 7.89
7/12/2021 6:15:00 PM 23.12 73.616 0.417 8.21 10.81 7.78
7/12/2021 6:30:00 PM 23.05 73.49 0.419 8.19 191.6 7.65
7/12/2021 6:45:00 PM 22.98 73.364 0.421 8.15 16.86 7.58
7/12/2021 7:00:00 PM 22.93 73.274 0.422 8.15 12.98 7.53
7/12/2021 7:15:00 PM 22.9 73.22 0.424 8.14 15.48 7.49
7/12/2021 7:30:00 PM 22.88 73.184 0.427 8.13 10.01 7.5
7/12/2021 7:45:00 PM 22.86 73.148 0.429 8.11 13.19 7.44
7/12/2021 8:00:00 PM 22.82 73.076 0.432 8.1 15.64 7.4
7/12/2021 8:15:00 PM 22.78 73.004 0.435 8.09 11.68 7.37
7/12/2021 8:30:00 PM 22.73 72.914 0.438 8.1 11.89 7.34
7/12/2021 8:45:00 PM 22.68 72.824 0.441 8.08 12.72 7.32
7/12/2021 9:00:00 PM 22.62 72.716 0.444 8.07 18.43 7.3
7/12/2021 9:15:00 PM 22.56 72.608 0.447 8.06 15.21 7.28
7/12/2021 9:30:00 PM 22.5 72.5 0.449 8.06 12.78 7.28
7/12/2021 9:45:00 PM 22.43 72.374 0.452 8.05 13.54 7.26
7/12/2021 10:00:00 PM 22.33 72.194 0.455 8.05 13.42 7.25
7/12/2021 10:15:00 PM 22.21 71.978 0.457 8.04 12.33 7.26
7/12/2021 10:30:00 PM 22.08 71.744 0.458 8.03 14.39 7.27
7/12/2021 10:45:00 PM 21.93 71.474 0.46 8.03 9.14 7.31
7/12/2021 11:00:00 PM 21.76 71.168 0.46 8.02 12.09 7.34
7/12/2021 11:15:00 PM 21.6 70.88 0.461 8.01 14.71 7.37
7/12/2021 11:30:00 PM 21.43 70.574 0.462 8 13.93 7.41
7/12/2021 11:45:00 PM 21.27 70.286 0.463 8.01 10.73 7.44
7/13/2021 12:00:00 AM 21.11 69.998 0.465 8.01 13.52 7.45
7/13/2021 12:15:00 AM 20.96 69.728 0.465 8 17.88 7.52
7/13/2021 12:30:00 AM 20.8 69.44 0.466 7.99 12.8 7.56
7/13/2021 12:45:00 AM 20.65 69.17 0.466 7.99 15.27 7.6
7/13/2021 1:00:00 AM -99999.99 -179968 -99999.99 -99999.99 -99999.99 -99999.99
7/13/2021 1:15:00 AM -99999.99 -179968 -99999.99 -99999.99 -99999.99 -99999.99
7/13/2021 1:30:00 AM -99999.99 -179968 -99999.99 -99999.99 -99999.99 -99999.99
7/13/2021 1:45:00 AM -99999.99 -179968 -99999.99 -99999.99 -99999.99 -99999.99
7/13/2021 2:00:00 AM -99999.99 -179968 -99999.99 -99999.99 -99999.99 -99999.99
7/13/2021 2:15:00 AM -99999.99 -179968 -99999.99 -99999.99 -99999.99 -99999.99
7/13/2021 2:30:00 AM -99999.99 -179968 -99999.99 -99999.99 -99999.99 -99999.99
7/13/2021 2:45:00 AM -99999.99 -179968 -99999.99 -99999.99 -99999.99 -99999.99
7/13/2021 3:00:00 AM -99999.99 -179968 -99999.99 -99999.99 -99999.99 -99999.99
7/13/2021 3:15:00 AM -99999.99 -179968 -99999.99 -99999.99 -99999.99 -99999.99
7/13/2021 3:30:00 AM -99999.99 -179968 -99999.99 -99999.99 -99999.99 -99999.99
7/13/2021 3:45:00 AM -99999.99 -179968 -99999.99 -99999.99 -99999.99 -99999.99
7/13/2021 4:00:00 AM -99999.99 -179968 -99999.99 -99999.99 -99999.99 -99999.99
7/13/2021 4:15:00 AM -99999.99 -179968 -99999.99 -99999.99 -99999.99 -99999.99
7/13/2021 4:30:00 AM -99999.99 -179968 -99999.99 -99999.99 -99999.99 -99999.99
7/13/2021 4:45:00 AM -99999.99 -179968 -99999.99 -99999.99 -99999.99 -99999.99
7/13/2021 5:00:00 AM -99999.99 -179968 -99999.99 -99999.99 -99999.99 -99999.99
7/13/2021 5:15:00 AM -99999.99 -179968 -99999.99 -99999.99 -99999.99 -99999.99
7/13/2021 5:30:00 AM -99999.99 -179968 -99999.99 -99999.99 -99999.99 -99999.99
7/13/2021 5:45:00 AM -99999.99 -179968 -99999.99 -99999.99 -99999.99 -99999.99
7/13/2021 6:00:00 AM -99999.99 -179968 -99999.99 -99999.99 -99999.99 -99999.99
7/13/2021 6:15:00 AM -99999.99 -179968 -99999.99 -99999.99 -99999.99 -99999.99
7/13/2021 6:30:00 AM -99999.99 -179968 -99999.99 -99999.99 -99999.99 -99999.99
7/13/2021 6:45:00 AM -99999.99 -179968 -99999.99 -99999.99 -99999.99 -99999.99
7/13/2021 7:00:00 AM -99999.99 -179968 -99999.99 -99999.99 -99999.99 -99999.99
7/13/2021 7:15:00 AM -99999.99 -179968 -99999.99 -99999.99 -99999.99 -99999.99
7/13/2021 7:30:00 AM -99999.99 -179968 -99999.99 -99999.99 -99999.99 -99999.99
7/13/2021 7:45:00 AM -99999.99 -179968 -99999.99 -99999.99 -99999.99 -99999.99
7/13/2021 8:00:00 AM -99999.99 -179968 -99999.99 -99999.99 -99999.99 -99999.99
7/13/2021 8:15:00 AM -99999.99 -179968 -99999.99 -99999.99 -99999.99 -99999.99
7/13/2021 8:30:00 AM -99999.99 -179968 -99999.99 -99999.99 -99999.99 -99999.99
7/13/2021 8:45:00 AM -99999.99 -179968 -99999.99 -99999.99 -99999.99 -99999.99
7/13/2021 9:00:00 AM -99999.99 -179968 -99999.99 -99999.99 -99999.99 -99999.99
7/13/2021 9:15:00 AM -99999.99 -179968 -99999.99 -99999.99 -99999.99 -99999.99
7/13/2021 9:30:00 AM -99999.99 -179968 -99999.99 -99999.99 -99999.99 -99999.99
7/13/2021 9:45:00 AM -99999.99 -179968 -99999.99 -99999.99 -99999.99 -99999.99
7/13/2021 10:00:00 AM -99999.99 -179968 -99999.99 -99999.99 -99999.99 -99999.99
7/13/2021 10:15:00 AM -99999.99 -179968 -99999.99 -99999.99 -99999.99 -99999.99
7/13/2021 10:30:00 AM -99999.99 -179968 -99999.99 -99999.99 -99999.99 -99999.99
7/13/2021 10:45:00 AM -99999.99 -179968 -99999.99 -99999.99 -99999.99 -99999.99
7/13/2021 11:00:00 AM -99999.99 -179968 -99999.99 -99999.99 -99999.99 -99999.99
7/13/2021 11:15:00 AM -99999.99 -179968 -99999.99 -99999.99 -99999.99 -99999.99
7/13/2021 11:30:00 AM -99999.99 -179968 -99999.99 -99999.99 -99999.99 -99999.99
7/13/2021 11:45:00 AM -99999.99 -179968 -99999.99 -99999.99 -99999.99 -99999.99
7/13/2021 12:00:00 PM -99999.99 -179968 -99999.99 -99999.99 -99999.99 -99999.99
7/13/2021 12:15:00 PM -99999.99 -179968 -99999.99 -99999.99 -99999.99 -99999.99
7/13/2021 12:30:00 PM -99999.99 -179968 -99999.99 -99999.99 -99999.99 -99999.99
7/13/2021 12:45:00 PM -99999.99 -179968 -99999.99 -99999.99 -99999.99 -99999.99
7/13/2021 1:00:00 PM -99999.99 -179968 -99999.99 -99999.99 -99999.99 -99999.99
7/13/2021 1:15:00 PM -99999.99 -179968 -99999.99 -99999.99 -99999.99 -99999.99
7/13/2021 1:30:00 PM -99999.99 -179968 -99999.99 -99999.99 -99999.99 -99999.99
7/13/2021 1:45:00 PM -99999.99 -179968 -99999.99 -99999.99 -99999.99 -99999.99
7/13/2021 2:00:00 PM -99999.99 -179968 -99999.99 -99999.99 -99999.99 -99999.99
7/13/2021 2:15:00 PM -99999.99 -179968 -99999.99 -99999.99 -99999.99 -99999.99
7/13/2021 2:30:00 PM -99999.99 -179968 -99999.99 -99999.99 -99999.99 -99999.99
7/13/2021 2:45:00 PM -99999.99 -179968 -99999.99 -99999.99 -99999.99 -99999.99
7/13/2021 3:00:00 PM -99999.99 -179968 -99999.99 -99999.99 -99999.99 -99999.99
7/13/2021 3:15:00 PM -99999.99 -179968 -99999.99 -99999.99 -99999.99 -99999.99
7/13/2021 3:30:00 PM -99999.99 -179968 -99999.99 -99999.99 -99999.99 -99999.99
7/13/2021 3:45:00 PM -99999.99 -179968 -99999.99 -99999.99 -99999.99 -99999.99
7/13/2021 4:00:00 PM -99999.99 -179968 -99999.99 -99999.99 -99999.99 -99999.99
7/13/2021 4:15:00 PM -99999.99 -179968 -99999.99 -99999.99 -99999.99 -99999.99
7/13/2021 4:30:00 PM -99999.99 -179968 -99999.99 -99999.99 -99999.99 -99999.99
7/13/2021 4:45:00 PM -99999.99 -179968 -99999.99 -99999.99 -99999.99 -99999.99
7/13/2021 5:00:00 PM -99999.99 -179968 -99999.99 -99999.99 -99999.99 -99999.99
7/13/2021 5:15:00 PM -99999.99 -179968 -99999.99 -99999.99 -99999.99 -99999.99
7/13/2021 5:30:00 PM -99999.99 -179968 -99999.99 -99999.99 -99999.99 -99999.99
7/13/2021 5:45:00 PM -99999.99 -179968 -99999.99 -99999.99 -99999.99 -99999.99
7/13/2021 6:00:00 PM -99999.99 -179968 -99999.99 -99999.99 -99999.99 -99999.99
7/13/2021 6:15:00 PM -99999.99 -179968 -99999.99 -99999.99 -99999.99 -99999.99
7/13/2021 6:30:00 PM -99999.99 -179968 -99999.99 -99999.99 -99999.99 -99999.99
7/13/2021 6:45:00 PM -99999.99 -179968 -99999.99 -99999.99 -99999.99 -99999.99
7/13/2021 7:00:00 PM -99999.99 -179968 -99999.99 -99999.99 -99999.99 -99999.99
7/13/2021 7:15:00 PM -99999.99 -179968 -99999.99 -99999.99 -99999.99 -99999.99
7/13/2021 7:30:00 PM -99999.99 -179968 -99999.99 -99999.99 -99999.99 -99999.99
7/13/2021 7:45:00 PM -99999.99 -179968 -99999.99 -99999.99 -99999.99 -99999.99
7/13/2021 8:00:00 PM -99999.99 -179968 -99999.99 -99999.99 -99999.99 -99999.99
7/13/2021 8:15:00 PM -99999.99 -179968 -99999.99 -99999.99 -99999.99 -99999.99
7/13/2021 8:30:00 PM -99999.99 -179968 -99999.99 -99999.99 -99999.99 -99999.99
7/13/2021 8:45:00 PM -99999.99 -179968 -99999.99 -99999.99 -99999.99 -99999.99
7/13/2021 9:00:00 PM -99999.99 -179968 -99999.99 -99999.99 -99999.99 -99999.99
7/13/2021 9:15:00 PM -99999.99 -179968 -99999.99 -99999.99 -99999.99 -99999.99
7/13/2021 9:30:00 PM -99999.99 -179968 -99999.99 -99999.99 -99999.99 -99999.99
7/13/2021 9:45:00 PM -99999.99 -179968 -99999.99 -99999.99 -99999.99 -99999.99
7/13/2021 10:00:00 PM -99999.99 -179968 -99999.99 -99999.99 -99999.99 -99999.99
7/13/2021 10:15:00 PM -99999.99 -179968 -99999.99 -99999.99 -99999.99 -99999.99
7/13/2021 10:30:00 PM -99999.99 -179968 -99999.99 -99999.99 -99999.99 -99999.99
7/13/2021 10:45:00 PM -99999.99 -179968 -99999.99 -99999.99 -99999.99 -99999.99
7/13/2021 11:00:00 PM -99999.99 -179968 -99999.99 -99999.99 -99999.99 -99999.99
7/13/2021 11:15:00 PM -99999.99 -179968 -99999.99 -99999.99 -99999.99 -99999.99
7/13/2021 11:30:00 PM -99999.99 -179968 -99999.99 -99999.99 -99999.99 -99999.99
7/13/2021 11:45:00 PM -99999.99 -179968 -99999.99 -99999.99 -99999.99 -99999.99
7/14/2021 12:00:00 AM -99999.99 -179968 -99999.99 -99999.99 -99999.99 -99999.99
7/14/2021 12:15:00 AM -99999.99 -179968 -99999.99 -99999.99 -99999.99 -99999.99
7/14/2021 12:30:00 AM -99999.99 -179968 -99999.99 -99999.99 -99999.99 -99999.99
7/14/2021 12:45:00 AM -99999.99 -179968 -99999.99 -99999.99 -99999.99 -99999.99
7/14/2021 1:00:00 AM -99999.99 -179968 -99999.99 -99999.99 -99999.99 -99999.99
7/14/2021 1:15:00 AM -99999.99 -179968 -99999.99 -99999.99 -99999.99 -99999.99
7/14/2021 1:30:00 AM -99999.99 -179968 -99999.99 -99999.99 -99999.99 -99999.99
7/14/2021 1:45:00 AM -99999.99 -179968 -99999.99 -99999.99 -99999.99 -99999.99
7/14/2021 2:00:00 AM -99999.99 -179968 -99999.99 -99999.99 -99999.99 -99999.99
7/14/2021 2:15:00 AM -99999.99 -179968 -99999.99 -99999.99 -99999.99 -99999.99
7/14/2021 2:30:00 AM -99999.99 -179968 -99999.99 -99999.99 -99999.99 -99999.99
7/14/2021 2:45:00 AM -99999.99 -179968 -99999.99 -99999.99 -99999.99 -99999.99
7/14/2021 3:00:00 AM -99999.99 -179968 -99999.99 -99999.99 -99999.99 -99999.99
7/14/2021 3:15:00 AM -99999.99 -179968 -99999.99 -99999.99 -99999.99 -99999.99
7/14/2021 3:30:00 AM -99999.99 -179968 -99999.99 -99999.99 -99999.99 -99999.99
7/14/2021 3:45:00 AM -99999.99 -179968 -99999.99 -99999.99 -99999.99 -99999.99
7/14/2021 4:00:00 AM -99999.99 -179968 -99999.99 -99999.99 -99999.99 -99999.99
7/14/2021 4:15:00 AM -99999.99 -179968 -99999.99 -99999.99 -99999.99 -99999.99
7/14/2021 4:30:00 AM -99999.99 -179968 -99999.99 -99999.99 -99999.99 -99999.99
7/14/2021 4:45:00 AM -99999.99 -179968 -99999.99 -99999.99 -99999.99 -99999.99
7/14/2021 5:00:00 AM -99999.99 -179968 -99999.99 -99999.99 -99999.99 -99999.99
7/14/2021 5:15:00 AM -99999.99 -179968 -99999.99 -99999.99 -99999.99 -99999.99
7/14/2021 5:30:00 AM -99999.99 -179968 -99999.99 -99999.99 -99999.99 -99999.99
7/14/2021 5:45:00 AM -99999.99 -179968 -99999.99 -99999.99 -99999.99 -99999.99
7/14/2021 6:00:00 AM -99999.99 -179968 -99999.99 -99999.99 -99999.99 -99999.99
7/14/2021 6:15:00 AM -99999.99 -179968 -99999.99 -99999.99 -99999.99 -99999.99
7/14/2021 6:30:00 AM -99999.99 -179968 -99999.99 -99999.99 -99999.99 -99999.99
7/14/2021 6:45:00 AM -99999.99 -179968 -99999.99 -99999.99 -99999.99 -99999.99
7/14/2021 7:00:00 AM -99999.99 -179968 -99999.99 -99999.99 -99999.99 -99999.99
7/14/2021 7:15:00 AM -99999.99 -179968 -99999.99 -99999.99 -99999.99 -99999.99
7/14/2021 7:30:00 AM -99999.99 -179968 -99999.99 -99999.99 -99999.99 -99999.99
7/14/2021 7:45:00 AM -99999.99 -179968 -99999.99 -99999.99 -99999.99 -99999.99
7/14/2021 8:00:00 AM -99999.99 -179968 -99999.99 -99999.99 -99999.99 -99999.99
7/14/2021 8:15:00 AM -99999.99 -179968 -99999.99 -99999.99 -99999.99 -99999.99
7/14/2021 8:30:00 AM -99999.99 -179968 -99999.99 -99999.99 -99999.99 -99999.99
7/14/2021 8:45:00 AM -99999.99 -179968 -99999.99 -99999.99 -99999.99 -99999.99
7/14/2021 9:00:00 AM -99999.99 -179968 -99999.99 -99999.99 -99999.99 -99999.99
7/14/2021 9:15:00 AM -99999.99 -179968 -99999.99 -99999.99 -99999.99 -99999.99
7/14/2021 9:30:00 AM -99999.99 -179968 -99999.99 -99999.99 -99999.99 -99999.99
7/14/2021 9:45:00 AM -99999.99 -179968 -99999.99 -99999.99 -99999.99 -99999.99
7/14/2021 10:00:00 AM -99999.99 -179968 -99999.99 -99999.99 -99999.99 -99999.99
7/14/2021 10:15:00 AM -99999.99 -179968 -99999.99 -99999.99 -99999.99 -99999.99
7/14/2021 10:30:00 AM -99999.99 -179968 -99999.99 -99999.99 -99999.99 -99999.99
7/14/2021 10:45:00 AM -99999.99 -179968 -99999.99 -99999.99 -99999.99 -99999.99
7/14/2021 11:00:00 AM -99999.99 -179968 -99999.99 -99999.99 -99999.99 -99999.99
7/14/2021 11:15:00 AM -99999.99 -179968 -99999.99 -99999.99 -99999.99 -99999.99
7/14/2021 11:30:00 AM -99999.99 -179968 -99999.99 -99999.99 -99999.99 -99999.99
7/14/2021 11:45:00 AM -99999.99 -179968 -99999.99 -99999.99 -99999.99 -99999.99
7/14/2021 12:00:00 PM -99999.99 -179968 -99999.99 -99999.99 -99999.99 -99999.99
7/14/2021 12:15:00 PM -99999.99 -179968 -99999.99 -99999.99 -99999.99 -99999.99
7/14/2021 12:30:00 PM -99999.99 -179968 -99999.99 -99999.99 -99999.99 -99999.99
7/14/2021 12:45:00 PM -99999.99 -179968 -99999.99 -99999.99 -99999.99 -99999.99
7/14/2021 1:00:00 PM -99999.99 -179968 -99999.99 -99999.99 -99999.99 -99999.99
7/14/2021 1:15:00 PM -99999.99 -179968 -99999.99 -99999.99 -99999.99 -99999.99
7/14/2021 1:30:00 PM -99999.99 -179968 -99999.99 -99999.99 -99999.99 -99999.99
7/14/2021 1:45:00 PM -99999.99 -179968 -99999.99 -99999.99 -99999.99 -99999.99
7/14/2021 2:00:00 PM -99999.99 -179968 -99999.99 -99999.99 -99999.99 -99999.99
7/14/2021 2:15:00 PM -99999.99 -179968 -99999.99 -99999.99 -99999.99 -99999.99
7/14/2021 2:30:00 PM -99999.99 -179968 -99999.99 -99999.99 -99999.99 -99999.99
7/14/2021 2:45:00 PM -99999.99 -179968 -99999.99 -99999.99 -99999.99 -99999.99
7/14/2021 3:00:00 PM -99999.99 -179968 -99999.99 -99999.99 -99999.99 -99999.99
7/14/2021 3:15:00 PM -99999.99 -179968 -99999.99 -99999.99 -99999.99 -99999.99
7/14/2021 3:30:00 PM -99999.99 -179968 -99999.99 -99999.99 -99999.99 -99999.99
7/14/2021 3:45:00 PM -99999.99 -179968 -99999.99 -99999.99 -99999.99 -99999.99
7/14/2021 4:00:00 PM -99999.99 -179968 -99999.99 -99999.99 -99999.99 -99999.99
7/14/2021 4:15:00 PM -99999.99 -179968 -99999.99 -99999.99 -99999.99 -99999.99
7/14/2021 4:30:00 PM -99999.99 -179968 -99999.99 -99999.99 -99999.99 -99999.99
7/14/2021 4:45:00 PM -99999.99 -179968 -99999.99 -99999.99 -99999.99 -99999.99
7/14/2021 5:00:00 PM -99999.99 -179968 -99999.99 -99999.99 -99999.99 -99999.99
7/14/2021 5:15:00 PM -99999.99 -179968 -99999.99 -99999.99 -99999.99 -99999.99
7/14/2021 5:30:00 PM -99999.99 -179968 -99999.99 -99999.99 -99999.99 -99999.99
7/14/2021 5:45:00 PM -99999.99 -179968 -99999.99 -99999.99 -99999.99 -99999.99
7/14/2021 6:00:00 PM -99999.99 -179968 -99999.99 -99999.99 -99999.99 -99999.99
7/14/2021 6:15:00 PM -99999.99 -179968 -99999.99 -99999.99 -99999.99 -99999.99
7/14/2021 6:30:00 PM -99999.99 -179968 -99999.99 -99999.99 -99999.99 -99999.99
7/14/2021 6:45:00 PM -99999.99 -179968 -99999.99 -99999.99 -99999.99 -99999.99
7/14/2021 7:00:00 PM -99999.99 -179968 -99999.99 -99999.99 -99999.99 -99999.99
7/14/2021 7:15:00 PM -99999.99 -179968 -99999.99 -99999.99 -99999.99 -99999.99
7/14/2021 7:30:00 PM -99999.99 -179968 -99999.99 -99999.99 -99999.99 -99999.99
7/14/2021 7:45:00 PM -99999.99 -179968 -99999.99 -99999.99 -99999.99 -99999.99
7/14/2021 8:00:00 PM -99999.99 -179968 -99999.99 -99999.99 -99999.99 -99999.99
7/14/2021 8:15:00 PM -99999.99 -179968 -99999.99 -99999.99 -99999.99 -99999.99
7/14/2021 8:30:00 PM -99999.99 -179968 -99999.99 -99999.99 -99999.99 -99999.99
7/14/2021 8:45:00 PM -99999.99 -179968 -99999.99 -99999.99 -99999.99 -99999.99
7/14/2021 9:00:00 PM -99999.99 -179968 -99999.99 -99999.99 -99999.99 -99999.99
7/14/2021 9:15:00 PM -99999.99 -179968 -99999.99 -99999.99 -99999.99 -99999.99
7/14/2021 9:30:00 PM -99999.99 -179968 -99999.99 -99999.99 -99999.99 -99999.99
7/14/2021 9:45:00 PM -99999.99 -179968 -99999.99 -99999.99 -99999.99 -99999.99
7/14/2021 10:00:00 PM -99999.99 -179968 -99999.99 -99999.99 -99999.99 -99999.99
7/14/2021 10:15:00 PM -99999.99 -179968 -99999.99 -99999.99 -99999.99 -99999.99
7/14/2021 10:30:00 PM -99999.99 -179968 -99999.99 -99999.99 -99999.99 -99999.99
7/14/2021 10:45:00 PM -99999.99 -179968 -99999.99 -99999.99 -99999.99 -99999.99
7/14/2021 11:00:00 PM -99999.99 -179968 -99999.99 -99999.99 -99999.99 -99999.99
7/14/2021 11:15:00 PM -99999.99 -179968 -99999.99 -99999.99 -99999.99 -99999.99
7/14/2021 11:30:00 PM -99999.99 -179968 -99999.99 -99999.99 -99999.99 -99999.99
7/14/2021 11:45:00 PM -99999.99 -179968 -99999.99 -99999.99 -99999.99 -99999.99
7/15/2021 12:00:00 AM -99999.99 -179968 -99999.99 -99999.99 -99999.99 -99999.99
7/15/2021 12:15:00 AM -99999.99 -179968 -99999.99 -99999.99 -99999.99 -99999.99
7/15/2021 12:30:00 AM -99999.99 -179968 -99999.99 -99999.99 -99999.99 -99999.99
7/15/2021 12:45:00 AM -99999.99 -179968 -99999.99 -99999.99 -99999.99 -99999.99
7/15/2021 1:00:00 AM -99999.99 -179968 -99999.99 -99999.99 -99999.99 -99999.99
7/15/2021 1:15:00 AM -99999.99 -179968 -99999.99 -99999.99 -99999.99 -99999.99
7/15/2021 1:30:00 AM -99999.99 -179968 -99999.99 -99999.99 -99999.99 -99999.99
7/15/2021 1:45:00 AM -99999.99 -179968 -99999.99 -99999.99 -99999.99 -99999.99
7/15/2021 2:00:00 AM -99999.99 -179968 -99999.99 -99999.99 -99999.99 -99999.99
7/15/2021 2:15:00 AM -99999.99 -179968 -99999.99 -99999.99 -99999.99 -99999.99
7/15/2021 2:30:00 AM -99999.99 -179968 -99999.99 -99999.99 -99999.99 -99999.99
7/15/2021 2:45:00 AM -99999.99 -179968 -99999.99 -99999.99 -99999.99 -99999.99
7/15/2021 3:00:00 AM -99999.99 -179968 -99999.99 -99999.99 -99999.99 -99999.99
7/15/2021 3:15:00 AM -99999.99 -179968 -99999.99 -99999.99 -99999.99 -99999.99
7/15/2021 3:30:00 AM -99999.99 -179968 -99999.99 -99999.99 -99999.99 -99999.99
7/15/2021 3:45:00 AM -99999.99 -179968 -99999.99 -99999.99 -99999.99 -99999.99
7/15/2021 4:00:00 AM -99999.99 -179968 -99999.99 -99999.99 -99999.99 -99999.99
7/15/2021 4:15:00 AM -99999.99 -179968 -99999.99 -99999.99 -99999.99 -99999.99
7/15/2021 4:30:00 AM -99999.99 -179968 -99999.99 -99999.99 -99999.99 -99999.99
7/15/2021 4:45:00 AM -99999.99 -179968 -99999.99 -99999.99 -99999.99 -99999.99
7/15/2021 5:00:00 AM -99999.99 -179968 -99999.99 -99999.99 -99999.99 -99999.99
7/15/2021 5:15:00 AM -99999.99 -179968 -99999.99 -99999.99 -99999.99 -99999.99
7/15/2021 5:30:00 AM -99999.99 -179968 -99999.99 -99999.99 -99999.99 -99999.99
7/15/2021 5:45:00 AM -99999.99 -179968 -99999.99 -99999.99 -99999.99 -99999.99
7/15/2021 6:00:00 AM -99999.99 -179968 -99999.99 -99999.99 -99999.99 -99999.99
7/15/2021 6:15:00 AM -99999.99 -179968 -99999.99 -99999.99 -99999.99 -99999.99
7/15/2021 6:30:00 AM -99999.99 -179968 -99999.99 -99999.99 -99999.99 -99999.99
7/15/2021 6:45:00 AM -99999.99 -179968 -99999.99 -99999.99 -99999.99 -99999.99
7/15/2021 7:00:00 AM -99999.99 -179968 -99999.99 -99999.99 -99999.99 -99999.99
7/15/2021 7:15:00 AM -99999.99 -179968 -99999.99 -99999.99 -99999.99 -99999.99
7/15/2021 7:30:00 AM -99999.99 -179968 -99999.99 -99999.99 -99999.99 -99999.99
7/15/2021 7:45:00 AM -99999.99 -179968 -99999.99 -99999.99 -99999.99 -99999.99
7/15/2021 8:00:00 AM -99999.99 -179968 -99999.99 -99999.99 -99999.99 -99999.99
7/15/2021 8:15:00 AM -99999.99 -179968 -99999.99 -99999.99 -99999.99 -99999.99
7/15/2021 8:30:00 AM -99999.99 -179968 -99999.99 -99999.99 -99999.99 -99999.99
7/15/2021 8:45:00 AM -99999.99 -179968 -99999.99 -99999.99 -99999.99 -99999.99
7/15/2021 9:00:00 AM -99999.99 -179968 -99999.99 -99999.99 -99999.99 -99999.99
7/15/2021 9:15:00 AM -99999.99 -179968 -99999.99 -99999.99 -99999.99 -99999.99
7/15/2021 9:30:00 AM -99999.99 -179968 -99999.99 -99999.99 -99999.99 -99999.99
7/15/2021 9:45:00 AM -99999.99 -179968 -99999.99 -99999.99 -99999.99 -99999.99
7/15/2021 10:00:00 AM -99999.99 -179968 -99999.99 -99999.99 -99999.99 -99999.99
7/15/2021 10:15:00 AM -99999.99 -179968 -99999.99 -99999.99 -99999.99 -99999.99
7/15/2021 10:30:00 AM -99999.99 -179968 -99999.99 -99999.99 -99999.99 -99999.99
7/15/2021 10:45:00 AM -99999.99 -179968 -99999.99 -99999.99 -99999.99 -99999.99
7/15/2021 11:00:00 AM -99999.99 -179968 -99999.99 -99999.99 -99999.99 -99999.99
7/15/2021 11:15:00 AM -99999.99 -179968 -99999.99 -99999.99 -99999.99 -99999.99
7/15/2021 11:30:00 AM -99999.99 -179968 -99999.99 -99999.99 -99999.99 -99999.99
7/15/2021 11:45:00 AM -99999.99 -179968 -99999.99 -99999.99 -99999.99 -99999.99
7/15/2021 12:00:00 PM -99999.99 -179968 -99999.99 -99999.99 -99999.99 -99999.99
7/15/2021 12:15:00 PM -99999.99 -179968 -99999.99 -99999.99 -99999.99 -99999.99
7/15/2021 12:30:00 PM -99999.99 -179968 -99999.99 -99999.99 -99999.99 -99999.99
7/15/2021 12:45:00 PM -99999.99 -179968 -99999.99 -99999.99 -99999.99 -99999.99
7/15/2021 1:00:00 PM -99999.99 -179968 -99999.99 -99999.99 -99999.99 -99999.99
7/15/2021 1:15:00 PM -99999.99 -179968 -99999.99 -99999.99 -99999.99 -99999.99
7/15/2021 1:30:00 PM -99999.99 -179968 -99999.99 -99999.99 -99999.99 -99999.99
7/15/2021 1:45:00 PM -99999.99 -179968 -99999.99 -99999.99 -99999.99 -99999.99
7/15/2021 2:00:00 PM -99999.99 -179968 -99999.99 -99999.99 -99999.99 -99999.99
7/15/2021 2:15:00 PM -99999.99 -179968 -99999.99 -99999.99 -99999.99 -99999.99
7/15/2021 2:30:00 PM -99999.99 -179968 -99999.99 -99999.99 -99999.99 -99999.99
7/15/2021 2:45:00 PM -99999.99 -179968 -99999.99 -99999.99 -99999.99 -99999.99
7/15/2021 3:00:00 PM -99999.99 -179968 -99999.99 -99999.99 -99999.99 -99999.99
7/15/2021 3:15:00 PM -99999.99 -179968 -99999.99 -99999.99 -99999.99 -99999.99
7/15/2021 3:30:00 PM -99999.99 -179968 -99999.99 -99999.99 -99999.99 -99999.99
7/15/2021 3:45:00 PM -99999.99 -179968 -99999.99 -99999.99 -99999.99 -99999.99
7/15/2021 4:00:00 PM -99999.99 -179968 -99999.99 -99999.99 -99999.99 -99999.99
7/15/2021 4:15:00 PM -99999.99 -179968 -99999.99 -99999.99 -99999.99 -99999.99
7/15/2021 4:30:00 PM -99999.99 -179968 -99999.99 -99999.99 -99999.99 -99999.99
7/15/2021 4:45:00 PM -99999.99 -179968 -99999.99 -99999.99 -99999.99 -99999.99
7/15/2021 5:00:00 PM -99999.99 -179968 -99999.99 -99999.99 -99999.99 -99999.99
7/15/2021 5:15:00 PM -99999.99 -179968 -99999.99 -99999.99 -99999.99 -99999.99
7/15/2021 5:30:00 PM -99999.99 -179968 -99999.99 -99999.99 -99999.99 -99999.99
7/15/2021 5:45:00 PM -99999.99 -179968 -99999.99 -99999.99 -99999.99 -99999.99
7/15/2021 6:00:00 PM -99999.99 -179968 -99999.99 -99999.99 -99999.99 -99999.99
7/15/2021 6:15:00 PM -99999.99 -179968 -99999.99 -99999.99 -99999.99 -99999.99
7/15/2021 6:30:00 PM -99999.99 -179968 -99999.99 -99999.99 -99999.99 -99999.99
7/15/2021 6:45:00 PM -99999.99 -179968 -99999.99 -99999.99 -99999.99 -99999.99
7/15/2021 7:00:00 PM -99999.99 -179968 -99999.99 -99999.99 -99999.99 -99999.99
7/15/2021 7:15:00 PM -99999.99 -179968 -99999.99 -99999.99 -99999.99 -99999.99
7/15/2021 7:30:00 PM -99999.99 -179968 -99999.99 -99999.99 -99999.99 -99999.99
7/15/2021 7:45:00 PM -99999.99 -179968 -99999.99 -99999.99 -99999.99 -99999.99
7/15/2021 8:00:00 PM -99999.99 -179968 -99999.99 -99999.99 -99999.99 -99999.99
7/15/2021 8:15:00 PM -99999.99 -179968 -99999.99 -99999.99 -99999.99 -99999.99
7/15/2021 8:30:00 PM -99999.99 -179968 -99999.99 -99999.99 -99999.99 -99999.99
7/15/2021 8:45:00 PM -99999.99 -179968 -99999.99 -99999.99 -99999.99 -99999.99
7/15/2021 9:00:00 PM -99999.99 -179968 -99999.99 -99999.99 -99999.99 -99999.99
7/15/2021 9:15:00 PM -99999.99 -179968 -99999.99 -99999.99 -99999.99 -99999.99
7/15/2021 9:30:00 PM -99999.99 -179968 -99999.99 -99999.99 -99999.99 -99999.99
7/15/2021 9:45:00 PM -99999.99 -179968 -99999.99 -99999.99 -99999.99 -99999.99
7/15/2021 10:00:00 PM -99999.99 -179968 -99999.99 -99999.99 -99999.99 -99999.99
7/15/2021 10:15:00 PM -99999.99 -179968 -99999.99 -99999.99 -99999.99 -99999.99
7/15/2021 10:30:00 PM -99999.99 -179968 -99999.99 -99999.99 -99999.99 -99999.99
7/15/2021 10:45:00 PM -99999.99 -179968 -99999.99 -99999.99 -99999.99 -99999.99
7/15/2021 11:00:00 PM -99999.99 -179968 -99999.99 -99999.99 -99999.99 -99999.99
7/15/2021 11:15:00 PM -99999.99 -179968 -99999.99 -99999.99 -99999.99 -99999.99
7/15/2021 11:30:00 PM -99999.99 -179968 -99999.99 -99999.99 -99999.99 -99999.99
7/15/2021 11:45:00 PM -99999.99 -179968 -99999.99 -99999.99 -99999.99 -99999.99
7/16/2021 12:00:00 AM -99999.99 -179968 -99999.99 -99999.99 -99999.99 -99999.99
7/16/2021 12:15:00 AM -99999.99 -179968 -99999.99 -99999.99 -99999.99 -99999.99
7/16/2021 12:30:00 AM -99999.99 -179968 -99999.99 -99999.99 -99999.99 -99999.99
7/16/2021 12:45:00 AM -99999.99 -179968 -99999.99 -99999.99 -99999.99 -99999.99
7/16/2021 1:00:00 AM -99999.99 -179968 -99999.99 -99999.99 -99999.99 -99999.99
7/16/2021 1:15:00 AM -99999.99 -179968 -99999.99 -99999.99 -99999.99 -99999.99
7/16/2021 1:30:00 AM -99999.99 -179968 -99999.99 -99999.99 -99999.99 -99999.99
7/16/2021 1:45:00 AM -99999.99 -179968 -99999.99 -99999.99 -99999.99 -99999.99
7/16/2021 2:00:00 AM -99999.99 -179968 -99999.99 -99999.99 -99999.99 -99999.99
7/16/2021 2:15:00 AM -99999.99 -179968 -99999.99 -99999.99 -99999.99 -99999.99
7/16/2021 2:30:00 AM -99999.99 -179968 -99999.99 -99999.99 -99999.99 -99999.99
7/16/2021 2:45:00 AM -99999.99 -179968 -99999.99 -99999.99 -99999.99 -99999.99
7/16/2021 3:00:00 AM -99999.99 -179968 -99999.99 -99999.99 -99999.99 -99999.99
7/16/2021 3:15:00 AM -99999.99 -179968 -99999.99 -99999.99 -99999.99 -99999.99
7/16/2021 3:30:00 AM -99999.99 -179968 -99999.99 -99999.99 -99999.99 -99999.99
7/16/2021 3:45:00 AM -99999.99 -179968 -99999.99 -99999.99 -99999.99 -99999.99
7/16/2021 4:00:00 AM -99999.99 -179968 -99999.99 -99999.99 -99999.99 -99999.99
7/16/2021 4:15:00 AM -99999.99 -179968 -99999.99 -99999.99 -99999.99 -99999.99
7/16/2021 4:30:00 AM -99999.99 -179968 -99999.99 -99999.99 -99999.99 -99999.99
7/16/2021 4:45:00 AM -99999.99 -179968 -99999.99 -99999.99 -99999.99 -99999.99
7/16/2021 5:00:00 AM -99999.99 -179968 -99999.99 -99999.99 -99999.99 -99999.99
7/16/2021 5:15:00 AM -99999.99 -179968 -99999.99 -99999.99 -99999.99 -99999.99
7/16/2021 5:30:00 AM -99999.99 -179968 -99999.99 -99999.99 -99999.99 -99999.99
7/16/2021 5:45:00 AM -99999.99 -179968 -99999.99 -99999.99 -99999.99 -99999.99
7/16/2021 6:00:00 AM -99999.99 -179968 -99999.99 -99999.99